<?xml version="1.0" encoding="UTF-8" standalone="no" ?><gpx xmlns="http://www.topografix.com/GPX/1/1" xmlns:gpxx="http://www.garmin.com/xmlschemas/GpxExtensions/v3" xmlns:wptx1="http://www.garmin.com/xmlschemas/WaypointExtension/v1" xmlns:gpxtpx="http://www.garmin.com/xmlschemas/TrackPointExtension/v1" creator="GuideVTT.com" version="1.1" xmlns:xsi="http://www.w3.org/2001/XMLSchema-instance" xsi:schemaLocation="http://www.topografix.com/GPX/1/1 http://www.topografix.com/GPX/1/1/gpx.xsd http://www.garmin.com/xmlschemas/GpxExtensions/v3 http://www8.garmin.com/xmlschemas/GpxExtensionsv3.xsd http://www.garmin.com/xmlschemas/WaypointExtension/v1 http://www8.garmin.com/xmlschemas/WaypointExtensionv1.xsd http://www.garmin.com/xmlschemas/TrackPointExtension/v1 http://www.garmin.com/xmlschemas/TrackPointExtensionv1.xsd">
<metadata><link href="http://www.garmin.com"><text>Garmin International</text></link><time>2013-06-22T15:13:50Z</time></metadata>
<trk><name>bex.-solalex.gpx</name><extensions><gpxx:TrackExtension><gpxx:DisplayColor>Cyan</gpxx:DisplayColor></gpxx:TrackExtension></extensions><trkseg>
<trkpt lat="46.24534988" lon="7.01392508"><ele></ele><time>2014-4-20T19:54:35Z</time></trkpt>
<trkpt lat="46.24531555" lon="7.01441288"><ele></ele><time>2014-4-20T19:54:38Z</time></trkpt>
<trkpt lat="46.24526978" lon="7.01484919"><ele></ele><time>2014-4-20T19:54:41Z</time></trkpt>
<trkpt lat="46.24535751" lon="7.01524019"><ele></ele><time>2014-4-20T19:54:44Z</time></trkpt>
<trkpt lat="46.24533844" lon="7.01579094"><ele></ele><time>2014-4-20T19:54:47Z</time></trkpt>
<trkpt lat="46.24526215" lon="7.01656389"><ele></ele><time>2014-4-20T19:54:50Z</time></trkpt>
<trkpt lat="46.24519348" lon="7.01732111"><ele></ele><time>2014-4-20T19:54:53Z</time></trkpt>
<trkpt lat="46.24514008" lon="7.01789618"><ele></ele><time>2014-4-20T19:54:56Z</time></trkpt>
<trkpt lat="46.24508286" lon="7.01848078"><ele></ele><time>2014-4-20T19:54:59Z</time></trkpt>
<trkpt lat="46.24501801" lon="7.01906109"><ele></ele><time>2014-4-20T19:55:2Z</time></trkpt>
<trkpt lat="46.24496460" lon="7.01956415"><ele></ele><time>2014-4-20T19:55:5Z</time></trkpt>
<trkpt lat="46.24489594" lon="7.02025509"><ele></ele><time>2014-4-20T19:55:8Z</time></trkpt>
<trkpt lat="46.24482346" lon="7.02091885"><ele></ele><time>2014-4-20T19:55:11Z</time></trkpt>
<trkpt lat="46.24478149" lon="7.02139091"><ele></ele><time>2014-4-20T19:55:14Z</time></trkpt>
<trkpt lat="46.24477768" lon="7.02176905"><ele></ele><time>2014-4-20T19:55:17Z</time></trkpt>
<trkpt lat="46.24484634" lon="7.02218390"><ele></ele><time>2014-4-20T19:55:20Z</time></trkpt>
<trkpt lat="46.24493408" lon="7.02261019"><ele></ele><time>2014-4-20T19:55:23Z</time></trkpt>
<trkpt lat="46.24496078" lon="7.02281904"><ele></ele><time>2014-4-20T19:55:26Z</time></trkpt>
<trkpt lat="46.24502945" lon="7.02299690"><ele></ele><time>2014-4-20T19:55:29Z</time></trkpt>
<trkpt lat="46.24501038" lon="7.02303696"><ele></ele><time>2014-4-20T19:55:32Z</time></trkpt>
<trkpt lat="46.24487305" lon="7.02337885"><ele></ele><time>2014-4-20T19:55:35Z</time></trkpt>
<trkpt lat="46.24486542" lon="7.02360678"><ele></ele><time>2014-4-20T19:55:38Z</time></trkpt>
<trkpt lat="46.24488068" lon="7.02392101"><ele></ele><time>2014-4-20T19:55:41Z</time></trkpt>
<trkpt lat="46.24488831" lon="7.02426910"><ele></ele><time>2014-4-20T19:55:44Z</time></trkpt>
<trkpt lat="46.24497223" lon="7.02467203"><ele></ele><time>2014-4-20T19:55:47Z</time></trkpt>
<trkpt lat="46.24508667" lon="7.02513885"><ele></ele><time>2014-4-20T19:55:50Z</time></trkpt>
<trkpt lat="46.24525452" lon="7.02579117"><ele></ele><time>2014-4-20T19:55:53Z</time></trkpt>
<trkpt lat="46.24544907" lon="7.02656507"><ele></ele><time>2014-4-20T19:55:56Z</time></trkpt>
<trkpt lat="46.24563980" lon="7.02727413"><ele></ele><time>2014-4-20T19:55:59Z</time></trkpt>
<trkpt lat="46.24580383" lon="7.02792215"><ele></ele><time>2014-4-20T19:56:2Z</time></trkpt>
<trkpt lat="46.24592209" lon="7.02836514"><ele></ele><time>2014-4-20T19:56:5Z</time></trkpt>
<trkpt lat="46.24608612" lon="7.02837276"><ele></ele><time>2014-4-20T19:56:8Z</time></trkpt>
<trkpt lat="46.24640274" lon="7.02818823"><ele></ele><time>2014-4-20T19:56:11Z</time></trkpt>
<trkpt lat="46.24689865" lon="7.02790213"><ele></ele><time>2014-4-20T19:56:14Z</time></trkpt>
<trkpt lat="46.24738693" lon="7.02762890"><ele></ele><time>2014-4-20T19:56:17Z</time></trkpt>
<trkpt lat="46.24794006" lon="7.02731991"><ele></ele><time>2014-4-20T19:56:20Z</time></trkpt>
<trkpt lat="46.24840164" lon="7.02707195"><ele></ele><time>2014-4-20T19:56:23Z</time></trkpt>
<trkpt lat="46.24846649" lon="7.02703905"><ele></ele><time>2014-4-20T19:56:26Z</time></trkpt>
<trkpt lat="46.24857712" lon="7.02685690"><ele></ele><time>2014-4-20T19:56:29Z</time></trkpt>
<trkpt lat="46.24855423" lon="7.02661419"><ele></ele><time>2014-4-20T19:56:32Z</time></trkpt>
<trkpt lat="46.24861526" lon="7.02633810"><ele></ele><time>2014-4-20T19:56:35Z</time></trkpt>
<trkpt lat="46.24873352" lon="7.02618504"><ele></ele><time>2014-4-20T19:56:38Z</time></trkpt>
<trkpt lat="46.24887466" lon="7.02603912"><ele></ele><time>2014-4-20T19:56:41Z</time></trkpt>
<trkpt lat="46.24917984" lon="7.02593803"><ele></ele><time>2014-4-20T19:56:44Z</time></trkpt>
<trkpt lat="46.24936676" lon="7.02590322"><ele></ele><time>2014-4-20T19:56:47Z</time></trkpt>
<trkpt lat="46.24974442" lon="7.02582788"><ele></ele><time>2014-4-20T19:56:50Z</time></trkpt>
<trkpt lat="46.25022507" lon="7.02572107"><ele></ele><time>2014-4-20T19:56:53Z</time></trkpt>
<trkpt lat="46.25040436" lon="7.02566719"><ele></ele><time>2014-4-20T19:56:56Z</time></trkpt>
<trkpt lat="46.25084305" lon="7.02536917"><ele></ele><time>2014-4-20T19:56:59Z</time></trkpt>
<trkpt lat="46.25108719" lon="7.02518320"><ele></ele><time>2014-4-20T19:57:2Z</time></trkpt>
<trkpt lat="46.25128174" lon="7.02515793"><ele></ele><time>2014-4-20T19:57:5Z</time></trkpt>
<trkpt lat="46.25136948" lon="7.02536678"><ele></ele><time>2014-4-20T19:57:8Z</time></trkpt>
<trkpt lat="46.25140381" lon="7.02574396"><ele></ele><time>2014-4-20T19:57:11Z</time></trkpt>
<trkpt lat="46.25139236" lon="7.02588892"><ele></ele><time>2014-4-20T19:57:14Z</time></trkpt>
<trkpt lat="46.25144577" lon="7.02628088"><ele></ele><time>2014-4-20T19:57:17Z</time></trkpt>
<trkpt lat="46.25154114" lon="7.02657080"><ele></ele><time>2014-4-20T19:57:20Z</time></trkpt>
<trkpt lat="46.25153351" lon="7.02687597"><ele></ele><time>2014-4-20T19:57:23Z</time></trkpt>
<trkpt lat="46.25150681" lon="7.02692509"><ele></ele><time>2014-4-20T19:57:26Z</time></trkpt>
<trkpt lat="46.25122070" lon="7.02728224"><ele></ele><time>2014-4-20T19:57:29Z</time></trkpt>
<trkpt lat="46.25113678" lon="7.02743196"><ele></ele><time>2014-4-20T19:57:32Z</time></trkpt>
<trkpt lat="46.25109482" lon="7.02763796"><ele></ele><time>2014-4-20T19:57:35Z</time></trkpt>
<trkpt lat="46.25115585" lon="7.02797794"><ele></ele><time>2014-4-20T19:57:38Z</time></trkpt>
<trkpt lat="46.25127792" lon="7.02849102"><ele></ele><time>2014-4-20T19:57:41Z</time></trkpt>
<trkpt lat="46.25132751" lon="7.02870178"><ele></ele><time>2014-4-20T19:57:44Z</time></trkpt>
<trkpt lat="46.25136185" lon="7.02883577"><ele></ele><time>2014-4-20T19:57:47Z</time></trkpt>
<trkpt lat="46.25150681" lon="7.02908087"><ele></ele><time>2014-4-20T19:57:50Z</time></trkpt>
<trkpt lat="46.25153351" lon="7.02917099"><ele></ele><time>2014-4-20T19:57:53Z</time></trkpt>
<trkpt lat="46.25160599" lon="7.02964211"><ele></ele><time>2014-4-20T19:57:56Z</time></trkpt>
<trkpt lat="46.25157166" lon="7.03008080"><ele></ele><time>2014-4-20T19:57:59Z</time></trkpt>
<trkpt lat="46.25152588" lon="7.03026819"><ele></ele><time>2014-4-20T19:58:2Z</time></trkpt>
<trkpt lat="46.25148773" lon="7.03038883"><ele></ele><time>2014-4-20T19:58:5Z</time></trkpt>
<trkpt lat="46.25146484" lon="7.03055000"><ele></ele><time>2014-4-20T19:58:8Z</time></trkpt>
<trkpt lat="46.25151825" lon="7.03069305"><ele></ele><time>2014-4-20T19:58:11Z</time></trkpt>
<trkpt lat="46.25162888" lon="7.03066778"><ele></ele><time>2014-4-20T19:58:14Z</time></trkpt>
<trkpt lat="46.25166702" lon="7.03064680"><ele></ele><time>2014-4-20T19:58:17Z</time></trkpt>
<trkpt lat="46.25179672" lon="7.03063679"><ele></ele><time>2014-4-20T19:58:20Z</time></trkpt>
<trkpt lat="46.25196075" lon="7.03066683"><ele></ele><time>2014-4-20T19:58:23Z</time></trkpt>
<trkpt lat="46.25219345" lon="7.03071785"><ele></ele><time>2014-4-20T19:58:26Z</time></trkpt>
<trkpt lat="46.25232315" lon="7.03073692"><ele></ele><time>2014-4-20T19:58:29Z</time></trkpt>
<trkpt lat="46.25246429" lon="7.03070021"><ele></ele><time>2014-4-20T19:58:32Z</time></trkpt>
<trkpt lat="46.25273132" lon="7.03043985"><ele></ele><time>2014-4-20T19:58:35Z</time></trkpt>
<trkpt lat="46.25281906" lon="7.03030491"><ele></ele><time>2014-4-20T19:58:38Z</time></trkpt>
<trkpt lat="46.25294876" lon="7.02997017"><ele></ele><time>2014-4-20T19:58:41Z</time></trkpt>
<trkpt lat="46.25297165" lon="7.02989578"><ele></ele><time>2014-4-20T19:58:44Z</time></trkpt>
<trkpt lat="46.25316238" lon="7.02962494"><ele></ele><time>2014-4-20T19:58:47Z</time></trkpt>
<trkpt lat="46.25321960" lon="7.02962399"><ele></ele><time>2014-4-20T19:58:50Z</time></trkpt>
<trkpt lat="46.25334549" lon="7.02962494"><ele></ele><time>2014-4-20T19:58:53Z</time></trkpt>
<trkpt lat="46.25357437" lon="7.02949190"><ele></ele><time>2014-4-20T19:58:56Z</time></trkpt>
<trkpt lat="46.25369263" lon="7.02938604"><ele></ele><time>2014-4-20T19:58:59Z</time></trkpt>
<trkpt lat="46.25406265" lon="7.02914619"><ele></ele><time>2014-4-20T19:59:2Z</time></trkpt>
<trkpt lat="46.25425720" lon="7.02903318"><ele></ele><time>2014-4-20T19:59:5Z</time></trkpt>
<trkpt lat="46.25449753" lon="7.02875280"><ele></ele><time>2014-4-20T19:59:8Z</time></trkpt>
<trkpt lat="46.25459671" lon="7.02857780"><ele></ele><time>2014-4-20T19:59:11Z</time></trkpt>
<trkpt lat="46.25467682" lon="7.02832508"><ele></ele><time>2014-4-20T19:59:14Z</time></trkpt>
<trkpt lat="46.25471115" lon="7.02819586"><ele></ele><time>2014-4-20T19:59:17Z</time></trkpt>
<trkpt lat="46.25487518" lon="7.02787113"><ele></ele><time>2014-4-20T19:59:20Z</time></trkpt>
<trkpt lat="46.25492859" lon="7.02772617"><ele></ele><time>2014-4-20T19:59:23Z</time></trkpt>
<trkpt lat="46.25498962" lon="7.02737188"><ele></ele><time>2014-4-20T19:59:26Z</time></trkpt>
<trkpt lat="46.25503922" lon="7.02705622"><ele></ele><time>2014-4-20T19:59:29Z</time></trkpt>
<trkpt lat="46.25504303" lon="7.02688217"><ele></ele><time>2014-4-20T19:59:32Z</time></trkpt>
<trkpt lat="46.25492477" lon="7.02665615"><ele></ele><time>2014-4-20T19:59:35Z</time></trkpt>
<trkpt lat="46.25486374" lon="7.02659988"><ele></ele><time>2014-4-20T19:59:38Z</time></trkpt>
<trkpt lat="46.25473404" lon="7.02649307"><ele></ele><time>2014-4-20T19:59:41Z</time></trkpt>
<trkpt lat="46.25457001" lon="7.02614498"><ele></ele><time>2014-4-20T19:59:44Z</time></trkpt>
<trkpt lat="46.25437164" lon="7.02576780"><ele></ele><time>2014-4-20T19:59:47Z</time></trkpt>
<trkpt lat="46.25433350" lon="7.02569818"><ele></ele><time>2014-4-20T19:59:50Z</time></trkpt>
<trkpt lat="46.25421524" lon="7.02533484"><ele></ele><time>2014-4-20T19:59:53Z</time></trkpt>
<trkpt lat="46.25423050" lon="7.02518082"><ele></ele><time>2014-4-20T19:59:56Z</time></trkpt>
<trkpt lat="46.25424957" lon="7.02516079"><ele></ele><time>2014-4-20T19:59:59Z</time></trkpt>
<trkpt lat="46.25429916" lon="7.02516794"><ele></ele><time>2014-4-20T20:0:2Z</time></trkpt>
<trkpt lat="46.25440598" lon="7.02516699"><ele></ele><time>2014-4-20T20:0:5Z</time></trkpt>
<trkpt lat="46.25446701" lon="7.02524805"><ele></ele><time>2014-4-20T20:0:8Z</time></trkpt>
<trkpt lat="46.25448608" lon="7.02532196"><ele></ele><time>2014-4-20T20:0:11Z</time></trkpt>
<trkpt lat="46.25450134" lon="7.02534199"><ele></ele><time>2014-4-20T20:0:14Z</time></trkpt>
<trkpt lat="46.25463104" lon="7.02558279"><ele></ele><time>2014-4-20T20:0:17Z</time></trkpt>
<trkpt lat="46.25480270" lon="7.02575016"><ele></ele><time>2014-4-20T20:0:20Z</time></trkpt>
<trkpt lat="46.25500107" lon="7.02589178"><ele></ele><time>2014-4-20T20:0:23Z</time></trkpt>
<trkpt lat="46.25519562" lon="7.02601480"><ele></ele><time>2014-4-20T20:0:26Z</time></trkpt>
<trkpt lat="46.25538635" lon="7.02615881"><ele></ele><time>2014-4-20T20:0:29Z</time></trkpt>
<trkpt lat="46.25555420" lon="7.02642393"><ele></ele><time>2014-4-20T20:0:32Z</time></trkpt>
<trkpt lat="46.25560760" lon="7.02654219"><ele></ele><time>2014-4-20T20:0:35Z</time></trkpt>
<trkpt lat="46.25570297" lon="7.02677822"><ele></ele><time>2014-4-20T20:0:38Z</time></trkpt>
<trkpt lat="46.25584412" lon="7.02686787"><ele></ele><time>2014-4-20T20:0:41Z</time></trkpt>
<trkpt lat="46.25605392" lon="7.02696085"><ele></ele><time>2014-4-20T20:0:44Z</time></trkpt>
<trkpt lat="46.25617981" lon="7.02709198"><ele></ele><time>2014-4-20T20:0:47Z</time></trkpt>
<trkpt lat="46.25637817" lon="7.02741385"><ele></ele><time>2014-4-20T20:0:50Z</time></trkpt>
<trkpt lat="46.25652313" lon="7.02772617"><ele></ele><time>2014-4-20T20:0:53Z</time></trkpt>
<trkpt lat="46.25672150" lon="7.02808523"><ele></ele><time>2014-4-20T20:0:56Z</time></trkpt>
<trkpt lat="46.25683594" lon="7.02829981"><ele></ele><time>2014-4-20T20:0:59Z</time></trkpt>
<trkpt lat="46.25707245" lon="7.02868319"><ele></ele><time>2014-4-20T20:1:2Z</time></trkpt>
<trkpt lat="46.25720978" lon="7.02886009"><ele></ele><time>2014-4-20T20:1:5Z</time></trkpt>
<trkpt lat="46.25740433" lon="7.02917719"><ele></ele><time>2014-4-20T20:1:8Z</time></trkpt>
<trkpt lat="46.25754166" lon="7.02948523"><ele></ele><time>2014-4-20T20:1:11Z</time></trkpt>
<trkpt lat="46.25774765" lon="7.02959919"><ele></ele><time>2014-4-20T20:1:14Z</time></trkpt>
<trkpt lat="46.25803757" lon="7.02959013"><ele></ele><time>2014-4-20T20:1:17Z</time></trkpt>
<trkpt lat="46.25826645" lon="7.02961302"><ele></ele><time>2014-4-20T20:1:20Z</time></trkpt>
<trkpt lat="46.25849533" lon="7.02954102"><ele></ele><time>2014-4-20T20:1:23Z</time></trkpt>
<trkpt lat="46.25862885" lon="7.02951479"><ele></ele><time>2014-4-20T20:1:26Z</time></trkpt>
<trkpt lat="46.25888443" lon="7.02957106"><ele></ele><time>2014-4-20T20:1:29Z</time></trkpt>
<trkpt lat="46.25906754" lon="7.02963686"><ele></ele><time>2014-4-20T20:1:32Z</time></trkpt>
<trkpt lat="46.25932312" lon="7.02971983"><ele></ele><time>2014-4-20T20:1:35Z</time></trkpt>
<trkpt lat="46.25950241" lon="7.02972889"><ele></ele><time>2014-4-20T20:1:38Z</time></trkpt>
<trkpt lat="46.25968552" lon="7.02960777"><ele></ele><time>2014-4-20T20:1:41Z</time></trkpt>
<trkpt lat="46.25977707" lon="7.02949619"><ele></ele><time>2014-4-20T20:1:44Z</time></trkpt>
<trkpt lat="46.25996017" lon="7.02923679"><ele></ele><time>2014-4-20T20:1:47Z</time></trkpt>
<trkpt lat="46.26008224" lon="7.02917910"><ele></ele><time>2014-4-20T20:1:50Z</time></trkpt>
<trkpt lat="46.26024628" lon="7.02910900"><ele></ele><time>2014-4-20T20:1:53Z</time></trkpt>
<trkpt lat="46.26047516" lon="7.02904701"><ele></ele><time>2014-4-20T20:1:56Z</time></trkpt>
<trkpt lat="46.26078415" lon="7.02902985"><ele></ele><time>2014-4-20T20:1:59Z</time></trkpt>
<trkpt lat="46.26095963" lon="7.02902794"><ele></ele><time>2014-4-20T20:2:2Z</time></trkpt>
<trkpt lat="46.26114655" lon="7.02921915"><ele></ele><time>2014-4-20T20:2:5Z</time></trkpt>
<trkpt lat="46.26127243" lon="7.02919197"><ele></ele><time>2014-4-20T20:2:8Z</time></trkpt>
<trkpt lat="46.26143265" lon="7.02910709"><ele></ele><time>2014-4-20T20:2:11Z</time></trkpt>
<trkpt lat="46.26155472" lon="7.02906513"><ele></ele><time>2014-4-20T20:2:14Z</time></trkpt>
<trkpt lat="46.26170731" lon="7.02900219"><ele></ele><time>2014-4-20T20:2:17Z</time></trkpt>
<trkpt lat="46.26183701" lon="7.02900410"><ele></ele><time>2014-4-20T20:2:20Z</time></trkpt>
<trkpt lat="46.26182938" lon="7.02908182"><ele></ele><time>2014-4-20T20:2:23Z</time></trkpt>
<trkpt lat="46.26171494" lon="7.02906609"><ele></ele><time>2014-4-20T20:2:26Z</time></trkpt>
<trkpt lat="46.26155853" lon="7.02906513"><ele></ele><time>2014-4-20T20:2:29Z</time></trkpt>
<trkpt lat="46.26140594" lon="7.02923489"><ele></ele><time>2014-4-20T20:2:32Z</time></trkpt>
<trkpt lat="46.26146317" lon="7.02932405"><ele></ele><time>2014-4-20T20:2:35Z</time></trkpt>
<trkpt lat="46.26166916" lon="7.02944279"><ele></ele><time>2014-4-20T20:2:38Z</time></trkpt>
<trkpt lat="46.26171494" lon="7.02945423"><ele></ele><time>2014-4-20T20:2:41Z</time></trkpt>
<trkpt lat="46.26188278" lon="7.02945518"><ele></ele><time>2014-4-20T20:2:44Z</time></trkpt>
<trkpt lat="46.26206970" lon="7.02942991"><ele></ele><time>2014-4-20T20:2:47Z</time></trkpt>
<trkpt lat="46.26221466" lon="7.02940178"><ele></ele><time>2014-4-20T20:2:50Z</time></trkpt>
<trkpt lat="46.26243210" lon="7.02940416"><ele></ele><time>2014-4-20T20:2:53Z</time></trkpt>
<trkpt lat="46.26258469" lon="7.02943802"><ele></ele><time>2014-4-20T20:2:56Z</time></trkpt>
<trkpt lat="46.26264191" lon="7.02950001"><ele></ele><time>2014-4-20T20:2:59Z</time></trkpt>
<trkpt lat="46.26266479" lon="7.02952385"><ele></ele><time>2014-4-20T20:3:2Z</time></trkpt>
<trkpt lat="46.26275635" lon="7.02957201"><ele></ele><time>2014-4-20T20:3:5Z</time></trkpt>
<trkpt lat="46.26290512" lon="7.02965498"><ele></ele><time>2014-4-20T20:3:8Z</time></trkpt>
<trkpt lat="46.26305771" lon="7.02972317"><ele></ele><time>2014-4-20T20:3:11Z</time></trkpt>
<trkpt lat="46.26320267" lon="7.02973223"><ele></ele><time>2014-4-20T20:3:14Z</time></trkpt>
<trkpt lat="46.26334381" lon="7.02980614"><ele></ele><time>2014-4-20T20:3:17Z</time></trkpt>
<trkpt lat="46.26346588" lon="7.02991676"><ele></ele><time>2014-4-20T20:3:20Z</time></trkpt>
<trkpt lat="46.26356506" lon="7.03011990"><ele></ele><time>2014-4-20T20:3:23Z</time></trkpt>
<trkpt lat="46.26364136" lon="7.03029108"><ele></ele><time>2014-4-20T20:3:26Z</time></trkpt>
<trkpt lat="46.26374054" lon="7.03054190"><ele></ele><time>2014-4-20T20:3:29Z</time></trkpt>
<trkpt lat="46.26383972" lon="7.03075314"><ele></ele><time>2014-4-20T20:3:32Z</time></trkpt>
<trkpt lat="46.26391220" lon="7.03084421"><ele></ele><time>2014-4-20T20:3:35Z</time></trkpt>
<trkpt lat="46.26398087" lon="7.03095579"><ele></ele><time>2014-4-20T20:3:38Z</time></trkpt>
<trkpt lat="46.26407242" lon="7.03108883"><ele></ele><time>2014-4-20T20:3:41Z</time></trkpt>
<trkpt lat="46.26422119" lon="7.03123188"><ele></ele><time>2014-4-20T20:3:44Z</time></trkpt>
<trkpt lat="46.26442719" lon="7.03139114"><ele></ele><time>2014-4-20T20:3:47Z</time></trkpt>
<trkpt lat="46.26462173" lon="7.03167200"><ele></ele><time>2014-4-20T20:3:50Z</time></trkpt>
<trkpt lat="46.26479340" lon="7.03196192"><ele></ele><time>2014-4-20T20:3:53Z</time></trkpt>
<trkpt lat="46.26485443" lon="7.03215218"><ele></ele><time>2014-4-20T20:3:56Z</time></trkpt>
<trkpt lat="46.26499176" lon="7.03246403"><ele></ele><time>2014-4-20T20:3:59Z</time></trkpt>
<trkpt lat="46.26508713" lon="7.03272390"><ele></ele><time>2014-4-20T20:4:2Z</time></trkpt>
<trkpt lat="46.26512909" lon="7.03297377"><ele></ele><time>2014-4-20T20:4:5Z</time></trkpt>
<trkpt lat="46.26520157" lon="7.03334713"><ele></ele><time>2014-4-20T20:4:8Z</time></trkpt>
<trkpt lat="46.26529694" lon="7.03365183"><ele></ele><time>2014-4-20T20:4:11Z</time></trkpt>
<trkpt lat="46.26537323" lon="7.03387690"><ele></ele><time>2014-4-20T20:4:14Z</time></trkpt>
<trkpt lat="46.26552582" lon="7.03411102"><ele></ele><time>2014-4-20T20:4:17Z</time></trkpt>
<trkpt lat="46.26566315" lon="7.03439283"><ele></ele><time>2014-4-20T20:4:20Z</time></trkpt>
<trkpt lat="46.26571274" lon="7.03459692"><ele></ele><time>2014-4-20T20:4:23Z</time></trkpt>
<trkpt lat="46.26571274" lon="7.03494310"><ele></ele><time>2014-4-20T20:4:26Z</time></trkpt>
<trkpt lat="46.26569748" lon="7.03515100"><ele></ele><time>2014-4-20T20:4:29Z</time></trkpt>
<trkpt lat="46.26569748" lon="7.03527498"><ele></ele><time>2014-4-20T20:4:32Z</time></trkpt>
<trkpt lat="46.26573181" lon="7.03560114"><ele></ele><time>2014-4-20T20:4:35Z</time></trkpt>
<trkpt lat="46.26578522" lon="7.03584385"><ele></ele><time>2014-4-20T20:4:38Z</time></trkpt>
<trkpt lat="46.26586914" lon="7.03611708"><ele></ele><time>2014-4-20T20:4:41Z</time></trkpt>
<trkpt lat="46.26597595" lon="7.03638411"><ele></ele><time>2014-4-20T20:4:44Z</time></trkpt>
<trkpt lat="46.26603317" lon="7.03667402"><ele></ele><time>2014-4-20T20:4:47Z</time></trkpt>
<trkpt lat="46.26604843" lon="7.03693295"><ele></ele><time>2014-4-20T20:4:50Z</time></trkpt>
<trkpt lat="46.26605225" lon="7.03712702"><ele></ele><time>2014-4-20T20:4:53Z</time></trkpt>
<trkpt lat="46.26607513" lon="7.03734779"><ele></ele><time>2014-4-20T20:4:56Z</time></trkpt>
<trkpt lat="46.26608658" lon="7.03753805"><ele></ele><time>2014-4-20T20:4:59Z</time></trkpt>
<trkpt lat="46.26610184" lon="7.03769684"><ele></ele><time>2014-4-20T20:5:2Z</time></trkpt>
<trkpt lat="46.26609421" lon="7.03784084"><ele></ele><time>2014-4-20T20:5:5Z</time></trkpt>
<trkpt lat="46.26608658" lon="7.03798914"><ele></ele><time>2014-4-20T20:5:8Z</time></trkpt>
<trkpt lat="46.26605606" lon="7.03816223"><ele></ele><time>2014-4-20T20:5:11Z</time></trkpt>
<trkpt lat="46.26597977" lon="7.03838015"><ele></ele><time>2014-4-20T20:5:14Z</time></trkpt>
<trkpt lat="46.26591110" lon="7.03853083"><ele></ele><time>2014-4-20T20:5:17Z</time></trkpt>
<trkpt lat="46.26580811" lon="7.03871679"><ele></ele><time>2014-4-20T20:5:20Z</time></trkpt>
<trkpt lat="46.26572418" lon="7.03888798"><ele></ele><time>2014-4-20T20:5:23Z</time></trkpt>
<trkpt lat="46.26565552" lon="7.03906488"><ele></ele><time>2014-4-20T20:5:26Z</time></trkpt>
<trkpt lat="46.26562119" lon="7.03921795"><ele></ele><time>2014-4-20T20:5:29Z</time></trkpt>
<trkpt lat="46.26554871" lon="7.03938007"><ele></ele><time>2014-4-20T20:5:32Z</time></trkpt>
<trkpt lat="46.26544571" lon="7.03947783"><ele></ele><time>2014-4-20T20:5:35Z</time></trkpt>
<trkpt lat="46.26535797" lon="7.03954792"><ele></ele><time>2014-4-20T20:5:38Z</time></trkpt>
<trkpt lat="46.26528931" lon="7.03962278"><ele></ele><time>2014-4-20T20:5:41Z</time></trkpt>
<trkpt lat="46.26529312" lon="7.03974009"><ele></ele><time>2014-4-20T20:5:44Z</time></trkpt>
<trkpt lat="46.26530457" lon="7.03978491"><ele></ele><time>2014-4-20T20:5:47Z</time></trkpt>
<trkpt lat="46.26528931" lon="7.03998280"><ele></ele><time>2014-4-20T20:5:50Z</time></trkpt>
<trkpt lat="46.26527023" lon="7.04018593"><ele></ele><time>2014-4-20T20:5:53Z</time></trkpt>
<trkpt lat="46.26529312" lon="7.04033422"><ele></ele><time>2014-4-20T20:5:56Z</time></trkpt>
<trkpt lat="46.26530838" lon="7.04044724"><ele></ele><time>2014-4-20T20:5:59Z</time></trkpt>
<trkpt lat="46.26531219" lon="7.04060602"><ele></ele><time>2014-4-20T20:6:2Z</time></trkpt>
<trkpt lat="46.26530075" lon="7.04070997"><ele></ele><time>2014-4-20T20:6:5Z</time></trkpt>
<trkpt lat="46.26524353" lon="7.04084206"><ele></ele><time>2014-4-20T20:6:8Z</time></trkpt>
<trkpt lat="46.26519012" lon="7.04097986"><ele></ele><time>2014-4-20T20:6:11Z</time></trkpt>
<trkpt lat="46.26510620" lon="7.04123402"><ele></ele><time>2014-4-20T20:6:14Z</time></trkpt>
<trkpt lat="46.26512146" lon="7.04140091"><ele></ele><time>2014-4-20T20:6:17Z</time></trkpt>
<trkpt lat="46.26518631" lon="7.04154396"><ele></ele><time>2014-4-20T20:6:20Z</time></trkpt>
<trkpt lat="46.26522827" lon="7.04176712"><ele></ele><time>2014-4-20T20:6:23Z</time></trkpt>
<trkpt lat="46.26527023" lon="7.04195499"><ele></ele><time>2014-4-20T20:6:26Z</time></trkpt>
<trkpt lat="46.26524734" lon="7.04217291"><ele></ele><time>2014-4-20T20:6:29Z</time></trkpt>
<trkpt lat="46.26523972" lon="7.04221392"><ele></ele><time>2014-4-20T20:6:32Z</time></trkpt>
<trkpt lat="46.26519394" lon="7.04243088"><ele></ele><time>2014-4-20T20:6:35Z</time></trkpt>
<trkpt lat="46.26512909" lon="7.04255199"><ele></ele><time>2014-4-20T20:6:38Z</time></trkpt>
<trkpt lat="46.26509857" lon="7.04264593"><ele></ele><time>2014-4-20T20:6:41Z</time></trkpt>
<trkpt lat="46.26501465" lon="7.04277897"><ele></ele><time>2014-4-20T20:6:44Z</time></trkpt>
<trkpt lat="46.26496887" lon="7.04293013"><ele></ele><time>2014-4-20T20:6:47Z</time></trkpt>
<trkpt lat="46.26488876" lon="7.04308081"><ele></ele><time>2014-4-20T20:6:50Z</time></trkpt>
<trkpt lat="46.26478958" lon="7.04319715"><ele></ele><time>2014-4-20T20:6:53Z</time></trkpt>
<trkpt lat="46.26468658" lon="7.04331589"><ele></ele><time>2014-4-20T20:6:56Z</time></trkpt>
<trkpt lat="46.26463318" lon="7.04338217"><ele></ele><time>2014-4-20T20:6:59Z</time></trkpt>
<trkpt lat="46.26462173" lon="7.04348421"><ele></ele><time>2014-4-20T20:7:2Z</time></trkpt>
<trkpt lat="46.26459885" lon="7.04355192"><ele></ele><time>2014-4-20T20:7:5Z</time></trkpt>
<trkpt lat="46.26459885" lon="7.04367924"><ele></ele><time>2014-4-20T20:7:8Z</time></trkpt>
<trkpt lat="46.26464462" lon="7.04383802"><ele></ele><time>2014-4-20T20:7:11Z</time></trkpt>
<trkpt lat="46.26461411" lon="7.04392576"><ele></ele><time>2014-4-20T20:7:14Z</time></trkpt>
<trkpt lat="46.26461029" lon="7.04396105"><ele></ele><time>2014-4-20T20:7:17Z</time></trkpt>
<trkpt lat="46.26458740" lon="7.04404211"><ele></ele><time>2014-4-20T20:7:20Z</time></trkpt>
<trkpt lat="46.26453781" lon="7.04407310"><ele></ele><time>2014-4-20T20:7:23Z</time></trkpt>
<trkpt lat="46.26451111" lon="7.04415178"><ele></ele><time>2014-4-20T20:7:26Z</time></trkpt>
<trkpt lat="46.26446533" lon="7.04427481"><ele></ele><time>2014-4-20T20:7:29Z</time></trkpt>
<trkpt lat="46.26445389" lon="7.04439402"><ele></ele><time>2014-4-20T20:7:32Z</time></trkpt>
<trkpt lat="46.26440430" lon="7.04451180"><ele></ele><time>2014-4-20T20:7:35Z</time></trkpt>
<trkpt lat="46.26436615" lon="7.04457712"><ele></ele><time>2014-4-20T20:7:38Z</time></trkpt>
<trkpt lat="46.26432037" lon="7.04469204"><ele></ele><time>2014-4-20T20:7:41Z</time></trkpt>
<trkpt lat="46.26430511" lon="7.04469681"><ele></ele><time>2014-4-20T20:7:44Z</time></trkpt>
<trkpt lat="46.26421738" lon="7.04489279"><ele></ele><time>2014-4-20T20:7:47Z</time></trkpt>
<trkpt lat="46.26420212" lon="7.04495621"><ele></ele><time>2014-4-20T20:7:50Z</time></trkpt>
<trkpt lat="46.26419067" lon="7.04509115"><ele></ele><time>2014-4-20T20:7:53Z</time></trkpt>
<trkpt lat="46.26416397" lon="7.04539394"><ele></ele><time>2014-4-20T20:7:56Z</time></trkpt>
<trkpt lat="46.26410675" lon="7.04565382"><ele></ele><time>2014-4-20T20:7:59Z</time></trkpt>
<trkpt lat="46.26404953" lon="7.04591799"><ele></ele><time>2014-4-20T20:8:2Z</time></trkpt>
<trkpt lat="46.26408005" lon="7.04596519"><ele></ele><time>2014-4-20T20:8:5Z</time></trkpt>
<trkpt lat="46.26410294" lon="7.04602194"><ele></ele><time>2014-4-20T20:8:8Z</time></trkpt>
<trkpt lat="46.26412582" lon="7.04606295"><ele></ele><time>2014-4-20T20:8:11Z</time></trkpt>
<trkpt lat="46.26415253" lon="7.04617977"><ele></ele><time>2014-4-20T20:8:14Z</time></trkpt>
<trkpt lat="46.26417160" lon="7.04629421"><ele></ele><time>2014-4-20T20:8:17Z</time></trkpt>
<trkpt lat="46.26415634" lon="7.04643106"><ele></ele><time>2014-4-20T20:8:20Z</time></trkpt>
<trkpt lat="46.26416779" lon="7.04655695"><ele></ele><time>2014-4-20T20:8:23Z</time></trkpt>
<trkpt lat="46.26417923" lon="7.04663181"><ele></ele><time>2014-4-20T20:8:26Z</time></trkpt>
<trkpt lat="46.26414108" lon="7.04683924"><ele></ele><time>2014-4-20T20:8:29Z</time></trkpt>
<trkpt lat="46.26416397" lon="7.04696703"><ele></ele><time>2014-4-20T20:8:32Z</time></trkpt>
<trkpt lat="46.26417923" lon="7.04707384"><ele></ele><time>2014-4-20T20:8:35Z</time></trkpt>
<trkpt lat="46.26421738" lon="7.04712009"><ele></ele><time>2014-4-20T20:8:38Z</time></trkpt>
<trkpt lat="46.26425171" lon="7.04710817"><ele></ele><time>2014-4-20T20:8:41Z</time></trkpt>
<trkpt lat="46.26427841" lon="7.04710484"><ele></ele><time>2014-4-20T20:8:44Z</time></trkpt>
<trkpt lat="46.26431656" lon="7.04721689"><ele></ele><time>2014-4-20T20:8:47Z</time></trkpt>
<trkpt lat="46.26432037" lon="7.04736519"><ele></ele><time>2014-4-20T20:8:50Z</time></trkpt>
<trkpt lat="46.26426315" lon="7.04763079"><ele></ele><time>2014-4-20T20:8:53Z</time></trkpt>
<trkpt lat="46.26416779" lon="7.04794407"><ele></ele><time>2014-4-20T20:8:56Z</time></trkpt>
<trkpt lat="46.26404190" lon="7.04825497"><ele></ele><time>2014-4-20T20:8:59Z</time></trkpt>
<trkpt lat="46.26401520" lon="7.04837418"><ele></ele><time>2014-4-20T20:9:2Z</time></trkpt>
<trkpt lat="46.26408386" lon="7.04841089"><ele></ele><time>2014-4-20T20:9:5Z</time></trkpt>
<trkpt lat="46.26420593" lon="7.04838705"><ele></ele><time>2014-4-20T20:9:8Z</time></trkpt>
<trkpt lat="46.26430130" lon="7.04838324"><ele></ele><time>2014-4-20T20:9:11Z</time></trkpt>
<trkpt lat="46.26432037" lon="7.04839993"><ele></ele><time>2014-4-20T20:9:14Z</time></trkpt>
<trkpt lat="46.26437759" lon="7.04839802"><ele></ele><time>2014-4-20T20:9:17Z</time></trkpt>
<trkpt lat="46.26442337" lon="7.04843187"><ele></ele><time>2014-4-20T20:9:20Z</time></trkpt>
<trkpt lat="46.26441956" lon="7.04847193"><ele></ele><time>2014-4-20T20:9:23Z</time></trkpt>
<trkpt lat="46.26444626" lon="7.04864883"><ele></ele><time>2014-4-20T20:9:26Z</time></trkpt>
<trkpt lat="46.26449203" lon="7.04883003"><ele></ele><time>2014-4-20T20:9:29Z</time></trkpt>
<trkpt lat="46.26449585" lon="7.04889917"><ele></ele><time>2014-4-20T20:9:32Z</time></trkpt>
<trkpt lat="46.26445389" lon="7.04908419"><ele></ele><time>2014-4-20T20:9:35Z</time></trkpt>
<trkpt lat="46.26444244" lon="7.04911423"><ele></ele><time>2014-4-20T20:9:38Z</time></trkpt>
<trkpt lat="46.26442337" lon="7.04916382"><ele></ele><time>2014-4-20T20:9:41Z</time></trkpt>
<trkpt lat="46.26434326" lon="7.04917479"><ele></ele><time>2014-4-20T20:9:44Z</time></trkpt>
<trkpt lat="46.26427460" lon="7.04914379"><ele></ele><time>2014-4-20T20:9:47Z</time></trkpt>
<trkpt lat="46.26426315" lon="7.04913902"><ele></ele><time>2014-4-20T20:9:50Z</time></trkpt>
<trkpt lat="46.26425934" lon="7.04915094"><ele></ele><time>2014-4-20T20:9:53Z</time></trkpt>
<trkpt lat="46.26419067" lon="7.04920292"><ele></ele><time>2014-4-20T20:9:56Z</time></trkpt>
<trkpt lat="46.26417542" lon="7.04926682"><ele></ele><time>2014-4-20T20:9:59Z</time></trkpt>
<trkpt lat="46.26416016" lon="7.04940987"><ele></ele><time>2014-4-20T20:10:2Z</time></trkpt>
<trkpt lat="46.26409531" lon="7.04948711"><ele></ele><time>2014-4-20T20:10:5Z</time></trkpt>
<trkpt lat="46.26407242" lon="7.04951906"><ele></ele><time>2014-4-20T20:10:8Z</time></trkpt>
<trkpt lat="46.26398468" lon="7.04957914"><ele></ele><time>2014-4-20T20:10:11Z</time></trkpt>
<trkpt lat="46.26393890" lon="7.04959679"><ele></ele><time>2014-4-20T20:10:14Z</time></trkpt>
<trkpt lat="46.26388931" lon="7.04964781"><ele></ele><time>2014-4-20T20:10:17Z</time></trkpt>
<trkpt lat="46.26386642" lon="7.04969215"><ele></ele><time>2014-4-20T20:10:20Z</time></trkpt>
<trkpt lat="46.26381683" lon="7.04978609"><ele></ele><time>2014-4-20T20:10:23Z</time></trkpt>
<trkpt lat="46.26377487" lon="7.04987288"><ele></ele><time>2014-4-20T20:10:26Z</time></trkpt>
<trkpt lat="46.26377106" lon="7.04998016"><ele></ele><time>2014-4-20T20:10:29Z</time></trkpt>
<trkpt lat="46.26377869" lon="7.05008984"><ele></ele><time>2014-4-20T20:10:32Z</time></trkpt>
<trkpt lat="46.26377487" lon="7.05025101"><ele></ele><time>2014-4-20T20:10:35Z</time></trkpt>
<trkpt lat="46.26374435" lon="7.05037308"><ele></ele><time>2014-4-20T20:10:38Z</time></trkpt>
<trkpt lat="46.26370621" lon="7.05052996"><ele></ele><time>2014-4-20T20:10:41Z</time></trkpt>
<trkpt lat="46.26371002" lon="7.05054283"><ele></ele><time>2014-4-20T20:10:44Z</time></trkpt>
<trkpt lat="46.26373672" lon="7.05073214"><ele></ele><time>2014-4-20T20:10:47Z</time></trkpt>
<trkpt lat="46.26375580" lon="7.05091000"><ele></ele><time>2014-4-20T20:10:50Z</time></trkpt>
<trkpt lat="46.26378250" lon="7.05106688"><ele></ele><time>2014-4-20T20:10:53Z</time></trkpt>
<trkpt lat="46.26380920" lon="7.05114222"><ele></ele><time>2014-4-20T20:10:56Z</time></trkpt>
<trkpt lat="46.26385498" lon="7.05127001"><ele></ele><time>2014-4-20T20:10:59Z</time></trkpt>
<trkpt lat="46.26386261" lon="7.05131006"><ele></ele><time>2014-4-20T20:11:2Z</time></trkpt>
<trkpt lat="46.26391602" lon="7.05138779"><ele></ele><time>2014-4-20T20:11:5Z</time></trkpt>
<trkpt lat="46.26400757" lon="7.05146790"><ele></ele><time>2014-4-20T20:11:8Z</time></trkpt>
<trkpt lat="46.26408386" lon="7.05150318"><ele></ele><time>2014-4-20T20:11:11Z</time></trkpt>
<trkpt lat="46.26416016" lon="7.05163813"><ele></ele><time>2014-4-20T20:11:14Z</time></trkpt>
<trkpt lat="46.26416397" lon="7.05180788"><ele></ele><time>2014-4-20T20:11:17Z</time></trkpt>
<trkpt lat="46.26420975" lon="7.05193377"><ele></ele><time>2014-4-20T20:11:20Z</time></trkpt>
<trkpt lat="46.26430130" lon="7.05201483"><ele></ele><time>2014-4-20T20:11:23Z</time></trkpt>
<trkpt lat="46.26433182" lon="7.05203581"><ele></ele><time>2014-4-20T20:11:26Z</time></trkpt>
<trkpt lat="46.26440430" lon="7.05216789"><ele></ele><time>2014-4-20T20:11:29Z</time></trkpt>
<trkpt lat="46.26449203" lon="7.05226183"><ele></ele><time>2014-4-20T20:11:32Z</time></trkpt>
<trkpt lat="46.26450348" lon="7.05247307"><ele></ele><time>2014-4-20T20:11:35Z</time></trkpt>
<trkpt lat="46.26448059" lon="7.05270815"><ele></ele><time>2014-4-20T20:11:38Z</time></trkpt>
<trkpt lat="46.26454544" lon="7.05283499"><ele></ele><time>2014-4-20T20:11:41Z</time></trkpt>
<trkpt lat="46.26464462" lon="7.05290794"><ele></ele><time>2014-4-20T20:11:44Z</time></trkpt>
<trkpt lat="46.26472092" lon="7.05298185"><ele></ele><time>2014-4-20T20:11:47Z</time></trkpt>
<trkpt lat="46.26477051" lon="7.05309391"><ele></ele><time>2014-4-20T20:11:50Z</time></trkpt>
<trkpt lat="46.26479721" lon="7.05318022"><ele></ele><time>2014-4-20T20:11:53Z</time></trkpt>
<trkpt lat="46.26482391" lon="7.05333710"><ele></ele><time>2014-4-20T20:11:56Z</time></trkpt>
<trkpt lat="46.26485443" lon="7.05337906"><ele></ele><time>2014-4-20T20:11:59Z</time></trkpt>
<trkpt lat="46.26485443" lon="7.05345678"><ele></ele><time>2014-4-20T20:12:2Z</time></trkpt>
<trkpt lat="46.26483917" lon="7.05359077"><ele></ele><time>2014-4-20T20:12:5Z</time></trkpt>
<trkpt lat="46.26482010" lon="7.05373383"><ele></ele><time>2014-4-20T20:12:8Z</time></trkpt>
<trkpt lat="46.26483536" lon="7.05376291"><ele></ele><time>2014-4-20T20:12:11Z</time></trkpt>
<trkpt lat="46.26487350" lon="7.05390501"><ele></ele><time>2014-4-20T20:12:14Z</time></trkpt>
<trkpt lat="46.26493835" lon="7.05403996"><ele></ele><time>2014-4-20T20:12:17Z</time></trkpt>
<trkpt lat="46.26499557" lon="7.05419588"><ele></ele><time>2014-4-20T20:12:20Z</time></trkpt>
<trkpt lat="46.26500320" lon="7.05421209"><ele></ele><time>2014-4-20T20:12:23Z</time></trkpt>
<trkpt lat="46.26504135" lon="7.05427885"><ele></ele><time>2014-4-20T20:12:26Z</time></trkpt>
<trkpt lat="46.26508713" lon="7.05443716"><ele></ele><time>2014-4-20T20:12:29Z</time></trkpt>
<trkpt lat="46.26513290" lon="7.05459404"><ele></ele><time>2014-4-20T20:12:32Z</time></trkpt>
<trkpt lat="46.26516342" lon="7.05472612"><ele></ele><time>2014-4-20T20:12:35Z</time></trkpt>
<trkpt lat="46.26517868" lon="7.05482197"><ele></ele><time>2014-4-20T20:12:38Z</time></trkpt>
<trkpt lat="46.26517487" lon="7.05494213"><ele></ele><time>2014-4-20T20:12:41Z</time></trkpt>
<trkpt lat="46.26521683" lon="7.05510712"><ele></ele><time>2014-4-20T20:12:44Z</time></trkpt>
<trkpt lat="46.26522827" lon="7.05522490"><ele></ele><time>2014-4-20T20:12:47Z</time></trkpt>
<trkpt lat="46.26530457" lon="7.05545282"><ele></ele><time>2014-4-20T20:12:50Z</time></trkpt>
<trkpt lat="46.26536942" lon="7.05562687"><ele></ele><time>2014-4-20T20:12:53Z</time></trkpt>
<trkpt lat="46.26542664" lon="7.05577803"><ele></ele><time>2014-4-20T20:12:56Z</time></trkpt>
<trkpt lat="46.26549911" lon="7.05594778"><ele></ele><time>2014-4-20T20:12:59Z</time></trkpt>
<trkpt lat="46.26554489" lon="7.05612183"><ele></ele><time>2014-4-20T20:13:2Z</time></trkpt>
<trkpt lat="46.26561356" lon="7.05629492"><ele></ele><time>2014-4-20T20:13:5Z</time></trkpt>
<trkpt lat="46.26566315" lon="7.05648994"><ele></ele><time>2014-4-20T20:13:8Z</time></trkpt>
<trkpt lat="46.26570129" lon="7.05664587"><ele></ele><time>2014-4-20T20:13:11Z</time></trkpt>
<trkpt lat="46.26573181" lon="7.05678320"><ele></ele><time>2014-4-20T20:13:14Z</time></trkpt>
<trkpt lat="46.26582718" lon="7.05687904"><ele></ele><time>2014-4-20T20:13:17Z</time></trkpt>
<trkpt lat="46.26585770" lon="7.05691099"><ele></ele><time>2014-4-20T20:13:20Z</time></trkpt>
<trkpt lat="46.26598740" lon="7.05708599"><ele></ele><time>2014-4-20T20:13:23Z</time></trkpt>
<trkpt lat="46.26617432" lon="7.05706978"><ele></ele><time>2014-4-20T20:13:26Z</time></trkpt>
<trkpt lat="46.26621246" lon="7.05708504"><ele></ele><time>2014-4-20T20:13:29Z</time></trkpt>
<trkpt lat="46.26622391" lon="7.05719709"><ele></ele><time>2014-4-20T20:13:32Z</time></trkpt>
<trkpt lat="46.26624680" lon="7.05734301"><ele></ele><time>2014-4-20T20:13:35Z</time></trkpt>
<trkpt lat="46.26627731" lon="7.05751896"><ele></ele><time>2014-4-20T20:13:38Z</time></trkpt>
<trkpt lat="46.26628876" lon="7.05759001"><ele></ele><time>2014-4-20T20:13:41Z</time></trkpt>
<trkpt lat="46.26625443" lon="7.05771303"><ele></ele><time>2014-4-20T20:13:44Z</time></trkpt>
<trkpt lat="46.26624298" lon="7.05775785"><ele></ele><time>2014-4-20T20:13:47Z</time></trkpt>
<trkpt lat="46.26623917" lon="7.05780506"><ele></ele><time>2014-4-20T20:13:50Z</time></trkpt>
<trkpt lat="46.26622391" lon="7.05798197"><ele></ele><time>2014-4-20T20:13:53Z</time></trkpt>
<trkpt lat="46.26622391" lon="7.05814886"><ele></ele><time>2014-4-20T20:13:56Z</time></trkpt>
<trkpt lat="46.26625824" lon="7.05834913"><ele></ele><time>2014-4-20T20:13:59Z</time></trkpt>
<trkpt lat="46.26626587" lon="7.05838585"><ele></ele><time>2014-4-20T20:14:2Z</time></trkpt>
<trkpt lat="46.26634979" lon="7.05858707"><ele></ele><time>2014-4-20T20:14:5Z</time></trkpt>
<trkpt lat="46.26639938" lon="7.05880499"><ele></ele><time>2014-4-20T20:14:8Z</time></trkpt>
<trkpt lat="46.26645660" lon="7.05907917"><ele></ele><time>2014-4-20T20:14:11Z</time></trkpt>
<trkpt lat="46.26646042" lon="7.05921412"><ele></ele><time>2014-4-20T20:14:14Z</time></trkpt>
<trkpt lat="46.26645279" lon="7.05924082"><ele></ele><time>2014-4-20T20:14:17Z</time></trkpt>
<trkpt lat="46.26646042" lon="7.05937910"><ele></ele><time>2014-4-20T20:14:20Z</time></trkpt>
<trkpt lat="46.26648712" lon="7.05959702"><ele></ele><time>2014-4-20T20:14:23Z</time></trkpt>
<trkpt lat="46.26648331" lon="7.05976486"><ele></ele><time>2014-4-20T20:14:26Z</time></trkpt>
<trkpt lat="46.26647568" lon="7.05996418"><ele></ele><time>2014-4-20T20:14:29Z</time></trkpt>
<trkpt lat="46.26647186" lon="7.06018591"><ele></ele><time>2014-4-20T20:14:32Z</time></trkpt>
<trkpt lat="46.26644135" lon="7.06043196"><ele></ele><time>2014-4-20T20:14:35Z</time></trkpt>
<trkpt lat="46.26637268" lon="7.06060696"><ele></ele><time>2014-4-20T20:14:38Z</time></trkpt>
<trkpt lat="46.26623154" lon="7.06090879"><ele></ele><time>2014-4-20T20:14:41Z</time></trkpt>
<trkpt lat="46.26611710" lon="7.06115294"><ele></ele><time>2014-4-20T20:14:44Z</time></trkpt>
<trkpt lat="46.26604462" lon="7.06127024"><ele></ele><time>2014-4-20T20:14:47Z</time></trkpt>
<trkpt lat="46.26588821" lon="7.06130123"><ele></ele><time>2014-4-20T20:14:50Z</time></trkpt>
<trkpt lat="46.26580048" lon="7.06129503"><ele></ele><time>2014-4-20T20:14:53Z</time></trkpt>
<trkpt lat="46.26580429" lon="7.06133318"><ele></ele><time>2014-4-20T20:14:56Z</time></trkpt>
<trkpt lat="46.26585388" lon="7.06137705"><ele></ele><time>2014-4-20T20:14:59Z</time></trkpt>
<trkpt lat="46.26592636" lon="7.06139708"><ele></ele><time>2014-4-20T20:15:2Z</time></trkpt>
<trkpt lat="46.26595688" lon="7.06133795"><ele></ele><time>2014-4-20T20:15:5Z</time></trkpt>
<trkpt lat="46.26596069" lon="7.06132317"><ele></ele><time>2014-4-20T20:15:8Z</time></trkpt>
<trkpt lat="46.26596451" lon="7.06112909"><ele></ele><time>2014-4-20T20:15:11Z</time></trkpt>
<trkpt lat="46.26600647" lon="7.06092501"><ele></ele><time>2014-4-20T20:15:14Z</time></trkpt>
<trkpt lat="46.26600647" lon="7.06087685"><ele></ele><time>2014-4-20T20:15:17Z</time></trkpt>
<trkpt lat="46.26597595" lon="7.06071377"><ele></ele><time>2014-4-20T20:15:20Z</time></trkpt>
<trkpt lat="46.26593018" lon="7.06053495"><ele></ele><time>2014-4-20T20:15:23Z</time></trkpt>
<trkpt lat="46.26592255" lon="7.06051016"><ele></ele><time>2014-4-20T20:15:26Z</time></trkpt>
<trkpt lat="46.26591110" lon="7.06045008"><ele></ele><time>2014-4-20T20:15:29Z</time></trkpt>
<trkpt lat="46.26588440" lon="7.06033611"><ele></ele><time>2014-4-20T20:15:32Z</time></trkpt>
<trkpt lat="46.26588058" lon="7.06025505"><ele></ele><time>2014-4-20T20:15:35Z</time></trkpt>
<trkpt lat="46.26588440" lon="7.06010294"><ele></ele><time>2014-4-20T20:15:38Z</time></trkpt>
<trkpt lat="46.26586914" lon="7.06001806"><ele></ele><time>2014-4-20T20:15:41Z</time></trkpt>
<trkpt lat="46.26585388" lon="7.05983877"><ele></ele><time>2014-4-20T20:15:44Z</time></trkpt>
<trkpt lat="46.26585770" lon="7.05975914"><ele></ele><time>2014-4-20T20:15:47Z</time></trkpt>
<trkpt lat="46.26585770" lon="7.05967903"><ele></ele><time>2014-4-20T20:15:50Z</time></trkpt>
<trkpt lat="46.26583862" lon="7.05956078"><ele></ele><time>2014-4-20T20:15:53Z</time></trkpt>
<trkpt lat="46.26576233" lon="7.05938196"><ele></ele><time>2014-4-20T20:15:56Z</time></trkpt>
<trkpt lat="46.26570129" lon="7.05926180"><ele></ele><time>2014-4-20T20:15:59Z</time></trkpt>
<trkpt lat="46.26560593" lon="7.05910110"><ele></ele><time>2014-4-20T20:16:2Z</time></trkpt>
<trkpt lat="46.26549530" lon="7.05898190"><ele></ele><time>2014-4-20T20:16:5Z</time></trkpt>
<trkpt lat="46.26539612" lon="7.05887985"><ele></ele><time>2014-4-20T20:16:8Z</time></trkpt>
<trkpt lat="46.26521301" lon="7.05881691"><ele></ele><time>2014-4-20T20:16:11Z</time></trkpt>
<trkpt lat="46.26504898" lon="7.05884981"><ele></ele><time>2014-4-20T20:16:14Z</time></trkpt>
<trkpt lat="46.26492691" lon="7.05891323"><ele></ele><time>2014-4-20T20:16:17Z</time></trkpt>
<trkpt lat="46.26485062" lon="7.05896378"><ele></ele><time>2014-4-20T20:16:20Z</time></trkpt>
<trkpt lat="46.26472855" lon="7.05902100"><ele></ele><time>2014-4-20T20:16:23Z</time></trkpt>
<trkpt lat="46.26458359" lon="7.05902290"><ele></ele><time>2014-4-20T20:16:26Z</time></trkpt>
<trkpt lat="46.26442337" lon="7.05894613"><ele></ele><time>2014-4-20T20:16:29Z</time></trkpt>
<trkpt lat="46.26425552" lon="7.05886984"><ele></ele><time>2014-4-20T20:16:32Z</time></trkpt>
<trkpt lat="46.26411438" lon="7.05879021"><ele></ele><time>2014-4-20T20:16:35Z</time></trkpt>
<trkpt lat="46.26401520" lon="7.05874777"><ele></ele><time>2014-4-20T20:16:38Z</time></trkpt>
<trkpt lat="46.26394272" lon="7.05878115"><ele></ele><time>2014-4-20T20:16:41Z</time></trkpt>
<trkpt lat="46.26392365" lon="7.05895185"><ele></ele><time>2014-4-20T20:16:44Z</time></trkpt>
<trkpt lat="46.26391220" lon="7.05915117"><ele></ele><time>2014-4-20T20:16:47Z</time></trkpt>
<trkpt lat="46.26391220" lon="7.05929422"><ele></ele><time>2014-4-20T20:16:50Z</time></trkpt>
<trkpt lat="46.26390839" lon="7.05953979"><ele></ele><time>2014-4-20T20:16:53Z</time></trkpt>
<trkpt lat="46.26391983" lon="7.05978584"><ele></ele><time>2014-4-20T20:16:56Z</time></trkpt>
<trkpt lat="46.26393127" lon="7.06005192"><ele></ele><time>2014-4-20T20:16:59Z</time></trkpt>
<trkpt lat="46.26394653" lon="7.06032085"><ele></ele><time>2014-4-20T20:17:2Z</time></trkpt>
<trkpt lat="46.26395798" lon="7.06059313"><ele></ele><time>2014-4-20T20:17:5Z</time></trkpt>
<trkpt lat="46.26394653" lon="7.06083918"><ele></ele><time>2014-4-20T20:17:8Z</time></trkpt>
<trkpt lat="46.26393127" lon="7.06101513"><ele></ele><time>2014-4-20T20:17:11Z</time></trkpt>
<trkpt lat="46.26389694" lon="7.06126118"><ele></ele><time>2014-4-20T20:17:14Z</time></trkpt>
<trkpt lat="46.26386261" lon="7.06146622"><ele></ele><time>2014-4-20T20:17:17Z</time></trkpt>
<trkpt lat="46.26381683" lon="7.06172705"><ele></ele><time>2014-4-20T20:17:20Z</time></trkpt>
<trkpt lat="46.26376724" lon="7.06197405"><ele></ele><time>2014-4-20T20:17:23Z</time></trkpt>
<trkpt lat="46.26372910" lon="7.06218290"><ele></ele><time>2014-4-20T20:17:26Z</time></trkpt>
<trkpt lat="46.26366425" lon="7.06238985"><ele></ele><time>2014-4-20T20:17:29Z</time></trkpt>
<trkpt lat="46.26357651" lon="7.06262684"><ele></ele><time>2014-4-20T20:17:32Z</time></trkpt>
<trkpt lat="46.26348877" lon="7.06286097"><ele></ele><time>2014-4-20T20:17:35Z</time></trkpt>
<trkpt lat="46.26341248" lon="7.06304502"><ele></ele><time>2014-4-20T20:17:38Z</time></trkpt>
<trkpt lat="46.26333618" lon="7.06323099"><ele></ele><time>2014-4-20T20:17:41Z</time></trkpt>
<trkpt lat="46.26325989" lon="7.06344414"><ele></ele><time>2014-4-20T20:17:44Z</time></trkpt>
<trkpt lat="46.26319122" lon="7.06366396"><ele></ele><time>2014-4-20T20:17:47Z</time></trkpt>
<trkpt lat="46.26312256" lon="7.06395721"><ele></ele><time>2014-4-20T20:17:50Z</time></trkpt>
<trkpt lat="46.26310349" lon="7.06421089"><ele></ele><time>2014-4-20T20:17:53Z</time></trkpt>
<trkpt lat="46.26308441" lon="7.06446600"><ele></ele><time>2014-4-20T20:17:56Z</time></trkpt>
<trkpt lat="46.26306534" lon="7.06474113"><ele></ele><time>2014-4-20T20:17:59Z</time></trkpt>
<trkpt lat="46.26301193" lon="7.06496096"><ele></ele><time>2014-4-20T20:18:2Z</time></trkpt>
<trkpt lat="46.26296616" lon="7.06507492"><ele></ele><time>2014-4-20T20:18:5Z</time></trkpt>
<trkpt lat="46.26288986" lon="7.06522417"><ele></ele><time>2014-4-20T20:18:8Z</time></trkpt>
<trkpt lat="46.26278305" lon="7.06534481"><ele></ele><time>2014-4-20T20:18:11Z</time></trkpt>
<trkpt lat="46.26268387" lon="7.06544399"><ele></ele><time>2014-4-20T20:18:14Z</time></trkpt>
<trkpt lat="46.26258469" lon="7.06556082"><ele></ele><time>2014-4-20T20:18:17Z</time></trkpt>
<trkpt lat="46.26247025" lon="7.06567907"><ele></ele><time>2014-4-20T20:18:20Z</time></trkpt>
<trkpt lat="46.26235580" lon="7.06579494"><ele></ele><time>2014-4-20T20:18:23Z</time></trkpt>
<trkpt lat="46.26224899" lon="7.06590319"><ele></ele><time>2014-4-20T20:18:26Z</time></trkpt>
<trkpt lat="46.26212692" lon="7.06604719"><ele></ele><time>2014-4-20T20:18:29Z</time></trkpt>
<trkpt lat="46.26203918" lon="7.06617880"><ele></ele><time>2014-4-20T20:18:32Z</time></trkpt>
<trkpt lat="46.26195145" lon="7.06635809"><ele></ele><time>2014-4-20T20:18:35Z</time></trkpt>
<trkpt lat="46.26189041" lon="7.06648493"><ele></ele><time>2014-4-20T20:18:38Z</time></trkpt>
<trkpt lat="46.26184464" lon="7.06660795"><ele></ele><time>2014-4-20T20:18:41Z</time></trkpt>
<trkpt lat="46.26178360" lon="7.06675816"><ele></ele><time>2014-4-20T20:18:44Z</time></trkpt>
<trkpt lat="46.26172256" lon="7.06690121"><ele></ele><time>2014-4-20T20:18:47Z</time></trkpt>
<trkpt lat="46.26166916" lon="7.06707096"><ele></ele><time>2014-4-20T20:18:50Z</time></trkpt>
<trkpt lat="46.26161575" lon="7.06725597"><ele></ele><time>2014-4-20T20:18:53Z</time></trkpt>
<trkpt lat="46.26155090" lon="7.06746292"><ele></ele><time>2014-4-20T20:18:56Z</time></trkpt>
<trkpt lat="46.26148987" lon="7.06761503"><ele></ele><time>2014-4-20T20:18:59Z</time></trkpt>
<trkpt lat="46.26140976" lon="7.06775093"><ele></ele><time>2014-4-20T20:19:2Z</time></trkpt>
<trkpt lat="46.26131058" lon="7.06791306"><ele></ele><time>2014-4-20T20:19:5Z</time></trkpt>
<trkpt lat="46.26121521" lon="7.06805086"><ele></ele><time>2014-4-20T20:19:8Z</time></trkpt>
<trkpt lat="46.26110840" lon="7.06821108"><ele></ele><time>2014-4-20T20:19:11Z</time></trkpt>
<trkpt lat="46.26101303" lon="7.06834888"><ele></ele><time>2014-4-20T20:19:14Z</time></trkpt>
<trkpt lat="46.26091385" lon="7.06850815"><ele></ele><time>2014-4-20T20:19:17Z</time></trkpt>
<trkpt lat="46.26082993" lon="7.06868982"><ele></ele><time>2014-4-20T20:19:20Z</time></trkpt>
<trkpt lat="46.26076126" lon="7.06889391"><ele></ele><time>2014-4-20T20:19:23Z</time></trkpt>
<trkpt lat="46.26070023" lon="7.06910610"><ele></ele><time>2014-4-20T20:19:26Z</time></trkpt>
<trkpt lat="46.26065063" lon="7.06925011"><ele></ele><time>2014-4-20T20:19:29Z</time></trkpt>
<trkpt lat="46.26054764" lon="7.06944180"><ele></ele><time>2014-4-20T20:19:32Z</time></trkpt>
<trkpt lat="46.26043701" lon="7.06959486"><ele></ele><time>2014-4-20T20:19:35Z</time></trkpt>
<trkpt lat="46.26033401" lon="7.06969976"><ele></ele><time>2014-4-20T20:19:38Z</time></trkpt>
<trkpt lat="46.26014328" lon="7.06983423"><ele></ele><time>2014-4-20T20:19:41Z</time></trkpt>
<trkpt lat="46.25999069" lon="7.06991291"><ele></ele><time>2014-4-20T20:19:44Z</time></trkpt>
<trkpt lat="46.25984192" lon="7.06996918"><ele></ele><time>2014-4-20T20:19:47Z</time></trkpt>
<trkpt lat="46.25976944" lon="7.06998301"><ele></ele><time>2014-4-20T20:19:50Z</time></trkpt>
<trkpt lat="46.25966263" lon="7.06999922"><ele></ele><time>2014-4-20T20:19:53Z</time></trkpt>
<trkpt lat="46.25952530" lon="7.07003117"><ele></ele><time>2014-4-20T20:19:56Z</time></trkpt>
<trkpt lat="46.25944519" lon="7.07005501"><ele></ele><time>2014-4-20T20:19:59Z</time></trkpt>
<trkpt lat="46.25935364" lon="7.07008505"><ele></ele><time>2014-4-20T20:20:2Z</time></trkpt>
<trkpt lat="46.25923157" lon="7.07011223"><ele></ele><time>2014-4-20T20:20:5Z</time></trkpt>
<trkpt lat="46.25912094" lon="7.07013512"><ele></ele><time>2014-4-20T20:20:8Z</time></trkpt>
<trkpt lat="46.25895691" lon="7.07017708"><ele></ele><time>2014-4-20T20:20:11Z</time></trkpt>
<trkpt lat="46.25883484" lon="7.07022095"><ele></ele><time>2014-4-20T20:20:14Z</time></trkpt>
<trkpt lat="46.25873566" lon="7.07030487"><ele></ele><time>2014-4-20T20:20:17Z</time></trkpt>
<trkpt lat="46.25867844" lon="7.07038021"><ele></ele><time>2014-4-20T20:20:20Z</time></trkpt>
<trkpt lat="46.25865173" lon="7.07043600"><ele></ele><time>2014-4-20T20:20:23Z</time></trkpt>
<trkpt lat="46.25864029" lon="7.07051706"><ele></ele><time>2014-4-20T20:20:26Z</time></trkpt>
<trkpt lat="46.25856400" lon="7.07067204"><ele></ele><time>2014-4-20T20:20:29Z</time></trkpt>
<trkpt lat="46.25849915" lon="7.07085896"><ele></ele><time>2014-4-20T20:20:32Z</time></trkpt>
<trkpt lat="46.25846100" lon="7.07096386"><ele></ele><time>2014-4-20T20:20:35Z</time></trkpt>
<trkpt lat="46.25839615" lon="7.07105589"><ele></ele><time>2014-4-20T20:20:38Z</time></trkpt>
<trkpt lat="46.25827026" lon="7.07106781"><ele></ele><time>2014-4-20T20:20:41Z</time></trkpt>
<trkpt lat="46.25810623" lon="7.07105494"><ele></ele><time>2014-4-20T20:20:44Z</time></trkpt>
<trkpt lat="46.25805664" lon="7.07102108"><ele></ele><time>2014-4-20T20:20:47Z</time></trkpt>
<trkpt lat="46.25803375" lon="7.07099199"><ele></ele><time>2014-4-20T20:20:50Z</time></trkpt>
<trkpt lat="46.25800323" lon="7.07095098"><ele></ele><time>2014-4-20T20:20:53Z</time></trkpt>
<trkpt lat="46.25788498" lon="7.07085514"><ele></ele><time>2014-4-20T20:20:56Z</time></trkpt>
<trkpt lat="46.25781250" lon="7.07079601"><ele></ele><time>2014-4-20T20:20:59Z</time></trkpt>
<trkpt lat="46.25772476" lon="7.07075119"><ele></ele><time>2014-4-20T20:21:2Z</time></trkpt>
<trkpt lat="46.25753784" lon="7.07072020"><ele></ele><time>2014-4-20T20:21:5Z</time></trkpt>
<trkpt lat="46.25711060" lon="7.07121515"><ele></ele><time>2014-4-20T20:21:8Z</time></trkpt>
<trkpt lat="46.25711823" lon="7.07123899"><ele></ele><time>2014-4-20T20:21:11Z</time></trkpt>
<trkpt lat="46.25711823" lon="7.07131290"><ele></ele><time>2014-4-20T20:21:14Z</time></trkpt>
<trkpt lat="46.25708389" lon="7.07138300"><ele></ele><time>2014-4-20T20:21:17Z</time></trkpt>
<trkpt lat="46.25697708" lon="7.07145214"><ele></ele><time>2014-4-20T20:21:20Z</time></trkpt>
<trkpt lat="46.25685120" lon="7.07158279"><ele></ele><time>2014-4-20T20:21:23Z</time></trkpt>
<trkpt lat="46.25677109" lon="7.07171583"><ele></ele><time>2014-4-20T20:21:26Z</time></trkpt>
<trkpt lat="46.25674820" lon="7.07186699"><ele></ele><time>2014-4-20T20:21:29Z</time></trkpt>
<trkpt lat="46.25664139" lon="7.07206106"><ele></ele><time>2014-4-20T20:21:32Z</time></trkpt>
<trkpt lat="46.25656128" lon="7.07224607"><ele></ele><time>2014-4-20T20:21:35Z</time></trkpt>
<trkpt lat="46.25654221" lon="7.07240295"><ele></ele><time>2014-4-20T20:21:38Z</time></trkpt>
<trkpt lat="46.25655746" lon="7.07254314"><ele></ele><time>2014-4-20T20:21:41Z</time></trkpt>
<trkpt lat="46.25657272" lon="7.07268381"><ele></ele><time>2014-4-20T20:21:44Z</time></trkpt>
<trkpt lat="46.25653839" lon="7.07274818"><ele></ele><time>2014-4-20T20:21:47Z</time></trkpt>
<trkpt lat="46.25655365" lon="7.07285213"><ele></ele><time>2014-4-20T20:21:50Z</time></trkpt>
<trkpt lat="46.25655746" lon="7.07296085"><ele></ele><time>2014-4-20T20:21:53Z</time></trkpt>
<trkpt lat="46.25641632" lon="7.07318592"><ele></ele><time>2014-4-20T20:21:56Z</time></trkpt>
<trkpt lat="46.25625229" lon="7.07330608"><ele></ele><time>2014-4-20T20:21:59Z</time></trkpt>
<trkpt lat="46.25609970" lon="7.07340002"><ele></ele><time>2014-4-20T20:22:2Z</time></trkpt>
<trkpt lat="46.25598526" lon="7.07354021"><ele></ele><time>2014-4-20T20:22:5Z</time></trkpt>
<trkpt lat="46.25594711" lon="7.07365322"><ele></ele><time>2014-4-20T20:22:8Z</time></trkpt>
<trkpt lat="46.25592041" lon="7.07376003"><ele></ele><time>2014-4-20T20:22:11Z</time></trkpt>
<trkpt lat="46.25585556" lon="7.07394409"><ele></ele><time>2014-4-20T20:22:14Z</time></trkpt>
<trkpt lat="46.25578308" lon="7.07409811"><ele></ele><time>2014-4-20T20:22:17Z</time></trkpt>
<trkpt lat="46.25577164" lon="7.07414913"><ele></ele><time>2014-4-20T20:22:20Z</time></trkpt>
<trkpt lat="46.25573349" lon="7.07420588"><ele></ele><time>2014-4-20T20:22:23Z</time></trkpt>
<trkpt lat="46.25571442" lon="7.07430506"><ele></ele><time>2014-4-20T20:22:26Z</time></trkpt>
<trkpt lat="46.25568008" lon="7.07437277"><ele></ele><time>2014-4-20T20:22:29Z</time></trkpt>
<trkpt lat="46.25565338" lon="7.07451010"><ele></ele><time>2014-4-20T20:22:32Z</time></trkpt>
<trkpt lat="46.25557327" lon="7.07461691"><ele></ele><time>2014-4-20T20:22:35Z</time></trkpt>
<trkpt lat="46.25526428" lon="7.07533693"><ele></ele><time>2014-4-20T20:22:38Z</time></trkpt>
<trkpt lat="46.25512695" lon="7.07537079"><ele></ele><time>2014-4-20T20:22:41Z</time></trkpt>
<trkpt lat="46.25505447" lon="7.07541084"><ele></ele><time>2014-4-20T20:22:44Z</time></trkpt>
<trkpt lat="46.25501251" lon="7.07555008"><ele></ele><time>2014-4-20T20:22:47Z</time></trkpt>
<trkpt lat="46.25500107" lon="7.07557011"><ele></ele><time>2014-4-20T20:22:50Z</time></trkpt>
<trkpt lat="46.25500870" lon="7.07560921"><ele></ele><time>2014-4-20T20:22:53Z</time></trkpt>
<trkpt lat="46.25498581" lon="7.07568312"><ele></ele><time>2014-4-20T20:22:56Z</time></trkpt>
<trkpt lat="46.25499344" lon="7.07575417"><ele></ele><time>2014-4-20T20:22:59Z</time></trkpt>
<trkpt lat="46.25495911" lon="7.07582903"><ele></ele><time>2014-4-20T20:23:2Z</time></trkpt>
<trkpt lat="46.25495911" lon="7.07604504"><ele></ele><time>2014-4-20T20:23:5Z</time></trkpt>
<trkpt lat="46.25492477" lon="7.07618999"><ele></ele><time>2014-4-20T20:23:8Z</time></trkpt>
<trkpt lat="46.25491333" lon="7.07622623"><ele></ele><time>2014-4-20T20:23:11Z</time></trkpt>
<trkpt lat="46.25487518" lon="7.07630682"><ele></ele><time>2014-4-20T20:23:14Z</time></trkpt>
<trkpt lat="46.25482941" lon="7.07639694"><ele></ele><time>2014-4-20T20:23:17Z</time></trkpt>
<trkpt lat="46.25485229" lon="7.07654190"><ele></ele><time>2014-4-20T20:23:20Z</time></trkpt>
<trkpt lat="46.25481415" lon="7.07668400"><ele></ele><time>2014-4-20T20:23:23Z</time></trkpt>
<trkpt lat="46.25482941" lon="7.07684898"><ele></ele><time>2014-4-20T20:23:26Z</time></trkpt>
<trkpt lat="46.25477219" lon="7.07690001"><ele></ele><time>2014-4-20T20:23:29Z</time></trkpt>
<trkpt lat="46.25472641" lon="7.07701492"><ele></ele><time>2014-4-20T20:23:32Z</time></trkpt>
<trkpt lat="46.25471878" lon="7.07716703"><ele></ele><time>2014-4-20T20:23:35Z</time></trkpt>
<trkpt lat="46.25472641" lon="7.07721519"><ele></ele><time>2014-4-20T20:23:38Z</time></trkpt>
<trkpt lat="46.25473404" lon="7.07742214"><ele></ele><time>2014-4-20T20:23:41Z</time></trkpt>
<trkpt lat="46.25471878" lon="7.07758522"><ele></ele><time>2014-4-20T20:23:44Z</time></trkpt>
<trkpt lat="46.25472641" lon="7.07778406"><ele></ele><time>2014-4-20T20:23:47Z</time></trkpt>
<trkpt lat="46.25468826" lon="7.07795382"><ele></ele><time>2014-4-20T20:23:50Z</time></trkpt>
<trkpt lat="46.25462723" lon="7.07811117"><ele></ele><time>2014-4-20T20:23:53Z</time></trkpt>
<trkpt lat="46.25461197" lon="7.07823896"><ele></ele><time>2014-4-20T20:23:56Z</time></trkpt>
<trkpt lat="46.25462723" lon="7.07836008"><ele></ele><time>2014-4-20T20:23:59Z</time></trkpt>
<trkpt lat="46.25465775" lon="7.07852602"><ele></ele><time>2014-4-20T20:24:2Z</time></trkpt>
<trkpt lat="46.25466156" lon="7.07870483"><ele></ele><time>2014-4-20T20:24:5Z</time></trkpt>
<trkpt lat="46.25465775" lon="7.07881784"><ele></ele><time>2014-4-20T20:24:8Z</time></trkpt>
<trkpt lat="46.25466919" lon="7.07892799"><ele></ele><time>2014-4-20T20:24:11Z</time></trkpt>
<trkpt lat="46.25467682" lon="7.07901812"><ele></ele><time>2014-4-20T20:24:14Z</time></trkpt>
<trkpt lat="46.25464630" lon="7.07909489"><ele></ele><time>2014-4-20T20:24:17Z</time></trkpt>
<trkpt lat="46.25466537" lon="7.07921696"><ele></ele><time>2014-4-20T20:24:20Z</time></trkpt>
<trkpt lat="46.25464630" lon="7.07929516"><ele></ele><time>2014-4-20T20:24:23Z</time></trkpt>
<trkpt lat="46.25463104" lon="7.07937002"><ele></ele><time>2014-4-20T20:24:26Z</time></trkpt>
<trkpt lat="46.25457382" lon="7.07950878"><ele></ele><time>2014-4-20T20:24:29Z</time></trkpt>
<trkpt lat="46.25452805" lon="7.07961321"><ele></ele><time>2014-4-20T20:24:32Z</time></trkpt>
<trkpt lat="46.25451660" lon="7.07972002"><ele></ele><time>2014-4-20T20:24:35Z</time></trkpt>
<trkpt lat="46.25456238" lon="7.07990217"><ele></ele><time>2014-4-20T20:24:38Z</time></trkpt>
<trkpt lat="46.25461197" lon="7.08010912"><ele></ele><time>2014-4-20T20:24:41Z</time></trkpt>
<trkpt lat="46.25467682" lon="7.08028984"><ele></ele><time>2014-4-20T20:24:44Z</time></trkpt>
<trkpt lat="46.25469971" lon="7.08046389"><ele></ele><time>2014-4-20T20:24:47Z</time></trkpt>
<trkpt lat="46.25468826" lon="7.08051777"><ele></ele><time>2014-4-20T20:24:50Z</time></trkpt>
<trkpt lat="46.25468445" lon="7.08059978"><ele></ele><time>2014-4-20T20:24:53Z</time></trkpt>
<trkpt lat="46.25459671" lon="7.08075094"><ele></ele><time>2014-4-20T20:24:56Z</time></trkpt>
<trkpt lat="46.25453949" lon="7.08086491"><ele></ele><time>2014-4-20T20:24:59Z</time></trkpt>
<trkpt lat="46.25442123" lon="7.08098507"><ele></ele><time>2014-4-20T20:25:2Z</time></trkpt>
<trkpt lat="46.25428009" lon="7.08118010"><ele></ele><time>2014-4-20T20:25:5Z</time></trkpt>
<trkpt lat="46.25428772" lon="7.08138084"><ele></ele><time>2014-4-20T20:25:8Z</time></trkpt>
<trkpt lat="46.25436401" lon="7.08160210"><ele></ele><time>2014-4-20T20:25:11Z</time></trkpt>
<trkpt lat="46.25439453" lon="7.08177614"><ele></ele><time>2014-4-20T20:25:14Z</time></trkpt>
<trkpt lat="46.25443649" lon="7.08197498"><ele></ele><time>2014-4-20T20:25:17Z</time></trkpt>
<trkpt lat="46.25444031" lon="7.08212519"><ele></ele><time>2014-4-20T20:25:20Z</time></trkpt>
<trkpt lat="46.25441360" lon="7.08214092"><ele></ele><time>2014-4-20T20:25:23Z</time></trkpt>
<trkpt lat="46.25440598" lon="7.08214092"><ele></ele><time>2014-4-20T20:25:26Z</time></trkpt>
<trkpt lat="46.25444412" lon="7.08211803"><ele></ele><time>2014-4-20T20:25:29Z</time></trkpt>
<trkpt lat="46.25461197" lon="7.08208895"><ele></ele><time>2014-4-20T20:25:32Z</time></trkpt>
<trkpt lat="46.25472260" lon="7.08212090"><ele></ele><time>2014-4-20T20:25:35Z</time></trkpt>
<trkpt lat="46.25492477" lon="7.08215523"><ele></ele><time>2014-4-20T20:25:38Z</time></trkpt>
<trkpt lat="46.25512314" lon="7.08220100"><ele></ele><time>2014-4-20T20:25:41Z</time></trkpt>
<trkpt lat="46.25540161" lon="7.08240080"><ele></ele><time>2014-4-20T20:25:44Z</time></trkpt>
<trkpt lat="46.25556564" lon="7.08261585"><ele></ele><time>2014-4-20T20:25:47Z</time></trkpt>
<trkpt lat="46.25561523" lon="7.08278704"><ele></ele><time>2014-4-20T20:25:50Z</time></trkpt>
<trkpt lat="46.25572968" lon="7.08300781"><ele></ele><time>2014-4-20T20:25:53Z</time></trkpt>
<trkpt lat="46.25582886" lon="7.08318806"><ele></ele><time>2014-4-20T20:25:56Z</time></trkpt>
<trkpt lat="46.25590897" lon="7.08333397"><ele></ele><time>2014-4-20T20:25:59Z</time></trkpt>
<trkpt lat="46.25598526" lon="7.08358479"><ele></ele><time>2014-4-20T20:26:2Z</time></trkpt>
<trkpt lat="46.25597000" lon="7.08380079"><ele></ele><time>2014-4-20T20:26:5Z</time></trkpt>
<trkpt lat="46.25592041" lon="7.08400488"><ele></ele><time>2014-4-20T20:26:8Z</time></trkpt>
<trkpt lat="46.25586319" lon="7.08415699"><ele></ele><time>2014-4-20T20:26:11Z</time></trkpt>
<trkpt lat="46.25578308" lon="7.08434391"><ele></ele><time>2014-4-20T20:26:14Z</time></trkpt>
<trkpt lat="46.25571823" lon="7.08455896"><ele></ele><time>2014-4-20T20:26:17Z</time></trkpt>
<trkpt lat="46.25569534" lon="7.08479309"><ele></ele><time>2014-4-20T20:26:20Z</time></trkpt>
<trkpt lat="46.25570679" lon="7.08497477"><ele></ele><time>2014-4-20T20:26:23Z</time></trkpt>
<trkpt lat="46.25566101" lon="7.08505917"><ele></ele><time>2014-4-20T20:26:26Z</time></trkpt>
<trkpt lat="46.25565338" lon="7.08517599"><ele></ele><time>2014-4-20T20:26:29Z</time></trkpt>
<trkpt lat="46.25564194" lon="7.08538294"><ele></ele><time>2014-4-20T20:26:32Z</time></trkpt>
<trkpt lat="46.25554657" lon="7.08554697"><ele></ele><time>2014-4-20T20:26:35Z</time></trkpt>
<trkpt lat="46.25541306" lon="7.08576202"><ele></ele><time>2014-4-20T20:26:38Z</time></trkpt>
<trkpt lat="46.25522614" lon="7.08587122"><ele></ele><time>2014-4-20T20:26:41Z</time></trkpt>
<trkpt lat="46.25518417" lon="7.08588505"><ele></ele><time>2014-4-20T20:26:44Z</time></trkpt>
<trkpt lat="46.25478745" lon="7.08605099"><ele></ele><time>2014-4-20T20:26:47Z</time></trkpt>
<trkpt lat="46.25455093" lon="7.08631611"><ele></ele><time>2014-4-20T20:26:50Z</time></trkpt>
<trkpt lat="46.25448990" lon="7.08657122"><ele></ele><time>2014-4-20T20:26:53Z</time></trkpt>
<trkpt lat="46.25442123" lon="7.08683395"><ele></ele><time>2014-4-20T20:26:56Z</time></trkpt>
<trkpt lat="46.25440598" lon="7.08714008"><ele></ele><time>2014-4-20T20:26:59Z</time></trkpt>
<trkpt lat="46.25446701" lon="7.08743095"><ele></ele><time>2014-4-20T20:27:2Z</time></trkpt>
<trkpt lat="46.25455093" lon="7.08773088"><ele></ele><time>2014-4-20T20:27:5Z</time></trkpt>
<trkpt lat="46.25461578" lon="7.08806181"><ele></ele><time>2014-4-20T20:27:8Z</time></trkpt>
<trkpt lat="46.25457382" lon="7.08820009"><ele></ele><time>2014-4-20T20:27:11Z</time></trkpt>
<trkpt lat="46.25448990" lon="7.08840609"><ele></ele><time>2014-4-20T20:27:14Z</time></trkpt>
<trkpt lat="46.25443649" lon="7.08862782"><ele></ele><time>2014-4-20T20:27:17Z</time></trkpt>
<trkpt lat="46.25434113" lon="7.08891106"><ele></ele><time>2014-4-20T20:27:20Z</time></trkpt>
<trkpt lat="46.25436020" lon="7.08913803"><ele></ele><time>2014-4-20T20:27:23Z</time></trkpt>
<trkpt lat="46.25441742" lon="7.08938980"><ele></ele><time>2014-4-20T20:27:26Z</time></trkpt>
<trkpt lat="46.25446320" lon="7.08953619"><ele></ele><time>2014-4-20T20:27:29Z</time></trkpt>
<trkpt lat="46.25447845" lon="7.08970118"><ele></ele><time>2014-4-20T20:27:32Z</time></trkpt>
<trkpt lat="46.25449753" lon="7.08981323"><ele></ele><time>2014-4-20T20:27:35Z</time></trkpt>
<trkpt lat="46.25457001" lon="7.08993912"><ele></ele><time>2014-4-20T20:27:38Z</time></trkpt>
<trkpt lat="46.25462341" lon="7.09002113"><ele></ele><time>2014-4-20T20:27:41Z</time></trkpt>
<trkpt lat="46.25479507" lon="7.09012985"><ele></ele><time>2014-4-20T20:27:44Z</time></trkpt>
<trkpt lat="46.25496292" lon="7.09016085"><ele></ele><time>2014-4-20T20:27:47Z</time></trkpt>
<trkpt lat="46.25516510" lon="7.09017420"><ele></ele><time>2014-4-20T20:27:50Z</time></trkpt>
<trkpt lat="46.25536346" lon="7.09010792"><ele></ele><time>2014-4-20T20:27:53Z</time></trkpt>
<trkpt lat="46.25553131" lon="7.09001589"><ele></ele><time>2014-4-20T20:27:56Z</time></trkpt>
<trkpt lat="46.25562668" lon="7.09001684"><ele></ele><time>2014-4-20T20:27:59Z</time></trkpt>
<trkpt lat="46.25576782" lon="7.09007502"><ele></ele><time>2014-4-20T20:28:2Z</time></trkpt>
<trkpt lat="46.25595093" lon="7.09024906"><ele></ele><time>2014-4-20T20:28:5Z</time></trkpt>
<trkpt lat="46.25601196" lon="7.09042501"><ele></ele><time>2014-4-20T20:28:8Z</time></trkpt>
<trkpt lat="46.25606155" lon="7.09066105"><ele></ele><time>2014-4-20T20:28:11Z</time></trkpt>
<trkpt lat="46.25612640" lon="7.09098577"><ele></ele><time>2014-4-20T20:28:14Z</time></trkpt>
<trkpt lat="46.25617218" lon="7.09121180"><ele></ele><time>2014-4-20T20:28:17Z</time></trkpt>
<trkpt lat="46.25622559" lon="7.09141207"><ele></ele><time>2014-4-20T20:28:20Z</time></trkpt>
<trkpt lat="46.25628281" lon="7.09159899"><ele></ele><time>2014-4-20T20:28:23Z</time></trkpt>
<trkpt lat="46.25637436" lon="7.09180784"><ele></ele><time>2014-4-20T20:28:26Z</time></trkpt>
<trkpt lat="46.25647354" lon="7.09196711"><ele></ele><time>2014-4-20T20:28:29Z</time></trkpt>
<trkpt lat="46.25659561" lon="7.09217978"><ele></ele><time>2014-4-20T20:28:32Z</time></trkpt>
<trkpt lat="46.25671005" lon="7.09239197"><ele></ele><time>2014-4-20T20:28:35Z</time></trkpt>
<trkpt lat="46.25676727" lon="7.09258795"><ele></ele><time>2014-4-20T20:28:38Z</time></trkpt>
<trkpt lat="46.25682068" lon="7.09279490"><ele></ele><time>2014-4-20T20:28:41Z</time></trkpt>
<trkpt lat="46.25687790" lon="7.09304190"><ele></ele><time>2014-4-20T20:28:44Z</time></trkpt>
<trkpt lat="46.25693512" lon="7.09325504"><ele></ele><time>2014-4-20T20:28:47Z</time></trkpt>
<trkpt lat="46.25700378" lon="7.09348822"><ele></ele><time>2014-4-20T20:28:50Z</time></trkpt>
<trkpt lat="46.25704575" lon="7.09365416"><ele></ele><time>2014-4-20T20:28:53Z</time></trkpt>
<trkpt lat="46.25709534" lon="7.09383678"><ele></ele><time>2014-4-20T20:28:56Z</time></trkpt>
<trkpt lat="46.25714111" lon="7.09399080"><ele></ele><time>2014-4-20T20:28:59Z</time></trkpt>
<trkpt lat="46.25716400" lon="7.09408188"><ele></ele><time>2014-4-20T20:29:2Z</time></trkpt>
<trkpt lat="46.25721359" lon="7.09426212"><ele></ele><time>2014-4-20T20:29:5Z</time></trkpt>
<trkpt lat="46.25727081" lon="7.09449196"><ele></ele><time>2014-4-20T20:29:8Z</time></trkpt>
<trkpt lat="46.25732422" lon="7.09465313"><ele></ele><time>2014-4-20T20:29:11Z</time></trkpt>
<trkpt lat="46.25733948" lon="7.09469223"><ele></ele><time>2014-4-20T20:29:14Z</time></trkpt>
<trkpt lat="46.25736237" lon="7.09482098"><ele></ele><time>2014-4-20T20:29:17Z</time></trkpt>
<trkpt lat="46.25740433" lon="7.09485102"><ele></ele><time>2014-4-20T20:29:20Z</time></trkpt>
<trkpt lat="46.25751495" lon="7.09478521"><ele></ele><time>2014-4-20T20:29:23Z</time></trkpt>
<trkpt lat="46.25757599" lon="7.09472895"><ele></ele><time>2014-4-20T20:29:26Z</time></trkpt>
<trkpt lat="46.25764084" lon="7.09463787"><ele></ele><time>2014-4-20T20:29:29Z</time></trkpt>
<trkpt lat="46.25773621" lon="7.09435797"><ele></ele><time>2014-4-20T20:29:32Z</time></trkpt>
<trkpt lat="46.25781250" lon="7.09374094"><ele></ele><time>2014-4-20T20:29:35Z</time></trkpt>
<trkpt lat="46.25782013" lon="7.09363985"><ele></ele><time>2014-4-20T20:29:38Z</time></trkpt>
<trkpt lat="46.25778580" lon="7.09317684"><ele></ele><time>2014-4-20T20:29:41Z</time></trkpt>
<trkpt lat="46.25776672" lon="7.09309578"><ele></ele><time>2014-4-20T20:29:44Z</time></trkpt>
<trkpt lat="46.25765228" lon="7.09264803"><ele></ele><time>2014-4-20T20:29:47Z</time></trkpt>
<trkpt lat="46.25759125" lon="7.09242010"><ele></ele><time>2014-4-20T20:29:50Z</time></trkpt>
<trkpt lat="46.25754166" lon="7.09217596"><ele></ele><time>2014-4-20T20:29:53Z</time></trkpt>
<trkpt lat="46.25754166" lon="7.09184122"><ele></ele><time>2014-4-20T20:29:56Z</time></trkpt>
<trkpt lat="46.25757599" lon="7.09137106"><ele></ele><time>2014-4-20T20:29:59Z</time></trkpt>
<trkpt lat="46.25756073" lon="7.09089422"><ele></ele><time>2014-4-20T20:30:2Z</time></trkpt>
<trkpt lat="46.25757217" lon="7.09054089"><ele></ele><time>2014-4-20T20:30:5Z</time></trkpt>
<trkpt lat="46.25760269" lon="7.09041882"><ele></ele><time>2014-4-20T20:30:8Z</time></trkpt>
<trkpt lat="46.25765228" lon="7.09020185"><ele></ele><time>2014-4-20T20:30:11Z</time></trkpt>
<trkpt lat="46.25772476" lon="7.08974504"><ele></ele><time>2014-4-20T20:30:14Z</time></trkpt>
<trkpt lat="46.25787354" lon="7.08939886"><ele></ele><time>2014-4-20T20:30:17Z</time></trkpt>
<trkpt lat="46.25795746" lon="7.08924484"><ele></ele><time>2014-4-20T20:30:20Z</time></trkpt>
<trkpt lat="46.25797653" lon="7.08914185"><ele></ele><time>2014-4-20T20:30:23Z</time></trkpt>
<trkpt lat="46.25798035" lon="7.08912420"><ele></ele><time>2014-4-20T20:30:26Z</time></trkpt>
<trkpt lat="46.25798416" lon="7.08901882"><ele></ele><time>2014-4-20T20:30:29Z</time></trkpt>
<trkpt lat="46.25796890" lon="7.08873415"><ele></ele><time>2014-4-20T20:30:32Z</time></trkpt>
<trkpt lat="46.25791168" lon="7.08849812"><ele></ele><time>2014-4-20T20:30:35Z</time></trkpt>
<trkpt lat="46.25782776" lon="7.08825779"><ele></ele><time>2014-4-20T20:30:38Z</time></trkpt>
<trkpt lat="46.25773621" lon="7.08804798"><ele></ele><time>2014-4-20T20:30:41Z</time></trkpt>
<trkpt lat="46.25775528" lon="7.08796215"><ele></ele><time>2014-4-20T20:30:44Z</time></trkpt>
<trkpt lat="46.25784683" lon="7.08794212"><ele></ele><time>2014-4-20T20:30:47Z</time></trkpt>
<trkpt lat="46.25786972" lon="7.08795691"><ele></ele><time>2014-4-20T20:30:50Z</time></trkpt>
<trkpt lat="46.25794983" lon="7.08783913"><ele></ele><time>2014-4-20T20:30:53Z</time></trkpt>
<trkpt lat="46.25799179" lon="7.08771992"><ele></ele><time>2014-4-20T20:30:56Z</time></trkpt>
<trkpt lat="46.25804138" lon="7.08754778"><ele></ele><time>2014-4-20T20:30:59Z</time></trkpt>
<trkpt lat="46.25806046" lon="7.08737183"><ele></ele><time>2014-4-20T20:31:2Z</time></trkpt>
<trkpt lat="46.25807571" lon="7.08719778"><ele></ele><time>2014-4-20T20:31:5Z</time></trkpt>
<trkpt lat="46.25809479" lon="7.08714199"><ele></ele><time>2014-4-20T20:31:8Z</time></trkpt>
<trkpt lat="46.25809860" lon="7.08705616"><ele></ele><time>2014-4-20T20:31:11Z</time></trkpt>
<trkpt lat="46.25807571" lon="7.08692598"><ele></ele><time>2014-4-20T20:31:14Z</time></trkpt>
<trkpt lat="46.25808716" lon="7.08684015"><ele></ele><time>2014-4-20T20:31:17Z</time></trkpt>
<trkpt lat="46.25806808" lon="7.08672380"><ele></ele><time>2014-4-20T20:31:20Z</time></trkpt>
<trkpt lat="46.25806808" lon="7.08657885"><ele></ele><time>2014-4-20T20:31:23Z</time></trkpt>
<trkpt lat="46.25806427" lon="7.08641100"><ele></ele><time>2014-4-20T20:31:26Z</time></trkpt>
<trkpt lat="46.25806808" lon="7.08625412"><ele></ele><time>2014-4-20T20:31:29Z</time></trkpt>
<trkpt lat="46.25803757" lon="7.08608913"><ele></ele><time>2014-4-20T20:31:32Z</time></trkpt>
<trkpt lat="46.25801468" lon="7.08588600"><ele></ele><time>2014-4-20T20:31:35Z</time></trkpt>
<trkpt lat="46.25799561" lon="7.08563089"><ele></ele><time>2014-4-20T20:31:38Z</time></trkpt>
<trkpt lat="46.25798798" lon="7.08537483"><ele></ele><time>2014-4-20T20:31:41Z</time></trkpt>
<trkpt lat="46.25799179" lon="7.08512211"><ele></ele><time>2014-4-20T20:31:44Z</time></trkpt>
<trkpt lat="46.25800323" lon="7.08493423"><ele></ele><time>2014-4-20T20:31:47Z</time></trkpt>
<trkpt lat="46.25803375" lon="7.08472776"><ele></ele><time>2014-4-20T20:31:50Z</time></trkpt>
<trkpt lat="46.25808334" lon="7.08455420"><ele></ele><time>2014-4-20T20:31:53Z</time></trkpt>
<trkpt lat="46.25814819" lon="7.08433723"><ele></ele><time>2014-4-20T20:31:56Z</time></trkpt>
<trkpt lat="46.25822067" lon="7.08409119"><ele></ele><time>2014-4-20T20:31:59Z</time></trkpt>
<trkpt lat="46.25825882" lon="7.08395195"><ele></ele><time>2014-4-20T20:32:2Z</time></trkpt>
<trkpt lat="46.25830078" lon="7.08376980"><ele></ele><time>2014-4-20T20:32:5Z</time></trkpt>
<trkpt lat="46.25832367" lon="7.08351421"><ele></ele><time>2014-4-20T20:32:8Z</time></trkpt>
<trkpt lat="46.25831985" lon="7.08326387"><ele></ele><time>2014-4-20T20:32:11Z</time></trkpt>
<trkpt lat="46.25830841" lon="7.08311319"><ele></ele><time>2014-4-20T20:32:14Z</time></trkpt>
<trkpt lat="46.25830460" lon="7.08296204"><ele></ele><time>2014-4-20T20:32:17Z</time></trkpt>
<trkpt lat="46.25831985" lon="7.08271408"><ele></ele><time>2014-4-20T20:32:20Z</time></trkpt>
<trkpt lat="46.25839996" lon="7.08255911"><ele></ele><time>2014-4-20T20:32:23Z</time></trkpt>
<trkpt lat="46.25850296" lon="7.08247280"><ele></ele><time>2014-4-20T20:32:26Z</time></trkpt>
<trkpt lat="46.25865555" lon="7.08239603"><ele></ele><time>2014-4-20T20:32:29Z</time></trkpt>
<trkpt lat="46.25876617" lon="7.08228493"><ele></ele><time>2014-4-20T20:32:32Z</time></trkpt>
<trkpt lat="46.25888443" lon="7.08206892"><ele></ele><time>2014-4-20T20:32:35Z</time></trkpt>
<trkpt lat="46.25899124" lon="7.08183718"><ele></ele><time>2014-4-20T20:32:38Z</time></trkpt>
<trkpt lat="46.25908279" lon="7.08153391"><ele></ele><time>2014-4-20T20:32:41Z</time></trkpt>
<trkpt lat="46.25920486" lon="7.08121395"><ele></ele><time>2014-4-20T20:32:44Z</time></trkpt>
<trkpt lat="46.25939560" lon="7.08082819"><ele></ele><time>2014-4-20T20:32:47Z</time></trkpt>
<trkpt lat="46.25955582" lon="7.08069515"><ele></ele><time>2014-4-20T20:32:50Z</time></trkpt>
<trkpt lat="46.25967026" lon="7.08069515"><ele></ele><time>2014-4-20T20:32:53Z</time></trkpt>
<trkpt lat="46.25972366" lon="7.08068800"><ele></ele><time>2014-4-20T20:32:56Z</time></trkpt>
<trkpt lat="46.25982285" lon="7.08059216"><ele></ele><time>2014-4-20T20:32:59Z</time></trkpt>
<trkpt lat="46.25991440" lon="7.08042908"><ele></ele><time>2014-4-20T20:33:2Z</time></trkpt>
<trkpt lat="46.25999832" lon="7.08025789"><ele></ele><time>2014-4-20T20:33:5Z</time></trkpt>
<trkpt lat="46.26005173" lon="7.08010483"><ele></ele><time>2014-4-20T20:33:8Z</time></trkpt>
<trkpt lat="46.26012802" lon="7.07998896"><ele></ele><time>2014-4-20T20:33:11Z</time></trkpt>
<trkpt lat="46.26021957" lon="7.07987309"><ele></ele><time>2014-4-20T20:33:14Z</time></trkpt>
<trkpt lat="46.26031876" lon="7.07979202"><ele></ele><time>2014-4-20T20:33:17Z</time></trkpt>
<trkpt lat="46.26036453" lon="7.07975101"><ele></ele><time>2014-4-20T20:33:20Z</time></trkpt>
<trkpt lat="46.26043701" lon="7.07973003"><ele></ele><time>2014-4-20T20:33:23Z</time></trkpt>
<trkpt lat="46.26045227" lon="7.07972479"><ele></ele><time>2014-4-20T20:33:26Z</time></trkpt>
<trkpt lat="46.26052475" lon="7.07966185"><ele></ele><time>2014-4-20T20:33:29Z</time></trkpt>
<trkpt lat="46.26060867" lon="7.07961988"><ele></ele><time>2014-4-20T20:33:32Z</time></trkpt>
<trkpt lat="46.26069260" lon="7.07950592"><ele></ele><time>2014-4-20T20:33:35Z</time></trkpt>
<trkpt lat="46.26078033" lon="7.07942581"><ele></ele><time>2014-4-20T20:33:38Z</time></trkpt>
<trkpt lat="46.26093674" lon="7.07938385"><ele></ele><time>2014-4-20T20:33:41Z</time></trkpt>
<trkpt lat="46.26103973" lon="7.07927322"><ele></ele><time>2014-4-20T20:33:44Z</time></trkpt>
<trkpt lat="46.26119614" lon="7.07916307"><ele></ele><time>2014-4-20T20:33:47Z</time></trkpt>
<trkpt lat="46.26124954" lon="7.07904291"><ele></ele><time>2014-4-20T20:33:50Z</time></trkpt>
<trkpt lat="46.26137161" lon="7.07891512"><ele></ele><time>2014-4-20T20:33:53Z</time></trkpt>
<trkpt lat="46.26153183" lon="7.07877111"><ele></ele><time>2014-4-20T20:33:56Z</time></trkpt>
<trkpt lat="46.26164627" lon="7.07869816"><ele></ele><time>2014-4-20T20:33:59Z</time></trkpt>
<trkpt lat="46.26165009" lon="7.07858992"><ele></ele><time>2014-4-20T20:34:2Z</time></trkpt>
<trkpt lat="46.26163483" lon="7.07838583"><ele></ele><time>2014-4-20T20:34:5Z</time></trkpt>
<trkpt lat="46.26166153" lon="7.07819891"><ele></ele><time>2014-4-20T20:34:8Z</time></trkpt>
<trkpt lat="46.26170349" lon="7.07815886"><ele></ele><time>2014-4-20T20:34:11Z</time></trkpt>
<trkpt lat="46.26174164" lon="7.07811689"><ele></ele><time>2014-4-20T20:34:14Z</time></trkpt>
<trkpt lat="46.26174545" lon="7.07811689"><ele></ele><time>2014-4-20T20:34:17Z</time></trkpt>
<trkpt lat="46.26191711" lon="7.07826805"><ele></ele><time>2014-4-20T20:34:20Z</time></trkpt>
<trkpt lat="46.26195526" lon="7.07828808"><ele></ele><time>2014-4-20T20:34:23Z</time></trkpt>
<trkpt lat="46.26200867" lon="7.07834005"><ele></ele><time>2014-4-20T20:34:26Z</time></trkpt>
<trkpt lat="46.26211166" lon="7.07845497"><ele></ele><time>2014-4-20T20:34:29Z</time></trkpt>
<trkpt lat="46.26222229" lon="7.07842493"><ele></ele><time>2014-4-20T20:34:32Z</time></trkpt>
<trkpt lat="46.26232910" lon="7.07818317"><ele></ele><time>2014-4-20T20:34:35Z</time></trkpt>
<trkpt lat="46.26234436" lon="7.07809591"><ele></ele><time>2014-4-20T20:34:38Z</time></trkpt>
<trkpt lat="46.26240921" lon="7.07759809"><ele></ele><time>2014-4-20T20:34:41Z</time></trkpt>
<trkpt lat="46.26241684" lon="7.07723904"><ele></ele><time>2014-4-20T20:34:44Z</time></trkpt>
<trkpt lat="46.26241684" lon="7.07716322"><ele></ele><time>2014-4-20T20:34:47Z</time></trkpt>
<trkpt lat="46.26256561" lon="7.07706499"><ele></ele><time>2014-4-20T20:34:50Z</time></trkpt>
<trkpt lat="46.26279449" lon="7.07702208"><ele></ele><time>2014-4-20T20:34:53Z</time></trkpt>
<trkpt lat="46.26291275" lon="7.07700300"><ele></ele><time>2014-4-20T20:34:56Z</time></trkpt>
<trkpt lat="46.26336670" lon="7.07691383"><ele></ele><time>2014-4-20T20:34:59Z</time></trkpt>
<trkpt lat="46.26394653" lon="7.07656097"><ele></ele><time>2014-4-20T20:35:2Z</time></trkpt>
<trkpt lat="46.26451111" lon="7.07609177"><ele></ele><time>2014-4-20T20:35:5Z</time></trkpt>
<trkpt lat="46.26491165" lon="7.07568216"><ele></ele><time>2014-4-20T20:35:8Z</time></trkpt>
<trkpt lat="46.26512527" lon="7.07550716"><ele></ele><time>2014-4-20T20:35:11Z</time></trkpt>
<trkpt lat="46.26565933" lon="7.07524681"><ele></ele><time>2014-4-20T20:35:14Z</time></trkpt>
<trkpt lat="46.26611328" lon="7.07509899"><ele></ele><time>2014-4-20T20:35:17Z</time></trkpt>
<trkpt lat="46.26623154" lon="7.07505512"><ele></ele><time>2014-4-20T20:35:20Z</time></trkpt>
<trkpt lat="46.26663589" lon="7.07507706"><ele></ele><time>2014-4-20T20:35:23Z</time></trkpt>
<trkpt lat="46.26672745" lon="7.07511616"><ele></ele><time>2014-4-20T20:35:26Z</time></trkpt>
<trkpt lat="46.26729584" lon="7.07555723"><ele></ele><time>2014-4-20T20:35:29Z</time></trkpt>
<trkpt lat="46.26736832" lon="7.07560921"><ele></ele><time>2014-4-20T20:35:32Z</time></trkpt>
<trkpt lat="46.26757050" lon="7.07561493"><ele></ele><time>2014-4-20T20:35:35Z</time></trkpt>
<trkpt lat="46.26765442" lon="7.07557678"><ele></ele><time>2014-4-20T20:35:38Z</time></trkpt>
<trkpt lat="46.26779938" lon="7.07560396"><ele></ele><time>2014-4-20T20:35:41Z</time></trkpt>
<trkpt lat="46.26789856" lon="7.07571411"><ele></ele><time>2014-4-20T20:35:44Z</time></trkpt>
<trkpt lat="46.26793671" lon="7.07581711"><ele></ele><time>2014-4-20T20:35:47Z</time></trkpt>
<trkpt lat="46.26799774" lon="7.07605219"><ele></ele><time>2014-4-20T20:35:50Z</time></trkpt>
<trkpt lat="46.26803207" lon="7.07628012"><ele></ele><time>2014-4-20T20:35:53Z</time></trkpt>
<trkpt lat="46.26810455" lon="7.07641077"><ele></ele><time>2014-4-20T20:35:56Z</time></trkpt>
<trkpt lat="46.26817322" lon="7.07652092"><ele></ele><time>2014-4-20T20:35:59Z</time></trkpt>
<trkpt lat="46.26825333" lon="7.07671213"><ele></ele><time>2014-4-20T20:36:2Z</time></trkpt>
<trkpt lat="46.26826477" lon="7.07673788"><ele></ele><time>2014-4-20T20:36:5Z</time></trkpt>
<trkpt lat="46.26838303" lon="7.07696199"><ele></ele><time>2014-4-20T20:36:8Z</time></trkpt>
<trkpt lat="46.26844788" lon="7.07713413"><ele></ele><time>2014-4-20T20:36:11Z</time></trkpt>
<trkpt lat="46.26837158" lon="7.07736397"><ele></ele><time>2014-4-20T20:36:14Z</time></trkpt>
<trkpt lat="46.26840210" lon="7.07750797"><ele></ele><time>2014-4-20T20:36:17Z</time></trkpt>
<trkpt lat="46.26854324" lon="7.07760191"><ele></ele><time>2014-4-20T20:36:20Z</time></trkpt>
<trkpt lat="46.26875687" lon="7.07775879"><ele></ele><time>2014-4-20T20:36:23Z</time></trkpt>
<trkpt lat="46.26892853" lon="7.07793379"><ele></ele><time>2014-4-20T20:36:26Z</time></trkpt>
<trkpt lat="46.26909637" lon="7.07806683"><ele></ele><time>2014-4-20T20:36:29Z</time></trkpt>
<trkpt lat="46.26911163" lon="7.07816505"><ele></ele><time>2014-4-20T20:36:32Z</time></trkpt>
<trkpt lat="46.26910782" lon="7.07817078"><ele></ele><time>2014-4-20T20:36:35Z</time></trkpt>
<trkpt lat="46.26912308" lon="7.07815886"><ele></ele><time>2014-4-20T20:36:38Z</time></trkpt>
<trkpt lat="46.26929474" lon="7.07801294"><ele></ele><time>2014-4-20T20:36:41Z</time></trkpt>
<trkpt lat="46.26938248" lon="7.07796717"><ele></ele><time>2014-4-20T20:36:44Z</time></trkpt>
<trkpt lat="46.27028656" lon="7.07782221"><ele></ele><time>2014-4-20T20:36:47Z</time></trkpt>
<trkpt lat="46.27047348" lon="7.07767010"><ele></ele><time>2014-4-20T20:36:50Z</time></trkpt>
<trkpt lat="46.27063370" lon="7.07749891"><ele></ele><time>2014-4-20T20:36:53Z</time></trkpt>
<trkpt lat="46.27089691" lon="7.07725716"><ele></ele><time>2014-4-20T20:36:56Z</time></trkpt>
<trkpt lat="46.27109528" lon="7.07720423"><ele></ele><time>2014-4-20T20:36:59Z</time></trkpt>
<trkpt lat="46.27122879" lon="7.07734919"><ele></ele><time>2014-4-20T20:37:2Z</time></trkpt>
<trkpt lat="46.27126312" lon="7.07738304"><ele></ele><time>2014-4-20T20:37:5Z</time></trkpt>
<trkpt lat="46.27134323" lon="7.07741117"><ele></ele><time>2014-4-20T20:37:8Z</time></trkpt>
<trkpt lat="46.27142334" lon="7.07753420"><ele></ele><time>2014-4-20T20:37:11Z</time></trkpt>
<trkpt lat="46.27156830" lon="7.07774591"><ele></ele><time>2014-4-20T20:37:14Z</time></trkpt>
<trkpt lat="46.27180481" lon="7.07810020"><ele></ele><time>2014-4-20T20:37:17Z</time></trkpt>
<trkpt lat="46.27207184" lon="7.07848978"><ele></ele><time>2014-4-20T20:37:20Z</time></trkpt>
<trkpt lat="46.27219391" lon="7.07878113"><ele></ele><time>2014-4-20T20:37:23Z</time></trkpt>
<trkpt lat="46.27241135" lon="7.07917786"><ele></ele><time>2014-4-20T20:37:26Z</time></trkpt>
<trkpt lat="46.27251053" lon="7.07941389"><ele></ele><time>2014-4-20T20:37:29Z</time></trkpt>
<trkpt lat="46.27262115" lon="7.07964420"><ele></ele><time>2014-4-20T20:37:32Z</time></trkpt>
<trkpt lat="46.27265167" lon="7.07972002"><ele></ele><time>2014-4-20T20:37:35Z</time></trkpt>
<trkpt lat="46.27279663" lon="7.08001518"><ele></ele><time>2014-4-20T20:37:38Z</time></trkpt>
<trkpt lat="46.27305222" lon="7.08039284"><ele></ele><time>2014-4-20T20:37:41Z</time></trkpt>
<trkpt lat="46.27327728" lon="7.08070898"><ele></ele><time>2014-4-20T20:37:44Z</time></trkpt>
<trkpt lat="46.27351379" lon="7.08114290"><ele></ele><time>2014-4-20T20:37:47Z</time></trkpt>
<trkpt lat="46.27362823" lon="7.08141518"><ele></ele><time>2014-4-20T20:37:50Z</time></trkpt>
<trkpt lat="46.27347565" lon="7.08154202"><ele></ele><time>2014-4-20T20:37:53Z</time></trkpt>
<trkpt lat="46.27338409" lon="7.08172989"><ele></ele><time>2014-4-20T20:37:56Z</time></trkpt>
<trkpt lat="46.27341843" lon="7.08197880"><ele></ele><time>2014-4-20T20:37:59Z</time></trkpt>
<trkpt lat="46.27344513" lon="7.08207989"><ele></ele><time>2014-4-20T20:38:2Z</time></trkpt>
<trkpt lat="46.27354050" lon="7.08238316"><ele></ele><time>2014-4-20T20:38:5Z</time></trkpt>
<trkpt lat="46.27367783" lon="7.08263302"><ele></ele><time>2014-4-20T20:38:8Z</time></trkpt>
<trkpt lat="46.27384949" lon="7.08288813"><ele></ele><time>2014-4-20T20:38:11Z</time></trkpt>
<trkpt lat="46.27392578" lon="7.08300304"><ele></ele><time>2014-4-20T20:38:14Z</time></trkpt>
<trkpt lat="46.27404785" lon="7.08323812"><ele></ele><time>2014-4-20T20:38:17Z</time></trkpt>
<trkpt lat="46.27413940" lon="7.08346510"><ele></ele><time>2014-4-20T20:38:20Z</time></trkpt>
<trkpt lat="46.27423859" lon="7.08367920"><ele></ele><time>2014-4-20T20:38:23Z</time></trkpt>
<trkpt lat="46.27431870" lon="7.08390522"><ele></ele><time>2014-4-20T20:38:26Z</time></trkpt>
<trkpt lat="46.27437973" lon="7.08412123"><ele></ele><time>2014-4-20T20:38:29Z</time></trkpt>
<trkpt lat="46.27443695" lon="7.08440018"><ele></ele><time>2014-4-20T20:38:32Z</time></trkpt>
<trkpt lat="46.27447510" lon="7.08465099"><ele></ele><time>2014-4-20T20:38:35Z</time></trkpt>
<trkpt lat="46.27448654" lon="7.08488417"><ele></ele><time>2014-4-20T20:38:38Z</time></trkpt>
<trkpt lat="46.27447510" lon="7.08517790"><ele></ele><time>2014-4-20T20:38:41Z</time></trkpt>
<trkpt lat="46.27447510" lon="7.08520508"><ele></ele><time>2014-4-20T20:38:44Z</time></trkpt>
<trkpt lat="46.27453995" lon="7.08541012"><ele></ele><time>2014-4-20T20:38:47Z</time></trkpt>
<trkpt lat="46.27458191" lon="7.08559179"><ele></ele><time>2014-4-20T20:38:50Z</time></trkpt>
<trkpt lat="46.27470779" lon="7.08574915"><ele></ele><time>2014-4-20T20:38:53Z</time></trkpt>
<trkpt lat="46.27484131" lon="7.08598995"><ele></ele><time>2014-4-20T20:38:56Z</time></trkpt>
<trkpt lat="46.27492523" lon="7.08610201"><ele></ele><time>2014-4-20T20:38:59Z</time></trkpt>
<trkpt lat="46.27518463" lon="7.08652020"><ele></ele><time>2014-4-20T20:39:2Z</time></trkpt>
<trkpt lat="46.27531815" lon="7.08674383"><ele></ele><time>2014-4-20T20:39:5Z</time></trkpt>
<trkpt lat="46.27540588" lon="7.08695793"><ele></ele><time>2014-4-20T20:39:8Z</time></trkpt>
<trkpt lat="46.27544022" lon="7.08705997"><ele></ele><time>2014-4-20T20:39:11Z</time></trkpt>
<trkpt lat="46.27540970" lon="7.08709383"><ele></ele><time>2014-4-20T20:39:14Z</time></trkpt>
<trkpt lat="46.27557373" lon="7.08712292"><ele></ele><time>2014-4-20T20:39:17Z</time></trkpt>
<trkpt lat="46.27565384" lon="7.08715820"><ele></ele><time>2014-4-20T20:39:20Z</time></trkpt>
<trkpt lat="46.27575684" lon="7.08720398"><ele></ele><time>2014-4-20T20:39:23Z</time></trkpt>
<trkpt lat="46.27592468" lon="7.08744478"><ele></ele><time>2014-4-20T20:39:26Z</time></trkpt>
<trkpt lat="46.27621078" lon="7.08782005"><ele></ele><time>2014-4-20T20:39:29Z</time></trkpt>
<trkpt lat="46.27640152" lon="7.08818197"><ele></ele><time>2014-4-20T20:39:32Z</time></trkpt>
<trkpt lat="46.27651215" lon="7.08842802"><ele></ele><time>2014-4-20T20:39:35Z</time></trkpt>
<trkpt lat="46.27658081" lon="7.08899498"><ele></ele><time>2014-4-20T20:39:38Z</time></trkpt>
<trkpt lat="46.27671814" lon="7.08953905"><ele></ele><time>2014-4-20T20:39:41Z</time></trkpt>
<trkpt lat="46.27689743" lon="7.09004593"><ele></ele><time>2014-4-20T20:39:44Z</time></trkpt>
<trkpt lat="46.27712250" lon="7.09041119"><ele></ele><time>2014-4-20T20:39:47Z</time></trkpt>
<trkpt lat="46.27724838" lon="7.09052181"><ele></ele><time>2014-4-20T20:39:50Z</time></trkpt>
<trkpt lat="46.27757645" lon="7.09077311"><ele></ele><time>2014-4-20T20:39:53Z</time></trkpt>
<trkpt lat="46.27788544" lon="7.09102821"><ele></ele><time>2014-4-20T20:39:56Z</time></trkpt>
<trkpt lat="46.27828217" lon="7.09121513"><ele></ele><time>2014-4-20T20:39:59Z</time></trkpt>
<trkpt lat="46.27843094" lon="7.09134912"><ele></ele><time>2014-4-20T20:40:2Z</time></trkpt>
<trkpt lat="46.27844620" lon="7.09140491"><ele></ele><time>2014-4-20T20:40:5Z</time></trkpt>
<trkpt lat="46.27840042" lon="7.09145212"><ele></ele><time>2014-4-20T20:40:8Z</time></trkpt>
<trkpt lat="46.27838516" lon="7.09146595"><ele></ele><time>2014-4-20T20:40:11Z</time></trkpt>
<trkpt lat="46.27829742" lon="7.09162188"><ele></ele><time>2014-4-20T20:40:14Z</time></trkpt>
<trkpt lat="46.27825165" lon="7.09176922"><ele></ele><time>2014-4-20T20:40:17Z</time></trkpt>
<trkpt lat="46.27824020" lon="7.09181786"><ele></ele><time>2014-4-20T20:40:20Z</time></trkpt>
<trkpt lat="46.27824020" lon="7.09187078"><ele></ele><time>2014-4-20T20:40:23Z</time></trkpt>
<trkpt lat="46.27816772" lon="7.09201384"><ele></ele><time>2014-4-20T20:40:26Z</time></trkpt>
<trkpt lat="46.27812195" lon="7.09218407"><ele></ele><time>2014-4-20T20:40:29Z</time></trkpt>
<trkpt lat="46.27809525" lon="7.09234619"><ele></ele><time>2014-4-20T20:40:32Z</time></trkpt>
<trkpt lat="46.27811813" lon="7.09254694"><ele></ele><time>2014-4-20T20:40:35Z</time></trkpt>
<trkpt lat="46.27816010" lon="7.09284115"><ele></ele><time>2014-4-20T20:40:38Z</time></trkpt>
<trkpt lat="46.27820587" lon="7.09318876"><ele></ele><time>2014-4-20T20:40:41Z</time></trkpt>
<trkpt lat="46.27827835" lon="7.09344816"><ele></ele><time>2014-4-20T20:40:44Z</time></trkpt>
<trkpt lat="46.27835464" lon="7.09378290"><ele></ele><time>2014-4-20T20:40:47Z</time></trkpt>
<trkpt lat="46.27840424" lon="7.09412813"><ele></ele><time>2014-4-20T20:40:50Z</time></trkpt>
<trkpt lat="46.27856064" lon="7.09446096"><ele></ele><time>2014-4-20T20:40:53Z</time></trkpt>
<trkpt lat="46.27869034" lon="7.09473419"><ele></ele><time>2014-4-20T20:40:56Z</time></trkpt>
<trkpt lat="46.27877426" lon="7.09508896"><ele></ele><time>2014-4-20T20:40:59Z</time></trkpt>
<trkpt lat="46.27883911" lon="7.09531498"><ele></ele><time>2014-4-20T20:41:2Z</time></trkpt>
<trkpt lat="46.27886963" lon="7.09544992"><ele></ele><time>2014-4-20T20:41:5Z</time></trkpt>
<trkpt lat="46.27891541" lon="7.09561110"><ele></ele><time>2014-4-20T20:41:8Z</time></trkpt>
<trkpt lat="46.27896881" lon="7.09576797"><ele></ele><time>2014-4-20T20:41:11Z</time></trkpt>
<trkpt lat="46.27898026" lon="7.09602308"><ele></ele><time>2014-4-20T20:41:14Z</time></trkpt>
<trkpt lat="46.27899170" lon="7.09615278"><ele></ele><time>2014-4-20T20:41:17Z</time></trkpt>
<trkpt lat="46.27899170" lon="7.09628105"><ele></ele><time>2014-4-20T20:41:20Z</time></trkpt>
<trkpt lat="46.27892303" lon="7.09636307"><ele></ele><time>2014-4-20T20:41:23Z</time></trkpt>
<trkpt lat="46.27882004" lon="7.09647417"><ele></ele><time>2014-4-20T20:41:26Z</time></trkpt>
<trkpt lat="46.27881622" lon="7.09649420"><ele></ele><time>2014-4-20T20:41:29Z</time></trkpt>
<trkpt lat="46.27882004" lon="7.09658194"><ele></ele><time>2014-4-20T20:41:32Z</time></trkpt>
<trkpt lat="46.27879715" lon="7.09662914"><ele></ele><time>2014-4-20T20:41:35Z</time></trkpt>
<trkpt lat="46.27887344" lon="7.09671116"><ele></ele><time>2014-4-20T20:41:38Z</time></trkpt>
<trkpt lat="46.27888489" lon="7.09674501"><ele></ele><time>2014-4-20T20:41:41Z</time></trkpt>
<trkpt lat="46.27891541" lon="7.09684610"><ele></ele><time>2014-4-20T20:41:44Z</time></trkpt>
<trkpt lat="46.27895355" lon="7.09699488"><ele></ele><time>2014-4-20T20:41:47Z</time></trkpt>
<trkpt lat="46.27901077" lon="7.09709692"><ele></ele><time>2014-4-20T20:41:50Z</time></trkpt>
<trkpt lat="46.27899933" lon="7.09715080"><ele></ele><time>2014-4-20T20:41:53Z</time></trkpt>
<trkpt lat="46.27891541" lon="7.09722185"><ele></ele><time>2014-4-20T20:41:56Z</time></trkpt>
<trkpt lat="46.27894592" lon="7.09731817"><ele></ele><time>2014-4-20T20:41:59Z</time></trkpt>
<trkpt lat="46.27898788" lon="7.09739113"><ele></ele><time>2014-4-20T20:42:2Z</time></trkpt>
<trkpt lat="46.27909470" lon="7.09751415"><ele></ele><time>2014-4-20T20:42:5Z</time></trkpt>
<trkpt lat="46.27910995" lon="7.09756899"><ele></ele><time>2014-4-20T20:42:8Z</time></trkpt>
<trkpt lat="46.27909851" lon="7.09767485"><ele></ele><time>2014-4-20T20:42:11Z</time></trkpt>
<trkpt lat="46.27909088" lon="7.09767914"><ele></ele><time>2014-4-20T20:42:14Z</time></trkpt>
<trkpt lat="46.27904892" lon="7.09769297"><ele></ele><time>2014-4-20T20:42:17Z</time></trkpt>
<trkpt lat="46.27912903" lon="7.09779978"><ele></ele><time>2014-4-20T20:42:20Z</time></trkpt>
<trkpt lat="46.27918625" lon="7.09793186"><ele></ele><time>2014-4-20T20:42:23Z</time></trkpt>
<trkpt lat="46.27922440" lon="7.09800577"><ele></ele><time>2014-4-20T20:42:26Z</time></trkpt>
<trkpt lat="46.27924728" lon="7.09809589"><ele></ele><time>2014-4-20T20:42:29Z</time></trkpt>
<trkpt lat="46.27923584" lon="7.09818697"><ele></ele><time>2014-4-20T20:42:32Z</time></trkpt>
<trkpt lat="46.27925873" lon="7.09825706"><ele></ele><time>2014-4-20T20:42:35Z</time></trkpt>
<trkpt lat="46.27921295" lon="7.09834480"><ele></ele><time>2014-4-20T20:42:38Z</time></trkpt>
<trkpt lat="46.27916718" lon="7.09841681"><ele></ele><time>2014-4-20T20:42:41Z</time></trkpt>
<trkpt lat="46.27910233" lon="7.09845114"><ele></ele><time>2014-4-20T20:42:44Z</time></trkpt>
<trkpt lat="46.27907562" lon="7.09857702"><ele></ele><time>2014-4-20T20:42:47Z</time></trkpt>
<trkpt lat="46.27908325" lon="7.09861612"><ele></ele><time>2014-4-20T20:42:50Z</time></trkpt>
<trkpt lat="46.27914429" lon="7.09872818"><ele></ele><time>2014-4-20T20:42:53Z</time></trkpt>
<trkpt lat="46.27916718" lon="7.09878683"><ele></ele><time>2014-4-20T20:42:56Z</time></trkpt>
<trkpt lat="46.27917862" lon="7.09885120"><ele></ele><time>2014-4-20T20:42:59Z</time></trkpt>
<trkpt lat="46.27920532" lon="7.09888792"><ele></ele><time>2014-4-20T20:43:2Z</time></trkpt>
<trkpt lat="46.27920914" lon="7.09901714"><ele></ele><time>2014-4-20T20:43:5Z</time></trkpt>
<trkpt lat="46.27922821" lon="7.09912205"><ele></ele><time>2014-4-20T20:43:8Z</time></trkpt>
<trkpt lat="46.27925491" lon="7.09919214"><ele></ele><time>2014-4-20T20:43:11Z</time></trkpt>
<trkpt lat="46.27933884" lon="7.09929609"><ele></ele><time>2014-4-20T20:43:14Z</time></trkpt>
<trkpt lat="46.27945328" lon="7.09937191"><ele></ele><time>2014-4-20T20:43:17Z</time></trkpt>
<trkpt lat="46.27944946" lon="7.09941196"><ele></ele><time>2014-4-20T20:43:20Z</time></trkpt>
<trkpt lat="46.27947998" lon="7.09942198"><ele></ele><time>2014-4-20T20:43:23Z</time></trkpt>
<trkpt lat="46.27952194" lon="7.09941196"><ele></ele><time>2014-4-20T20:43:26Z</time></trkpt>
<trkpt lat="46.27958679" lon="7.09940815"><ele></ele><time>2014-4-20T20:43:29Z</time></trkpt>
<trkpt lat="46.27957535" lon="7.09940720"><ele></ele><time>2014-4-20T20:43:32Z</time></trkpt>
<trkpt lat="46.27961349" lon="7.09935713"><ele></ele><time>2014-4-20T20:43:35Z</time></trkpt>
<trkpt lat="46.27964020" lon="7.09936190"><ele></ele><time>2014-4-20T20:43:38Z</time></trkpt>
<trkpt lat="46.27964020" lon="7.09941101"><ele></ele><time>2014-4-20T20:43:41Z</time></trkpt>
<trkpt lat="46.27960205" lon="7.09954786"><ele></ele><time>2014-4-20T20:43:44Z</time></trkpt>
<trkpt lat="46.27962112" lon="7.09957695"><ele></ele><time>2014-4-20T20:43:47Z</time></trkpt>
<trkpt lat="46.27965164" lon="7.09958506"><ele></ele><time>2014-4-20T20:43:50Z</time></trkpt>
<trkpt lat="46.27965927" lon="7.09959888"><ele></ele><time>2014-4-20T20:43:53Z</time></trkpt>
<trkpt lat="46.27965546" lon="7.09962893"><ele></ele><time>2014-4-20T20:43:56Z</time></trkpt>
<trkpt lat="46.27957535" lon="7.09968996"><ele></ele><time>2014-4-20T20:43:59Z</time></trkpt>
<trkpt lat="46.27953339" lon="7.09970903"><ele></ele><time>2014-4-20T20:44:2Z</time></trkpt>
<trkpt lat="46.27952194" lon="7.09971285"><ele></ele><time>2014-4-20T20:44:5Z</time></trkpt>
<trkpt lat="46.27945709" lon="7.09972906"><ele></ele><time>2014-4-20T20:44:8Z</time></trkpt>
<trkpt lat="46.27938461" lon="7.09972382"><ele></ele><time>2014-4-20T20:44:11Z</time></trkpt>
<trkpt lat="46.27921677" lon="7.09970522"><ele></ele><time>2014-4-20T20:44:14Z</time></trkpt>
<trkpt lat="46.27914810" lon="7.09972620"><ele></ele><time>2014-4-20T20:44:17Z</time></trkpt>
<trkpt lat="46.27902985" lon="7.09971809"><ele></ele><time>2014-4-20T20:44:20Z</time></trkpt>
<trkpt lat="46.27897644" lon="7.09972477"><ele></ele><time>2014-4-20T20:44:23Z</time></trkpt>
<trkpt lat="46.27891159" lon="7.09977293"><ele></ele><time>2014-4-20T20:44:26Z</time></trkpt>
<trkpt lat="46.27885818" lon="7.09987211"><ele></ele><time>2014-4-20T20:44:29Z</time></trkpt>
<trkpt lat="46.27883911" lon="7.09991121"><ele></ele><time>2014-4-20T20:44:32Z</time></trkpt>
<trkpt lat="46.27876663" lon="7.09996319"><ele></ele><time>2014-4-20T20:44:35Z</time></trkpt>
<trkpt lat="46.27867889" lon="7.10001707"><ele></ele><time>2014-4-20T20:44:38Z</time></trkpt>
<trkpt lat="46.27866745" lon="7.10002089"><ele></ele><time>2014-4-20T20:44:41Z</time></trkpt>
<trkpt lat="46.27866745" lon="7.10008621"><ele></ele><time>2014-4-20T20:44:44Z</time></trkpt>
<trkpt lat="46.27865982" lon="7.10013485"><ele></ele><time>2014-4-20T20:44:47Z</time></trkpt>
<trkpt lat="46.27868652" lon="7.10018492"><ele></ele><time>2014-4-20T20:44:50Z</time></trkpt>
<trkpt lat="46.27871704" lon="7.10025406"><ele></ele><time>2014-4-20T20:44:53Z</time></trkpt>
<trkpt lat="46.27878571" lon="7.10036802"><ele></ele><time>2014-4-20T20:44:56Z</time></trkpt>
<trkpt lat="46.27880478" lon="7.10040092"><ele></ele><time>2014-4-20T20:44:59Z</time></trkpt>
<trkpt lat="46.27881622" lon="7.10043621"><ele></ele><time>2014-4-20T20:45:2Z</time></trkpt>
<trkpt lat="46.27884674" lon="7.10050011"><ele></ele><time>2014-4-20T20:45:5Z</time></trkpt>
<trkpt lat="46.27883148" lon="7.10057020"><ele></ele><time>2014-4-20T20:45:8Z</time></trkpt>
<trkpt lat="46.27885056" lon="7.10069180"><ele></ele><time>2014-4-20T20:45:11Z</time></trkpt>
<trkpt lat="46.27886200" lon="7.10079098"><ele></ele><time>2014-4-20T20:45:14Z</time></trkpt>
<trkpt lat="46.27888489" lon="7.10086298"><ele></ele><time>2014-4-20T20:45:17Z</time></trkpt>
<trkpt lat="46.27886200" lon="7.10087919"><ele></ele><time>2014-4-20T20:45:20Z</time></trkpt>
<trkpt lat="46.27892303" lon="7.10099602"><ele></ele><time>2014-4-20T20:45:23Z</time></trkpt>
<trkpt lat="46.27892685" lon="7.10100508"><ele></ele><time>2014-4-20T20:45:26Z</time></trkpt>
<trkpt lat="46.27894974" lon="7.10106277"><ele></ele><time>2014-4-20T20:45:29Z</time></trkpt>
<trkpt lat="46.27898407" lon="7.10115814"><ele></ele><time>2014-4-20T20:45:32Z</time></trkpt>
<trkpt lat="46.27904510" lon="7.10125589"><ele></ele><time>2014-4-20T20:45:35Z</time></trkpt>
<trkpt lat="46.27909088" lon="7.10140514"><ele></ele><time>2014-4-20T20:45:38Z</time></trkpt>
<trkpt lat="46.27915192" lon="7.10156107"><ele></ele><time>2014-4-20T20:45:41Z</time></trkpt>
<trkpt lat="46.27918243" lon="7.10170698"><ele></ele><time>2014-4-20T20:45:44Z</time></trkpt>
<trkpt lat="46.27922440" lon="7.10186100"><ele></ele><time>2014-4-20T20:45:47Z</time></trkpt>
<trkpt lat="46.27930069" lon="7.10205317"><ele></ele><time>2014-4-20T20:45:50Z</time></trkpt>
<trkpt lat="46.27933121" lon="7.10219193"><ele></ele><time>2014-4-20T20:45:53Z</time></trkpt>
<trkpt lat="46.27936172" lon="7.10226583"><ele></ele><time>2014-4-20T20:45:56Z</time></trkpt>
<trkpt lat="46.27934647" lon="7.10228777"><ele></ele><time>2014-4-20T20:45:59Z</time></trkpt>
<trkpt lat="46.27936172" lon="7.10234308"><ele></ele><time>2014-4-20T20:46:2Z</time></trkpt>
<trkpt lat="46.27946854" lon="7.10245085"><ele></ele><time>2014-4-20T20:46:5Z</time></trkpt>
<trkpt lat="46.27951431" lon="7.10255718"><ele></ele><time>2014-4-20T20:46:8Z</time></trkpt>
<trkpt lat="46.27952576" lon="7.10266495"><ele></ele><time>2014-4-20T20:46:11Z</time></trkpt>
<trkpt lat="46.27955627" lon="7.10278702"><ele></ele><time>2014-4-20T20:46:14Z</time></trkpt>
<trkpt lat="46.27958679" lon="7.10290003"><ele></ele><time>2014-4-20T20:46:17Z</time></trkpt>
<trkpt lat="46.27960205" lon="7.10306215"><ele></ele><time>2014-4-20T20:46:20Z</time></trkpt>
<trkpt lat="46.27959061" lon="7.10317516"><ele></ele><time>2014-4-20T20:46:23Z</time></trkpt>
<trkpt lat="46.27962112" lon="7.10326576"><ele></ele><time>2014-4-20T20:46:26Z</time></trkpt>
<trkpt lat="46.27963638" lon="7.10333300"><ele></ele><time>2014-4-20T20:46:29Z</time></trkpt>
<trkpt lat="46.27965927" lon="7.10349894"><ele></ele><time>2014-4-20T20:46:32Z</time></trkpt>
<trkpt lat="46.27963638" lon="7.10371494"><ele></ele><time>2014-4-20T20:46:35Z</time></trkpt>
<trkpt lat="46.27960205" lon="7.10390186"><ele></ele><time>2014-4-20T20:46:38Z</time></trkpt>
<trkpt lat="46.27959442" lon="7.10413694"><ele></ele><time>2014-4-20T20:46:41Z</time></trkpt>
<trkpt lat="46.27965546" lon="7.10430002"><ele></ele><time>2014-4-20T20:46:44Z</time></trkpt>
<trkpt lat="46.27970886" lon="7.10439587"><ele></ele><time>2014-4-20T20:46:47Z</time></trkpt>
<trkpt lat="46.27980423" lon="7.10454178"><ele></ele><time>2014-4-20T20:46:50Z</time></trkpt>
<trkpt lat="46.27980042" lon="7.10458899"><ele></ele><time>2014-4-20T20:46:53Z</time></trkpt>
<trkpt lat="46.27978516" lon="7.10467911"><ele></ele><time>2014-4-20T20:46:56Z</time></trkpt>
<trkpt lat="46.27979279" lon="7.10499191"><ele></ele><time>2014-4-20T20:46:59Z</time></trkpt>
<trkpt lat="46.27981186" lon="7.10517120"><ele></ele><time>2014-4-20T20:47:2Z</time></trkpt>
<trkpt lat="46.27981949" lon="7.10519791"><ele></ele><time>2014-4-20T20:47:5Z</time></trkpt>
<trkpt lat="46.27987289" lon="7.10548401"><ele></ele><time>2014-4-20T20:47:8Z</time></trkpt>
<trkpt lat="46.27991867" lon="7.10569906"><ele></ele><time>2014-4-20T20:47:11Z</time></trkpt>
<trkpt lat="46.27996445" lon="7.10596418"><ele></ele><time>2014-4-20T20:47:14Z</time></trkpt>
<trkpt lat="46.27999496" lon="7.10622692"><ele></ele><time>2014-4-20T20:47:17Z</time></trkpt>
<trkpt lat="46.28005600" lon="7.10652781"><ele></ele><time>2014-4-20T20:47:20Z</time></trkpt>
<trkpt lat="46.28010559" lon="7.10670900"><ele></ele><time>2014-4-20T20:47:23Z</time></trkpt>
<trkpt lat="46.28023529" lon="7.10702276"><ele></ele><time>2014-4-20T20:47:26Z</time></trkpt>
<trkpt lat="46.28036118" lon="7.10730410"><ele></ele><time>2014-4-20T20:47:29Z</time></trkpt>
<trkpt lat="46.28041840" lon="7.10755587"><ele></ele><time>2014-4-20T20:47:32Z</time></trkpt>
<trkpt lat="46.28040314" lon="7.10778379"><ele></ele><time>2014-4-20T20:47:35Z</time></trkpt>
<trkpt lat="46.28034210" lon="7.10806704"><ele></ele><time>2014-4-20T20:47:38Z</time></trkpt>
<trkpt lat="46.28027725" lon="7.10834217"><ele></ele><time>2014-4-20T20:47:41Z</time></trkpt>
<trkpt lat="46.28015137" lon="7.10853720"><ele></ele><time>2014-4-20T20:47:44Z</time></trkpt>
<trkpt lat="46.28010559" lon="7.10869694"><ele></ele><time>2014-4-20T20:47:47Z</time></trkpt>
<trkpt lat="46.28012466" lon="7.10904312"><ele></ele><time>2014-4-20T20:47:50Z</time></trkpt>
<trkpt lat="46.28016281" lon="7.10936499"><ele></ele><time>2014-4-20T20:47:53Z</time></trkpt>
<trkpt lat="46.28016663" lon="7.10961914"><ele></ele><time>2014-4-20T20:47:56Z</time></trkpt>
<trkpt lat="46.28008652" lon="7.10993624"><ele></ele><time>2014-4-20T20:47:59Z</time></trkpt>
<trkpt lat="46.28007507" lon="7.11031008"><ele></ele><time>2014-4-20T20:48:2Z</time></trkpt>
<trkpt lat="46.28022003" lon="7.11059809"><ele></ele><time>2014-4-20T20:48:5Z</time></trkpt>
<trkpt lat="46.28042221" lon="7.11083794"><ele></ele><time>2014-4-20T20:48:8Z</time></trkpt>
<trkpt lat="46.28051376" lon="7.11102009"><ele></ele><time>2014-4-20T20:48:11Z</time></trkpt>
<trkpt lat="46.28057480" lon="7.11127615"><ele></ele><time>2014-4-20T20:48:14Z</time></trkpt>
<trkpt lat="46.28057098" lon="7.11150980"><ele></ele><time>2014-4-20T20:48:17Z</time></trkpt>
<trkpt lat="46.28058624" lon="7.11179399"><ele></ele><time>2014-4-20T20:48:20Z</time></trkpt>
<trkpt lat="46.28065491" lon="7.11197519"><ele></ele><time>2014-4-20T20:48:23Z</time></trkpt>
<trkpt lat="46.28074265" lon="7.11210299"><ele></ele><time>2014-4-20T20:48:26Z</time></trkpt>
<trkpt lat="46.28085327" lon="7.11222076"><ele></ele><time>2014-4-20T20:48:29Z</time></trkpt>
<trkpt lat="46.28090286" lon="7.11236811"><ele></ele><time>2014-4-20T20:48:32Z</time></trkpt>
<trkpt lat="46.28092194" lon="7.11250305"><ele></ele><time>2014-4-20T20:48:35Z</time></trkpt>
<trkpt lat="46.28089905" lon="7.11260891"><ele></ele><time>2014-4-20T20:48:38Z</time></trkpt>
<trkpt lat="46.28086853" lon="7.11285114"><ele></ele><time>2014-4-20T20:48:41Z</time></trkpt>
<trkpt lat="46.28094482" lon="7.11300707"><ele></ele><time>2014-4-20T20:48:44Z</time></trkpt>
<trkpt lat="46.28100967" lon="7.11322784"><ele></ele><time>2014-4-20T20:48:47Z</time></trkpt>
<trkpt lat="46.28104401" lon="7.11341476"><ele></ele><time>2014-4-20T20:48:50Z</time></trkpt>
<trkpt lat="46.28107834" lon="7.11355209"><ele></ele><time>2014-4-20T20:48:53Z</time></trkpt>
<trkpt lat="46.28113556" lon="7.11369991"><ele></ele><time>2014-4-20T20:48:56Z</time></trkpt>
<trkpt lat="46.28121948" lon="7.11386490"><ele></ele><time>2014-4-20T20:48:59Z</time></trkpt>
<trkpt lat="46.28127670" lon="7.11410999"><ele></ele><time>2014-4-20T20:49:2Z</time></trkpt>
<trkpt lat="46.28128815" lon="7.11423588"><ele></ele><time>2014-4-20T20:49:5Z</time></trkpt>
<trkpt lat="46.28135681" lon="7.11459589"><ele></ele><time>2014-4-20T20:49:8Z</time></trkpt>
<trkpt lat="46.28141403" lon="7.11478710"><ele></ele><time>2014-4-20T20:49:11Z</time></trkpt>
<trkpt lat="46.28147888" lon="7.11494112"><ele></ele><time>2014-4-20T20:49:14Z</time></trkpt>
<trkpt lat="46.28155518" lon="7.11507320"><ele></ele><time>2014-4-20T20:49:17Z</time></trkpt>
<trkpt lat="46.28165817" lon="7.11523199"><ele></ele><time>2014-4-20T20:49:20Z</time></trkpt>
<trkpt lat="46.28176498" lon="7.11538601"><ele></ele><time>2014-4-20T20:49:23Z</time></trkpt>
<trkpt lat="46.28187943" lon="7.11551380"><ele></ele><time>2014-4-20T20:49:26Z</time></trkpt>
<trkpt lat="46.28195572" lon="7.11566305"><ele></ele><time>2014-4-20T20:49:29Z</time></trkpt>
<trkpt lat="46.28198624" lon="7.11573696"><ele></ele><time>2014-4-20T20:49:32Z</time></trkpt>
<trkpt lat="46.28197479" lon="7.11588717"><ele></ele><time>2014-4-20T20:49:35Z</time></trkpt>
<trkpt lat="46.28205872" lon="7.11604691"><ele></ele><time>2014-4-20T20:49:38Z</time></trkpt>
<trkpt lat="46.28221512" lon="7.11616421"><ele></ele><time>2014-4-20T20:49:41Z</time></trkpt>
<trkpt lat="46.28237534" lon="7.11624193"><ele></ele><time>2014-4-20T20:49:44Z</time></trkpt>
<trkpt lat="46.28242493" lon="7.11635780"><ele></ele><time>2014-4-20T20:49:47Z</time></trkpt>
<trkpt lat="46.28247070" lon="7.11649513"><ele></ele><time>2014-4-20T20:49:50Z</time></trkpt>
<trkpt lat="46.28250885" lon="7.11667109"><ele></ele><time>2014-4-20T20:49:53Z</time></trkpt>
<trkpt lat="46.28253174" lon="7.11683321"><ele></ele><time>2014-4-20T20:49:56Z</time></trkpt>
<trkpt lat="46.28260803" lon="7.11698008"><ele></ele><time>2014-4-20T20:49:59Z</time></trkpt>
<trkpt lat="46.28266907" lon="7.11711216"><ele></ele><time>2014-4-20T20:50:2Z</time></trkpt>
<trkpt lat="46.28271866" lon="7.11727905"><ele></ele><time>2014-4-20T20:50:5Z</time></trkpt>
<trkpt lat="46.28278732" lon="7.11750698"><ele></ele><time>2014-4-20T20:50:8Z</time></trkpt>
<trkpt lat="46.28285599" lon="7.11765623"><ele></ele><time>2014-4-20T20:50:11Z</time></trkpt>
<trkpt lat="46.28288651" lon="7.11789799"><ele></ele><time>2014-4-20T20:50:14Z</time></trkpt>
<trkpt lat="46.28291702" lon="7.11806107"><ele></ele><time>2014-4-20T20:50:17Z</time></trkpt>
<trkpt lat="46.28297043" lon="7.11821604"><ele></ele><time>2014-4-20T20:50:20Z</time></trkpt>
<trkpt lat="46.28299713" lon="7.11835718"><ele></ele><time>2014-4-20T20:50:23Z</time></trkpt>
<trkpt lat="46.28305435" lon="7.11851215"><ele></ele><time>2014-4-20T20:50:26Z</time></trkpt>
<trkpt lat="46.28307724" lon="7.11865091"><ele></ele><time>2014-4-20T20:50:29Z</time></trkpt>
<trkpt lat="46.28307724" lon="7.11877394"><ele></ele><time>2014-4-20T20:50:32Z</time></trkpt>
<trkpt lat="46.28304672" lon="7.11900282"><ele></ele><time>2014-4-20T20:50:35Z</time></trkpt>
<trkpt lat="46.28304291" lon="7.11918688"><ele></ele><time>2014-4-20T20:50:38Z</time></trkpt>
<trkpt lat="46.28304672" lon="7.11939621"><ele></ele><time>2014-4-20T20:50:41Z</time></trkpt>
<trkpt lat="46.28305817" lon="7.11964607"><ele></ele><time>2014-4-20T20:50:44Z</time></trkpt>
<trkpt lat="46.28307724" lon="7.11985493"><ele></ele><time>2014-4-20T20:50:47Z</time></trkpt>
<trkpt lat="46.28308868" lon="7.12003708"><ele></ele><time>2014-4-20T20:50:50Z</time></trkpt>
<trkpt lat="46.28310013" lon="7.12027788"><ele></ele><time>2014-4-20T20:50:53Z</time></trkpt>
<trkpt lat="46.28310776" lon="7.12048388"><ele></ele><time>2014-4-20T20:50:56Z</time></trkpt>
<trkpt lat="46.28311920" lon="7.12069607"><ele></ele><time>2014-4-20T20:50:59Z</time></trkpt>
<trkpt lat="46.28313446" lon="7.12086821"><ele></ele><time>2014-4-20T20:51:2Z</time></trkpt>
<trkpt lat="46.28314209" lon="7.12103701"><ele></ele><time>2014-4-20T20:51:5Z</time></trkpt>
<trkpt lat="46.28315353" lon="7.12115717"><ele></ele><time>2014-4-20T20:51:8Z</time></trkpt>
<trkpt lat="46.28316116" lon="7.12128401"><ele></ele><time>2014-4-20T20:51:11Z</time></trkpt>
<trkpt lat="46.28315735" lon="7.12133312"><ele></ele><time>2014-4-20T20:51:14Z</time></trkpt>
<trkpt lat="46.28317261" lon="7.12144184"><ele></ele><time>2014-4-20T20:51:17Z</time></trkpt>
<trkpt lat="46.28318405" lon="7.12149620"><ele></ele><time>2014-4-20T20:51:20Z</time></trkpt>
<trkpt lat="46.28319168" lon="7.12163782"><ele></ele><time>2014-4-20T20:51:23Z</time></trkpt>
<trkpt lat="46.28321457" lon="7.12178516"><ele></ele><time>2014-4-20T20:51:26Z</time></trkpt>
<trkpt lat="46.28324509" lon="7.12196112"><ele></ele><time>2014-4-20T20:51:29Z</time></trkpt>
<trkpt lat="46.28329849" lon="7.12213802"><ele></ele><time>2014-4-20T20:51:32Z</time></trkpt>
<trkpt lat="46.28335953" lon="7.12233591"><ele></ele><time>2014-4-20T20:51:35Z</time></trkpt>
<trkpt lat="46.28340530" lon="7.12246799"><ele></ele><time>2014-4-20T20:51:38Z</time></trkpt>
<trkpt lat="46.28346252" lon="7.12261581"><ele></ele><time>2014-4-20T20:51:41Z</time></trkpt>
<trkpt lat="46.28355789" lon="7.12282610"><ele></ele><time>2014-4-20T20:51:44Z</time></trkpt>
<trkpt lat="46.28363800" lon="7.12299490"><ele></ele><time>2014-4-20T20:51:47Z</time></trkpt>
<trkpt lat="46.28373337" lon="7.12319088"><ele></ele><time>2014-4-20T20:51:50Z</time></trkpt>
<trkpt lat="46.28378677" lon="7.12329483"><ele></ele><time>2014-4-20T20:51:53Z</time></trkpt>
<trkpt lat="46.28380966" lon="7.12333679"><ele></ele><time>2014-4-20T20:51:56Z</time></trkpt>
<trkpt lat="46.28382874" lon="7.12338591"><ele></ele><time>2014-4-20T20:51:59Z</time></trkpt>
<trkpt lat="46.28391266" lon="7.12351322"><ele></ele><time>2014-4-20T20:52:2Z</time></trkpt>
<trkpt lat="46.28396225" lon="7.12368298"><ele></ele><time>2014-4-20T20:52:5Z</time></trkpt>
<trkpt lat="46.28403091" lon="7.12384081"><ele></ele><time>2014-4-20T20:52:8Z</time></trkpt>
<trkpt lat="46.28408051" lon="7.12408781"><ele></ele><time>2014-4-20T20:52:11Z</time></trkpt>
<trkpt lat="46.28407669" lon="7.12437916"><ele></ele><time>2014-4-20T20:52:14Z</time></trkpt>
<trkpt lat="46.28404999" lon="7.12463808"><ele></ele><time>2014-4-20T20:52:17Z</time></trkpt>
<trkpt lat="46.28399277" lon="7.12492418"><ele></ele><time>2014-4-20T20:52:20Z</time></trkpt>
<trkpt lat="46.28398514" lon="7.12497997"><ele></ele><time>2014-4-20T20:52:23Z</time></trkpt>
<trkpt lat="46.28403473" lon="7.12525415"><ele></ele><time>2014-4-20T20:52:26Z</time></trkpt>
<trkpt lat="46.28416061" lon="7.12557888"><ele></ele><time>2014-4-20T20:52:29Z</time></trkpt>
<trkpt lat="46.28425980" lon="7.12590599"><ele></ele><time>2014-4-20T20:52:32Z</time></trkpt>
<trkpt lat="46.28428650" lon="7.12593889"><ele></ele><time>2014-4-20T20:52:35Z</time></trkpt>
<trkpt lat="46.28441238" lon="7.12592316"><ele></ele><time>2014-4-20T20:52:38Z</time></trkpt>
<trkpt lat="46.28443527" lon="7.12589407"><ele></ele><time>2014-4-20T20:52:41Z</time></trkpt>
<trkpt lat="46.28459930" lon="7.12560797"><ele></ele><time>2014-4-20T20:52:44Z</time></trkpt>
<trkpt lat="46.28461838" lon="7.12534809"><ele></ele><time>2014-4-20T20:52:47Z</time></trkpt>
<trkpt lat="46.28464890" lon="7.12515402"><ele></ele><time>2014-4-20T20:52:50Z</time></trkpt>
<trkpt lat="46.28471756" lon="7.12496281"><ele></ele><time>2014-4-20T20:52:53Z</time></trkpt>
<trkpt lat="46.28482819" lon="7.12473297"><ele></ele><time>2014-4-20T20:52:56Z</time></trkpt>
<trkpt lat="46.28495026" lon="7.12446785"><ele></ele><time>2014-4-20T20:52:59Z</time></trkpt>
<trkpt lat="46.28503036" lon="7.12419415"><ele></ele><time>2014-4-20T20:53:2Z</time></trkpt>
<trkpt lat="46.28508377" lon="7.12389898"><ele></ele><time>2014-4-20T20:53:5Z</time></trkpt>
<trkpt lat="46.28506088" lon="7.12363911"><ele></ele><time>2014-4-20T20:53:8Z</time></trkpt>
<trkpt lat="46.28497314" lon="7.12334108"><ele></ele><time>2014-4-20T20:53:11Z</time></trkpt>
<trkpt lat="46.28493881" lon="7.12316322"><ele></ele><time>2014-4-20T20:53:14Z</time></trkpt>
<trkpt lat="46.28495026" lon="7.12308311"><ele></ele><time>2014-4-20T20:53:17Z</time></trkpt>
<trkpt lat="46.28500366" lon="7.12301302"><ele></ele><time>2014-4-20T20:53:20Z</time></trkpt>
<trkpt lat="46.28512192" lon="7.12316084"><ele></ele><time>2014-4-20T20:53:23Z</time></trkpt>
<trkpt lat="46.28519058" lon="7.12330818"><ele></ele><time>2014-4-20T20:53:26Z</time></trkpt>
<trkpt lat="46.28529358" lon="7.12348890"><ele></ele><time>2014-4-20T20:53:29Z</time></trkpt>
<trkpt lat="46.28546143" lon="7.12370777"><ele></ele><time>2014-4-20T20:53:32Z</time></trkpt>
<trkpt lat="46.28553772" lon="7.12389517"><ele></ele><time>2014-4-20T20:53:35Z</time></trkpt>
<trkpt lat="46.28558731" lon="7.12411880"><ele></ele><time>2014-4-20T20:53:38Z</time></trkpt>
<trkpt lat="46.28561020" lon="7.12427807"><ele></ele><time>2014-4-20T20:53:41Z</time></trkpt>
<trkpt lat="46.28561020" lon="7.12447977"><ele></ele><time>2014-4-20T20:53:44Z</time></trkpt>
<trkpt lat="46.28557587" lon="7.12463522"><ele></ele><time>2014-4-20T20:53:47Z</time></trkpt>
<trkpt lat="46.28554153" lon="7.12480307"><ele></ele><time>2014-4-20T20:53:50Z</time></trkpt>
<trkpt lat="46.28551483" lon="7.12503195"><ele></ele><time>2014-4-20T20:53:53Z</time></trkpt>
<trkpt lat="46.28549957" lon="7.12524223"><ele></ele><time>2014-4-20T20:53:56Z</time></trkpt>
<trkpt lat="46.28551865" lon="7.12543488"><ele></ele><time>2014-4-20T20:53:59Z</time></trkpt>
<trkpt lat="46.28554916" lon="7.12566090"><ele></ele><time>2014-4-20T20:54:2Z</time></trkpt>
<trkpt lat="46.28561783" lon="7.12590122"><ele></ele><time>2014-4-20T20:54:5Z</time></trkpt>
<trkpt lat="46.28567123" lon="7.12608719"><ele></ele><time>2014-4-20T20:54:8Z</time></trkpt>
<trkpt lat="46.28567505" lon="7.12618923"><ele></ele><time>2014-4-20T20:54:11Z</time></trkpt>
<trkpt lat="46.28567886" lon="7.12637281"><ele></ele><time>2014-4-20T20:54:14Z</time></trkpt>
<trkpt lat="46.28568268" lon="7.12639618"><ele></ele><time>2014-4-20T20:54:17Z</time></trkpt>
<trkpt lat="46.28568268" lon="7.12654781"><ele></ele><time>2014-4-20T20:54:20Z</time></trkpt>
<trkpt lat="46.28568268" lon="7.12660217"><ele></ele><time>2014-4-20T20:54:23Z</time></trkpt>
<trkpt lat="46.28570175" lon="7.12679195"><ele></ele><time>2014-4-20T20:54:26Z</time></trkpt>
<trkpt lat="46.28573608" lon="7.12698603"><ele></ele><time>2014-4-20T20:54:29Z</time></trkpt>
<trkpt lat="46.28577042" lon="7.12716389"><ele></ele><time>2014-4-20T20:54:32Z</time></trkpt>
<trkpt lat="46.28580856" lon="7.12728786"><ele></ele><time>2014-4-20T20:54:35Z</time></trkpt>
<trkpt lat="46.28581619" lon="7.12736893"><ele></ele><time>2014-4-20T20:54:38Z</time></trkpt>
<trkpt lat="46.28582764" lon="7.12755680"><ele></ele><time>2014-4-20T20:54:41Z</time></trkpt>
<trkpt lat="46.28583908" lon="7.12762785"><ele></ele><time>2014-4-20T20:54:44Z</time></trkpt>
<trkpt lat="46.28585052" lon="7.12772179"><ele></ele><time>2014-4-20T20:54:47Z</time></trkpt>
<trkpt lat="46.28587341" lon="7.12779617"><ele></ele><time>2014-4-20T20:54:50Z</time></trkpt>
<trkpt lat="46.28592682" lon="7.12805319"><ele></ele><time>2014-4-20T20:54:53Z</time></trkpt>
<trkpt lat="46.28599930" lon="7.12823105"><ele></ele><time>2014-4-20T20:54:56Z</time></trkpt>
<trkpt lat="46.28604126" lon="7.12837219"><ele></ele><time>2014-4-20T20:54:59Z</time></trkpt>
<trkpt lat="46.28607178" lon="7.12856817"><ele></ele><time>2014-4-20T20:55:2Z</time></trkpt>
<trkpt lat="46.28607941" lon="7.12859011"><ele></ele><time>2014-4-20T20:55:5Z</time></trkpt>
<trkpt lat="46.28611755" lon="7.12872410"><ele></ele><time>2014-4-20T20:55:8Z</time></trkpt>
<trkpt lat="46.28614044" lon="7.12902021"><ele></ele><time>2014-4-20T20:55:11Z</time></trkpt>
<trkpt lat="46.28613663" lon="7.12918997"><ele></ele><time>2014-4-20T20:55:14Z</time></trkpt>
<trkpt lat="46.28614807" lon="7.12940311"><ele></ele><time>2014-4-20T20:55:17Z</time></trkpt>
<trkpt lat="46.28612900" lon="7.12951612"><ele></ele><time>2014-4-20T20:55:20Z</time></trkpt>
<trkpt lat="46.28617096" lon="7.12972689"><ele></ele><time>2014-4-20T20:55:23Z</time></trkpt>
<trkpt lat="46.28617859" lon="7.12975216"><ele></ele><time>2014-4-20T20:55:26Z</time></trkpt>
<trkpt lat="46.28618622" lon="7.12986279"><ele></ele><time>2014-4-20T20:55:29Z</time></trkpt>
<trkpt lat="46.28622437" lon="7.13009882"><ele></ele><time>2014-4-20T20:55:32Z</time></trkpt>
<trkpt lat="46.28624344" lon="7.13026524"><ele></ele><time>2014-4-20T20:55:35Z</time></trkpt>
<trkpt lat="46.28623581" lon="7.13050604"><ele></ele><time>2014-4-20T20:55:38Z</time></trkpt>
<trkpt lat="46.28616333" lon="7.13063478"><ele></ele><time>2014-4-20T20:55:41Z</time></trkpt>
<trkpt lat="46.28609085" lon="7.13069677"><ele></ele><time>2014-4-20T20:55:44Z</time></trkpt>
<trkpt lat="46.28601074" lon="7.13084984"><ele></ele><time>2014-4-20T20:55:47Z</time></trkpt>
<trkpt lat="46.28596115" lon="7.13104010"><ele></ele><time>2014-4-20T20:55:50Z</time></trkpt>
<trkpt lat="46.28593826" lon="7.13110590"><ele></ele><time>2014-4-20T20:55:53Z</time></trkpt>
<trkpt lat="46.28589630" lon="7.13123989"><ele></ele><time>2014-4-20T20:55:56Z</time></trkpt>
<trkpt lat="46.28587341" lon="7.13130522"><ele></ele><time>2014-4-20T20:55:59Z</time></trkpt>
<trkpt lat="46.28583908" lon="7.13149786"><ele></ele><time>2014-4-20T20:56:2Z</time></trkpt>
<trkpt lat="46.28580475" lon="7.13169813"><ele></ele><time>2014-4-20T20:56:5Z</time></trkpt>
<trkpt lat="46.28578949" lon="7.13199186"><ele></ele><time>2014-4-20T20:56:8Z</time></trkpt>
<trkpt lat="46.28577805" lon="7.13225508"><ele></ele><time>2014-4-20T20:56:11Z</time></trkpt>
<trkpt lat="46.28575516" lon="7.13247108"><ele></ele><time>2014-4-20T20:56:14Z</time></trkpt>
<trkpt lat="46.28574371" lon="7.13258791"><ele></ele><time>2014-4-20T20:56:17Z</time></trkpt>
<trkpt lat="46.28574371" lon="7.13267517"><ele></ele><time>2014-4-20T20:56:20Z</time></trkpt>
<trkpt lat="46.28574371" lon="7.13268185"><ele></ele><time>2014-4-20T20:56:23Z</time></trkpt>
<trkpt lat="46.28570175" lon="7.13278389"><ele></ele><time>2014-4-20T20:56:26Z</time></trkpt>
<trkpt lat="46.28568649" lon="7.13299417"><ele></ele><time>2014-4-20T20:56:29Z</time></trkpt>
<trkpt lat="46.28569412" lon="7.13319016"><ele></ele><time>2014-4-20T20:56:32Z</time></trkpt>
<trkpt lat="46.28571320" lon="7.13322783"><ele></ele><time>2014-4-20T20:56:35Z</time></trkpt>
<trkpt lat="46.28572845" lon="7.13329315"><ele></ele><time>2014-4-20T20:56:38Z</time></trkpt>
<trkpt lat="46.28582001" lon="7.13342190"><ele></ele><time>2014-4-20T20:56:41Z</time></trkpt>
<trkpt lat="46.28594971" lon="7.13359022"><ele></ele><time>2014-4-20T20:56:44Z</time></trkpt>
<trkpt lat="46.28611374" lon="7.13379002"><ele></ele><time>2014-4-20T20:56:47Z</time></trkpt>
<trkpt lat="46.28628540" lon="7.13400221"><ele></ele><time>2014-4-20T20:56:50Z</time></trkpt>
<trkpt lat="46.28641510" lon="7.13415098"><ele></ele><time>2014-4-20T20:56:53Z</time></trkpt>
<trkpt lat="46.28655243" lon="7.13433504"><ele></ele><time>2014-4-20T20:56:56Z</time></trkpt>
<trkpt lat="46.28669357" lon="7.13450813"><ele></ele><time>2014-4-20T20:56:59Z</time></trkpt>
<trkpt lat="46.28679657" lon="7.13462687"><ele></ele><time>2014-4-20T20:57:2Z</time></trkpt>
<trkpt lat="46.28693008" lon="7.13479090"><ele></ele><time>2014-4-20T20:57:5Z</time></trkpt>
<trkpt lat="46.28701019" lon="7.13486910"><ele></ele><time>2014-4-20T20:57:8Z</time></trkpt>
<trkpt lat="46.28712082" lon="7.13500309"><ele></ele><time>2014-4-20T20:57:11Z</time></trkpt>
<trkpt lat="46.28726196" lon="7.13517094"><ele></ele><time>2014-4-20T20:57:14Z</time></trkpt>
<trkpt lat="46.28737640" lon="7.13532782"><ele></ele><time>2014-4-20T20:57:17Z</time></trkpt>
<trkpt lat="46.28750229" lon="7.13548422"><ele></ele><time>2014-4-20T20:57:20Z</time></trkpt>
<trkpt lat="46.28764343" lon="7.13564491"><ele></ele><time>2014-4-20T20:57:23Z</time></trkpt>
<trkpt lat="46.28767014" lon="7.13568211"><ele></ele><time>2014-4-20T20:57:26Z</time></trkpt>
<trkpt lat="46.28786087" lon="7.13592482"><ele></ele><time>2014-4-20T20:57:29Z</time></trkpt>
<trkpt lat="46.28802490" lon="7.13612890"><ele></ele><time>2014-4-20T20:57:32Z</time></trkpt>
<trkpt lat="46.28813934" lon="7.13627291"><ele></ele><time>2014-4-20T20:57:35Z</time></trkpt>
<trkpt lat="46.28826523" lon="7.13644981"><ele></ele><time>2014-4-20T20:57:38Z</time></trkpt>
<trkpt lat="46.28841019" lon="7.13670921"><ele></ele><time>2014-4-20T20:57:41Z</time></trkpt>
<trkpt lat="46.28844833" lon="7.13689899"><ele></ele><time>2014-4-20T20:57:44Z</time></trkpt>
<trkpt lat="46.28854370" lon="7.13706017"><ele></ele><time>2014-4-20T20:57:47Z</time></trkpt>
<trkpt lat="46.28860855" lon="7.13713312"><ele></ele><time>2014-4-20T20:57:50Z</time></trkpt>
<trkpt lat="46.28860855" lon="7.13714409"><ele></ele><time>2014-4-20T20:57:53Z</time></trkpt>
<trkpt lat="46.28861618" lon="7.13714504"><ele></ele><time>2014-4-20T20:57:56Z</time></trkpt>
<trkpt lat="46.28872299" lon="7.13711596"><ele></ele><time>2014-4-20T20:57:59Z</time></trkpt>
<trkpt lat="46.28874207" lon="7.13714314"><ele></ele><time>2014-4-20T20:58:2Z</time></trkpt>
<trkpt lat="46.28884125" lon="7.13727379"><ele></ele><time>2014-4-20T20:58:5Z</time></trkpt>
<trkpt lat="46.28887939" lon="7.13730192"><ele></ele><time>2014-4-20T20:58:8Z</time></trkpt>
<trkpt lat="46.28889084" lon="7.13738203"><ele></ele><time>2014-4-20T20:58:11Z</time></trkpt>
<trkpt lat="46.28893280" lon="7.13740110"><ele></ele><time>2014-4-20T20:58:14Z</time></trkpt>
<trkpt lat="46.28905869" lon="7.13740778"><ele></ele><time>2014-4-20T20:58:17Z</time></trkpt>
<trkpt lat="46.28916931" lon="7.13753080"><ele></ele><time>2014-4-20T20:58:20Z</time></trkpt>
<trkpt lat="46.28924561" lon="7.13764715"><ele></ele><time>2014-4-20T20:58:23Z</time></trkpt>
<trkpt lat="46.28927994" lon="7.13769007"><ele></ele><time>2014-4-20T20:58:26Z</time></trkpt>
<trkpt lat="46.28931046" lon="7.13764906"><ele></ele><time>2014-4-20T20:58:29Z</time></trkpt>
<trkpt lat="46.28929520" lon="7.13764095"><ele></ele><time>2014-4-20T20:58:32Z</time></trkpt>
<trkpt lat="46.28916550" lon="7.13756609"><ele></ele><time>2014-4-20T20:58:35Z</time></trkpt>
<trkpt lat="46.28899384" lon="7.13741112"><ele></ele><time>2014-4-20T20:58:38Z</time></trkpt>
<trkpt lat="46.28877640" lon="7.13725805"><ele></ele><time>2014-4-20T20:58:41Z</time></trkpt>
<trkpt lat="46.28854370" lon="7.13713408"><ele></ele><time>2014-4-20T20:58:44Z</time></trkpt>
<trkpt lat="46.28847122" lon="7.13725424"><ele></ele><time>2014-4-20T20:58:47Z</time></trkpt>
<trkpt lat="46.28844452" lon="7.13743591"><ele></ele><time>2014-4-20T20:58:50Z</time></trkpt>
<trkpt lat="46.28837585" lon="7.13765907"><ele></ele><time>2014-4-20T20:58:53Z</time></trkpt>
<trkpt lat="46.28826523" lon="7.13784981"><ele></ele><time>2014-4-20T20:58:56Z</time></trkpt>
<trkpt lat="46.28817749" lon="7.13803291"><ele></ele><time>2014-4-20T20:58:59Z</time></trkpt>
<trkpt lat="46.28815079" lon="7.13812685"><ele></ele><time>2014-4-20T20:59:2Z</time></trkpt>
<trkpt lat="46.28814697" lon="7.13812590"><ele></ele><time>2014-4-20T20:59:5Z</time></trkpt>
<trkpt lat="46.28814316" lon="7.13814592"><ele></ele><time>2014-4-20T20:59:8Z</time></trkpt>
<trkpt lat="46.28810883" lon="7.13816023"><ele></ele><time>2014-4-20T20:59:11Z</time></trkpt>
<trkpt lat="46.28804398" lon="7.13819504"><ele></ele><time>2014-4-20T20:59:14Z</time></trkpt>
<trkpt lat="46.28797150" lon="7.13821507"><ele></ele><time>2014-4-20T20:59:17Z</time></trkpt>
<trkpt lat="46.28789902" lon="7.13830090"><ele></ele><time>2014-4-20T20:59:20Z</time></trkpt>
<trkpt lat="46.28775787" lon="7.13840580"><ele></ele><time>2014-4-20T20:59:23Z</time></trkpt>
<trkpt lat="46.28765869" lon="7.13846207"><ele></ele><time>2014-4-20T20:59:26Z</time></trkpt>
<trkpt lat="46.28763962" lon="7.13847494"><ele></ele><time>2014-4-20T20:59:29Z</time></trkpt>
<trkpt lat="46.28754044" lon="7.13849783"><ele></ele><time>2014-4-20T20:59:32Z</time></trkpt>
<trkpt lat="46.28754044" lon="7.13850021"><ele></ele><time>2014-4-20T20:59:35Z</time></trkpt>
<trkpt lat="46.28749847" lon="7.13850498"><ele></ele><time>2014-4-20T20:59:38Z</time></trkpt>
<trkpt lat="46.28746033" lon="7.13858700"><ele></ele><time>2014-4-20T20:59:41Z</time></trkpt>
<trkpt lat="46.28744125" lon="7.13861084"><ele></ele><time>2014-4-20T20:59:44Z</time></trkpt>
<trkpt lat="46.28739929" lon="7.13865995"><ele></ele><time>2014-4-20T20:59:47Z</time></trkpt>
<trkpt lat="46.28739929" lon="7.13866091"><ele></ele><time>2014-4-20T20:59:50Z</time></trkpt>
<trkpt lat="46.28736496" lon="7.13845110"><ele></ele><time>2014-4-20T20:59:53Z</time></trkpt>
<trkpt lat="46.28734970" lon="7.13828993"><ele></ele><time>2014-4-20T20:59:56Z</time></trkpt>
<trkpt lat="46.28726196" lon="7.13810921"><ele></ele><time>2014-4-20T20:59:59Z</time></trkpt>
<trkpt lat="46.28703690" lon="7.13783121"><ele></ele><time>2014-4-20T21:0:2Z</time></trkpt>
<trkpt lat="46.28695679" lon="7.13772297"><ele></ele><time>2014-4-20T21:0:5Z</time></trkpt>
<trkpt lat="46.28680801" lon="7.13754177"><ele></ele><time>2014-4-20T21:0:8Z</time></trkpt>
<trkpt lat="46.28678131" lon="7.13750696"><ele></ele><time>2014-4-20T21:0:11Z</time></trkpt>
<trkpt lat="46.28660965" lon="7.13725615"><ele></ele><time>2014-4-20T21:0:14Z</time></trkpt>
<trkpt lat="46.28649521" lon="7.13704014"><ele></ele><time>2014-4-20T21:0:17Z</time></trkpt>
<trkpt lat="46.28641891" lon="7.13689709"><ele></ele><time>2014-4-20T21:0:20Z</time></trkpt>
<trkpt lat="46.28634644" lon="7.13676977"><ele></ele><time>2014-4-20T21:0:23Z</time></trkpt>
<trkpt lat="46.28625107" lon="7.13665485"><ele></ele><time>2014-4-20T21:0:26Z</time></trkpt>
<trkpt lat="46.28625107" lon="7.13664722"><ele></ele><time>2014-4-20T21:0:29Z</time></trkpt>
<trkpt lat="46.28620529" lon="7.13657713"><ele></ele><time>2014-4-20T21:0:32Z</time></trkpt>
<trkpt lat="46.28622055" lon="7.13655186"><ele></ele><time>2014-4-20T21:0:35Z</time></trkpt>
<trkpt lat="46.28622437" lon="7.13650608"><ele></ele><time>2014-4-20T21:0:38Z</time></trkpt>
<trkpt lat="46.28622437" lon="7.13646698"><ele></ele><time>2014-4-20T21:0:41Z</time></trkpt>
<trkpt lat="46.28622818" lon="7.13645315"><ele></ele><time>2014-4-20T21:0:44Z</time></trkpt>
<trkpt lat="46.28625488" lon="7.13641405"><ele></ele><time>2014-4-20T21:0:47Z</time></trkpt>
<trkpt lat="46.28625488" lon="7.13641119"><ele></ele><time>2014-4-20T21:0:50Z</time></trkpt>
<trkpt lat="46.28627396" lon="7.13629103"><ele></ele><time>2014-4-20T21:0:53Z</time></trkpt>
<trkpt lat="46.28627777" lon="7.13628101"><ele></ele><time>2014-4-20T21:0:56Z</time></trkpt>
<trkpt lat="46.28626633" lon="7.13623714"><ele></ele><time>2014-4-20T21:0:59Z</time></trkpt>
<trkpt lat="46.28626633" lon="7.13617897"><ele></ele><time>2014-4-20T21:1:2Z</time></trkpt>
<trkpt lat="46.28626633" lon="7.13615894"><ele></ele><time>2014-4-20T21:1:5Z</time></trkpt>
<trkpt lat="46.28624725" lon="7.13614416"><ele></ele><time>2014-4-20T21:1:8Z</time></trkpt>
<trkpt lat="46.28616714" lon="7.13602877"><ele></ele><time>2014-4-20T21:1:11Z</time></trkpt>
<trkpt lat="46.28615570" lon="7.13600397"><ele></ele><time>2014-4-20T21:1:14Z</time></trkpt>
<trkpt lat="46.28610992" lon="7.13589716"><ele></ele><time>2014-4-20T21:1:17Z</time></trkpt>
<trkpt lat="46.28594971" lon="7.13571692"><ele></ele><time>2014-4-20T21:1:20Z</time></trkpt>
<trkpt lat="46.28587723" lon="7.13558578"><ele></ele><time>2014-4-20T21:1:23Z</time></trkpt>
<trkpt lat="46.28576279" lon="7.13539600"><ele></ele><time>2014-4-20T21:1:26Z</time></trkpt>
<trkpt lat="46.28568268" lon="7.13521194"><ele></ele><time>2014-4-20T21:1:29Z</time></trkpt>
<trkpt lat="46.28558350" lon="7.13493109"><ele></ele><time>2014-4-20T21:1:32Z</time></trkpt>
<trkpt lat="46.28552628" lon="7.13468981"><ele></ele><time>2014-4-20T21:1:35Z</time></trkpt>
<trkpt lat="46.28547668" lon="7.13457680"><ele></ele><time>2014-4-20T21:1:38Z</time></trkpt>
<trkpt lat="46.28538895" lon="7.13446712"><ele></ele><time>2014-4-20T21:1:41Z</time></trkpt>
<trkpt lat="46.28532028" lon="7.13436985"><ele></ele><time>2014-4-20T21:1:44Z</time></trkpt>
<trkpt lat="46.28529739" lon="7.13422203"><ele></ele><time>2014-4-20T21:1:47Z</time></trkpt>
<trkpt lat="46.28532028" lon="7.13408279"><ele></ele><time>2014-4-20T21:1:50Z</time></trkpt>
<trkpt lat="46.28536987" lon="7.13389492"><ele></ele><time>2014-4-20T21:1:53Z</time></trkpt>
<trkpt lat="46.28543472" lon="7.13368988"><ele></ele><time>2014-4-20T21:1:56Z</time></trkpt>
<trkpt lat="46.28550720" lon="7.13360882"><ele></ele><time>2014-4-20T21:1:59Z</time></trkpt>
<trkpt lat="46.28551865" lon="7.13359785"><ele></ele><time>2014-4-20T21:2:2Z</time></trkpt>
<trkpt lat="46.28553391" lon="7.13356113"><ele></ele><time>2014-4-20T21:2:5Z</time></trkpt>
<trkpt lat="46.28557587" lon="7.13345194"><ele></ele><time>2014-4-20T21:2:8Z</time></trkpt>
<trkpt lat="46.28562546" lon="7.13337421"><ele></ele><time>2014-4-20T21:2:11Z</time></trkpt>
<trkpt lat="46.28570938" lon="7.13319206"><ele></ele><time>2014-4-20T21:2:14Z</time></trkpt>
<trkpt lat="46.28569412" lon="7.13313913"><ele></ele><time>2014-4-20T21:2:17Z</time></trkpt>
<trkpt lat="46.28566360" lon="7.13309193"><ele></ele><time>2014-4-20T21:2:20Z</time></trkpt>
<trkpt lat="46.28553772" lon="7.13296604"><ele></ele><time>2014-4-20T21:2:23Z</time></trkpt>
<trkpt lat="46.28541183" lon="7.13280010"><ele></ele><time>2014-4-20T21:2:26Z</time></trkpt>
<trkpt lat="46.28509903" lon="7.13245678"><ele></ele><time>2014-4-20T21:2:29Z</time></trkpt>
<trkpt lat="46.28482437" lon="7.13217306"><ele></ele><time>2014-4-20T21:2:32Z</time></trkpt>
<trkpt lat="46.28456116" lon="7.13200188"><ele></ele><time>2014-4-20T21:2:35Z</time></trkpt>
<trkpt lat="46.28447723" lon="7.13197803"><ele></ele><time>2014-4-20T21:2:38Z</time></trkpt>
<trkpt lat="46.28433228" lon="7.13208580"><ele></ele><time>2014-4-20T21:2:41Z</time></trkpt>
<trkpt lat="46.28416443" lon="7.13215923"><ele></ele><time>2014-4-20T21:2:44Z</time></trkpt>
<trkpt lat="46.28390121" lon="7.13213396"><ele></ele><time>2014-4-20T21:2:47Z</time></trkpt>
<trkpt lat="46.28368378" lon="7.13193607"><ele></ele><time>2014-4-20T21:2:50Z</time></trkpt>
<trkpt lat="46.28360748" lon="7.13186598"><ele></ele><time>2014-4-20T21:2:53Z</time></trkpt>
<trkpt lat="46.28350830" lon="7.13170481"><ele></ele><time>2014-4-20T21:2:56Z</time></trkpt>
<trkpt lat="46.28351212" lon="7.13158989"><ele></ele><time>2014-4-20T21:2:59Z</time></trkpt>
<trkpt lat="46.28349686" lon="7.13155603"><ele></ele><time>2014-4-20T21:3:2Z</time></trkpt>
<trkpt lat="46.28345490" lon="7.13144207"><ele></ele><time>2014-4-20T21:3:5Z</time></trkpt>
<trkpt lat="46.28344727" lon="7.13140392"><ele></ele><time>2014-4-20T21:3:8Z</time></trkpt>
<trkpt lat="46.28340530" lon="7.13121891"><ele></ele><time>2014-4-20T21:3:11Z</time></trkpt>
<trkpt lat="46.28339767" lon="7.13116884"><ele></ele><time>2014-4-20T21:3:14Z</time></trkpt>
<trkpt lat="46.28340149" lon="7.13082790"><ele></ele><time>2014-4-20T21:3:17Z</time></trkpt>
<trkpt lat="46.28340530" lon="7.13058186"><ele></ele><time>2014-4-20T21:3:20Z</time></trkpt>
<trkpt lat="46.28346252" lon="7.13048506"><ele></ele><time>2014-4-20T21:3:23Z</time></trkpt>
<trkpt lat="46.28365326" lon="7.13034201"><ele></ele><time>2014-4-20T21:3:26Z</time></trkpt>
<trkpt lat="46.28369522" lon="7.13033390"><ele></ele><time>2014-4-20T21:3:29Z</time></trkpt>
<trkpt lat="46.28398132" lon="7.13020992"><ele></ele><time>2014-4-20T21:3:32Z</time></trkpt>
<trkpt lat="46.28409958" lon="7.13010788"><ele></ele><time>2014-4-20T21:3:35Z</time></trkpt>
<trkpt lat="46.28421402" lon="7.12999678"><ele></ele><time>2014-4-20T21:3:38Z</time></trkpt>
<trkpt lat="46.28439713" lon="7.12973595"><ele></ele><time>2014-4-20T21:3:41Z</time></trkpt>
<trkpt lat="46.28443909" lon="7.12968206"><ele></ele><time>2014-4-20T21:3:44Z</time></trkpt>
<trkpt lat="46.28464890" lon="7.12940502"><ele></ele><time>2014-4-20T21:3:47Z</time></trkpt>
<trkpt lat="46.28468704" lon="7.12933016"><ele></ele><time>2014-4-20T21:3:50Z</time></trkpt>
<trkpt lat="46.28479004" lon="7.12914610"><ele></ele><time>2014-4-20T21:3:53Z</time></trkpt>
<trkpt lat="46.28483582" lon="7.12899923"><ele></ele><time>2014-4-20T21:3:56Z</time></trkpt>
<trkpt lat="46.28489304" lon="7.12882519"><ele></ele><time>2014-4-20T21:3:59Z</time></trkpt>
<trkpt lat="46.28492355" lon="7.12872982"><ele></ele><time>2014-4-20T21:4:2Z</time></trkpt>
<trkpt lat="46.28499603" lon="7.12854624"><ele></ele><time>2014-4-20T21:4:5Z</time></trkpt>
<trkpt lat="46.28507996" lon="7.12846708"><ele></ele><time>2014-4-20T21:4:8Z</time></trkpt>
<trkpt lat="46.28508377" lon="7.12836218"><ele></ele><time>2014-4-20T21:4:11Z</time></trkpt>
<trkpt lat="46.28506470" lon="7.12834597"><ele></ele><time>2014-4-20T21:4:14Z</time></trkpt>
<trkpt lat="46.28504181" lon="7.12833214"><ele></ele><time>2014-4-20T21:4:17Z</time></trkpt>
<trkpt lat="46.28499603" lon="7.12832689"><ele></ele><time>2014-4-20T21:4:20Z</time></trkpt>
<trkpt lat="46.28498459" lon="7.12832689"><ele></ele><time>2014-4-20T21:4:23Z</time></trkpt>
<trkpt lat="46.28495407" lon="7.12831306"><ele></ele><time>2014-4-20T21:4:26Z</time></trkpt>
<trkpt lat="46.28495789" lon="7.12825203"><ele></ele><time>2014-4-20T21:4:29Z</time></trkpt>
<trkpt lat="46.28494263" lon="7.12821913"><ele></ele><time>2014-4-20T21:4:32Z</time></trkpt>
<trkpt lat="46.28486633" lon="7.12810802"><ele></ele><time>2014-4-20T21:4:35Z</time></trkpt>
<trkpt lat="46.28483582" lon="7.12800694"><ele></ele><time>2014-4-20T21:4:38Z</time></trkpt>
<trkpt lat="46.28482437" lon="7.12796783"><ele></ele><time>2014-4-20T21:4:41Z</time></trkpt>
<trkpt lat="46.28480911" lon="7.12790823"><ele></ele><time>2014-4-20T21:4:44Z</time></trkpt>
<trkpt lat="46.28480530" lon="7.12786722"><ele></ele><time>2014-4-20T21:4:47Z</time></trkpt>
<trkpt lat="46.28480911" lon="7.12780380"><ele></ele><time>2014-4-20T21:4:50Z</time></trkpt>
<trkpt lat="46.28481293" lon="7.12776613"><ele></ele><time>2014-4-20T21:4:53Z</time></trkpt>
<trkpt lat="46.28482819" lon="7.12761211"><ele></ele><time>2014-4-20T21:4:56Z</time></trkpt>
<trkpt lat="46.28484726" lon="7.12740803"><ele></ele><time>2014-4-20T21:4:59Z</time></trkpt>
<trkpt lat="46.28485489" lon="7.12732697"><ele></ele><time>2014-4-20T21:5:2Z</time></trkpt>
<trkpt lat="46.28484344" lon="7.12704706"><ele></ele><time>2014-4-20T21:5:5Z</time></trkpt>
<trkpt lat="46.28470612" lon="7.12674618"><ele></ele><time>2014-4-20T21:5:8Z</time></trkpt>
<trkpt lat="46.28450012" lon="7.12628078"><ele></ele><time>2014-4-20T21:5:11Z</time></trkpt>
<trkpt lat="46.28440094" lon="7.12601709"><ele></ele><time>2014-4-20T21:5:14Z</time></trkpt>
<trkpt lat="46.28423309" lon="7.12585688"><ele></ele><time>2014-4-20T21:5:17Z</time></trkpt>
<trkpt lat="46.28414917" lon="7.12566423"><ele></ele><time>2014-4-20T21:5:20Z</time></trkpt>
<trkpt lat="46.28403091" lon="7.12526321"><ele></ele><time>2014-4-20T21:5:23Z</time></trkpt>
<trkpt lat="46.28399277" lon="7.12514496"><ele></ele><time>2014-4-20T21:5:26Z</time></trkpt>
<trkpt lat="46.28396606" lon="7.12485218"><ele></ele><time>2014-4-20T21:5:29Z</time></trkpt>
<trkpt lat="46.28401566" lon="7.12446117"><ele></ele><time>2014-4-20T21:5:32Z</time></trkpt>
<trkpt lat="46.28401947" lon="7.12422323"><ele></ele><time>2014-4-20T21:5:35Z</time></trkpt>
<trkpt lat="46.28393173" lon="7.12377310"><ele></ele><time>2014-4-20T21:5:38Z</time></trkpt>
<trkpt lat="46.28388214" lon="7.12363386"><ele></ele><time>2014-4-20T21:5:41Z</time></trkpt>
<trkpt lat="46.28359985" lon="7.12297583"><ele></ele><time>2014-4-20T21:5:44Z</time></trkpt>
<trkpt lat="46.28334427" lon="7.12236595"><ele></ele><time>2014-4-20T21:5:47Z</time></trkpt>
<trkpt lat="46.28322220" lon="7.12201023"><ele></ele><time>2014-4-20T21:5:50Z</time></trkpt>
<trkpt lat="46.28314209" lon="7.12130308"><ele></ele><time>2014-4-20T21:5:53Z</time></trkpt>
<trkpt lat="46.28309250" lon="7.12042618"><ele></ele><time>2014-4-20T21:5:56Z</time></trkpt>
<trkpt lat="46.28303909" lon="7.11956215"><ele></ele><time>2014-4-20T21:5:59Z</time></trkpt>
<trkpt lat="46.28295135" lon="7.11856985"><ele></ele><time>2014-4-20T21:6:2Z</time></trkpt>
<trkpt lat="46.28293610" lon="7.11836290"><ele></ele><time>2014-4-20T21:6:5Z</time></trkpt>
<trkpt lat="46.28274918" lon="7.11754084"><ele></ele><time>2014-4-20T21:6:8Z</time></trkpt>
<trkpt lat="46.28241348" lon="7.11656284"><ele></ele><time>2014-4-20T21:6:11Z</time></trkpt>
<trkpt lat="46.28214264" lon="7.11617088"><ele></ele><time>2014-4-20T21:6:14Z</time></trkpt>
<trkpt lat="46.28205490" lon="7.11608124"><ele></ele><time>2014-4-20T21:6:17Z</time></trkpt>
<trkpt lat="46.28196335" lon="7.11581516"><ele></ele><time>2014-4-20T21:6:20Z</time></trkpt>
<trkpt lat="46.28207779" lon="7.11572981"><ele></ele><time>2014-4-20T21:6:23Z</time></trkpt>
<trkpt lat="46.28215408" lon="7.11574316"><ele></ele><time>2014-4-20T21:6:26Z</time></trkpt>
<trkpt lat="46.28234482" lon="7.11574984"><ele></ele><time>2014-4-20T21:6:29Z</time></trkpt>
<trkpt lat="46.28263474" lon="7.11565304"><ele></ele><time>2014-4-20T21:6:32Z</time></trkpt>
<trkpt lat="46.28288269" lon="7.11535883"><ele></ele><time>2014-4-20T21:6:35Z</time></trkpt>
<trkpt lat="46.28298950" lon="7.11498785"><ele></ele><time>2014-4-20T21:6:38Z</time></trkpt>
<trkpt lat="46.28310776" lon="7.11396980"><ele></ele><time>2014-4-20T21:6:41Z</time></trkpt>
<trkpt lat="46.28314972" lon="7.11360598"><ele></ele><time>2014-4-20T21:6:44Z</time></trkpt>
<trkpt lat="46.28317261" lon="7.11331415"><ele></ele><time>2014-4-20T21:6:47Z</time></trkpt>
<trkpt lat="46.28314590" lon="7.11285686"><ele></ele><time>2014-4-20T21:6:50Z</time></trkpt>
<trkpt lat="46.28303528" lon="7.11241102"><ele></ele><time>2014-4-20T21:6:53Z</time></trkpt>
<trkpt lat="46.28283691" lon="7.11174583"><ele></ele><time>2014-4-20T21:6:56Z</time></trkpt>
<trkpt lat="46.28266144" lon="7.11115313"><ele></ele><time>2014-4-20T21:6:59Z</time></trkpt>
<trkpt lat="46.28261948" lon="7.11099911"><ele></ele><time>2014-4-20T21:7:2Z</time></trkpt>
<trkpt lat="46.28252411" lon="7.11023378"><ele></ele><time>2014-4-20T21:7:5Z</time></trkpt>
<trkpt lat="46.28250885" lon="7.10934591"><ele></ele><time>2014-4-20T21:7:8Z</time></trkpt>
<trkpt lat="46.28234863" lon="7.10867596"><ele></ele><time>2014-4-20T21:7:11Z</time></trkpt>
<trkpt lat="46.28229523" lon="7.10856485"><ele></ele><time>2014-4-20T21:7:14Z</time></trkpt>
<trkpt lat="46.28191376" lon="7.10793304"><ele></ele><time>2014-4-20T21:7:17Z</time></trkpt>
<trkpt lat="46.28173447" lon="7.10755301"><ele></ele><time>2014-4-20T21:7:20Z</time></trkpt>
<trkpt lat="46.28162003" lon="7.10710287"><ele></ele><time>2014-4-20T21:7:23Z</time></trkpt>
<trkpt lat="46.28158569" lon="7.10659504"><ele></ele><time>2014-4-20T21:7:26Z</time></trkpt>
<trkpt lat="46.28163147" lon="7.10618496"><ele></ele><time>2014-4-20T21:7:29Z</time></trkpt>
<trkpt lat="46.28183365" lon="7.10559511"><ele></ele><time>2014-4-20T21:7:32Z</time></trkpt>
<trkpt lat="46.28205109" lon="7.10503483"><ele></ele><time>2014-4-20T21:7:35Z</time></trkpt>
<trkpt lat="46.28207397" lon="7.10495901"><ele></ele><time>2014-4-20T21:7:38Z</time></trkpt>
<trkpt lat="46.28223038" lon="7.10416412"><ele></ele><time>2014-4-20T21:7:41Z</time></trkpt>
<trkpt lat="46.28233719" lon="7.10348988"><ele></ele><time>2014-4-20T21:7:44Z</time></trkpt>
<trkpt lat="46.28240967" lon="7.10303688"><ele></ele><time>2014-4-20T21:7:47Z</time></trkpt>
<trkpt lat="46.28249359" lon="7.10247278"><ele></ele><time>2014-4-20T21:7:50Z</time></trkpt>
<trkpt lat="46.28251648" lon="7.10216379"><ele></ele><time>2014-4-20T21:7:53Z</time></trkpt>
<trkpt lat="46.28245163" lon="7.10189581"><ele></ele><time>2014-4-20T21:7:56Z</time></trkpt>
<trkpt lat="46.28241730" lon="7.10164404"><ele></ele><time>2014-4-20T21:7:59Z</time></trkpt>
<trkpt lat="46.28244019" lon="7.10138083"><ele></ele><time>2014-4-20T21:8:2Z</time></trkpt>
<trkpt lat="46.28239822" lon="7.10103798"><ele></ele><time>2014-4-20T21:8:5Z</time></trkpt>
<trkpt lat="46.28238297" lon="7.10067701"><ele></ele><time>2014-4-20T21:8:8Z</time></trkpt>
<trkpt lat="46.28239441" lon="7.10059309"><ele></ele><time>2014-4-20T21:8:11Z</time></trkpt>
<trkpt lat="46.28242493" lon="7.10043812"><ele></ele><time>2014-4-20T21:8:14Z</time></trkpt>
<trkpt lat="46.28255081" lon="7.09989500"><ele></ele><time>2014-4-20T21:8:17Z</time></trkpt>
<trkpt lat="46.28255844" lon="7.09972000"><ele></ele><time>2014-4-20T21:8:20Z</time></trkpt>
<trkpt lat="46.28254700" lon="7.09946012"><ele></ele><time>2014-4-20T21:8:23Z</time></trkpt>
<trkpt lat="46.28254318" lon="7.09928417"><ele></ele><time>2014-4-20T21:8:26Z</time></trkpt>
<trkpt lat="46.28250885" lon="7.09893179"><ele></ele><time>2014-4-20T21:8:29Z</time></trkpt>
<trkpt lat="46.28236008" lon="7.09843779"><ele></ele><time>2014-4-20T21:8:32Z</time></trkpt>
<trkpt lat="46.28232193" lon="7.09807014"><ele></ele><time>2014-4-20T21:8:35Z</time></trkpt>
<trkpt lat="46.28236389" lon="7.09764290"><ele></ele><time>2014-4-20T21:8:38Z</time></trkpt>
<trkpt lat="46.28232956" lon="7.09715223"><ele></ele><time>2014-4-20T21:8:41Z</time></trkpt>
<trkpt lat="46.28232574" lon="7.09661818"><ele></ele><time>2014-4-20T21:8:44Z</time></trkpt>
<trkpt lat="46.28229904" lon="7.09632301"><ele></ele><time>2014-4-20T21:8:47Z</time></trkpt>
<trkpt lat="46.28224564" lon="7.09601688"><ele></ele><time>2014-4-20T21:8:50Z</time></trkpt>
<trkpt lat="46.28223038" lon="7.09534693"><ele></ele><time>2014-4-20T21:8:53Z</time></trkpt>
<trkpt lat="46.28226471" lon="7.09517813"><ele></ele><time>2014-4-20T21:8:56Z</time></trkpt>
<trkpt lat="46.28233719" lon="7.09431505"><ele></ele><time>2014-4-20T21:8:59Z</time></trkpt>
<trkpt lat="46.28226089" lon="7.09329081"><ele></ele><time>2014-4-20T21:9:2Z</time></trkpt>
<trkpt lat="46.28234863" lon="7.09268188"><ele></ele><time>2014-4-20T21:9:5Z</time></trkpt>
<trkpt lat="46.28250504" lon="7.09198999"><ele></ele><time>2014-4-20T21:9:8Z</time></trkpt>
<trkpt lat="46.28242874" lon="7.09144497"><ele></ele><time>2014-4-20T21:9:11Z</time></trkpt>
<trkpt lat="46.28233719" lon="7.09118986"><ele></ele><time>2014-4-20T21:9:14Z</time></trkpt>
<trkpt lat="46.28209305" lon="7.09043217"><ele></ele><time>2014-4-20T21:9:17Z</time></trkpt>
<trkpt lat="46.28204727" lon="7.09031010"><ele></ele><time>2014-4-20T21:9:20Z</time></trkpt>
<trkpt lat="46.28196335" lon="7.08977413"><ele></ele><time>2014-4-20T21:9:23Z</time></trkpt>
<trkpt lat="46.28196716" lon="7.08963680"><ele></ele><time>2014-4-20T21:9:26Z</time></trkpt>
<trkpt lat="46.28208923" lon="7.08858585"><ele></ele><time>2014-4-20T21:9:29Z</time></trkpt>
<trkpt lat="46.28229141" lon="7.08785009"><ele></ele><time>2014-4-20T21:9:32Z</time></trkpt>
<trkpt lat="46.28249359" lon="7.08715105"><ele></ele><time>2014-4-20T21:9:35Z</time></trkpt>
<trkpt lat="46.28272629" lon="7.08662081"><ele></ele><time>2014-4-20T21:9:38Z</time></trkpt>
<trkpt lat="46.28305817" lon="7.08578682"><ele></ele><time>2014-4-20T21:9:41Z</time></trkpt>
<trkpt lat="46.28311539" lon="7.08556318"><ele></ele><time>2014-4-20T21:9:44Z</time></trkpt>
<trkpt lat="46.28311157" lon="7.08510590"><ele></ele><time>2014-4-20T21:9:47Z</time></trkpt>
<trkpt lat="46.28310013" lon="7.08499193"><ele></ele><time>2014-4-20T21:9:50Z</time></trkpt>
<trkpt lat="46.28316498" lon="7.08454418"><ele></ele><time>2014-4-20T21:9:53Z</time></trkpt>
<trkpt lat="46.28333664" lon="7.08430290"><ele></ele><time>2014-4-20T21:9:56Z</time></trkpt>
<trkpt lat="46.28383255" lon="7.08375311"><ele></ele><time>2014-4-20T21:9:59Z</time></trkpt>
<trkpt lat="46.28395844" lon="7.08336878"><ele></ele><time>2014-4-20T21:10:2Z</time></trkpt>
<trkpt lat="46.28390884" lon="7.08304310"><ele></ele><time>2014-4-20T21:10:5Z</time></trkpt>
<trkpt lat="46.28376007" lon="7.08229303"><ele></ele><time>2014-4-20T21:10:8Z</time></trkpt>
<trkpt lat="46.28357315" lon="7.08139420"><ele></ele><time>2014-4-20T21:10:11Z</time></trkpt>
<trkpt lat="46.28347015" lon="7.08071899"><ele></ele><time>2014-4-20T21:10:14Z</time></trkpt>
<trkpt lat="46.28349686" lon="7.07994795"><ele></ele><time>2014-4-20T21:10:17Z</time></trkpt>
<trkpt lat="46.28346634" lon="7.07928801"><ele></ele><time>2014-4-20T21:10:20Z</time></trkpt>
<trkpt lat="46.28344345" lon="7.07894611"><ele></ele><time>2014-4-20T21:10:23Z</time></trkpt>
<trkpt lat="46.28352356" lon="7.07810211"><ele></ele><time>2014-4-20T21:10:26Z</time></trkpt>
<trkpt lat="46.28351593" lon="7.07745695"><ele></ele><time>2014-4-20T21:10:29Z</time></trkpt>
<trkpt lat="46.28349304" lon="7.07661676"><ele></ele><time>2014-4-20T21:10:32Z</time></trkpt>
<trkpt lat="46.28346252" lon="7.07600117"><ele></ele><time>2014-4-20T21:10:35Z</time></trkpt>
<trkpt lat="46.28335953" lon="7.07553291"><ele></ele><time>2014-4-20T21:10:38Z</time></trkpt>
<trkpt lat="46.28306580" lon="7.07462883"><ele></ele><time>2014-4-20T21:10:41Z</time></trkpt>
<trkpt lat="46.28298187" lon="7.07403708"><ele></ele><time>2014-4-20T21:10:44Z</time></trkpt>
<trkpt lat="46.28296661" lon="7.07313490"><ele></ele><time>2014-4-20T21:10:47Z</time></trkpt>
<trkpt lat="46.28296661" lon="7.07246685"><ele></ele><time>2014-4-20T21:10:50Z</time></trkpt>
<trkpt lat="46.28298187" lon="7.07202482"><ele></ele><time>2014-4-20T21:10:53Z</time></trkpt>
<trkpt lat="46.28310013" lon="7.07175207"><ele></ele><time>2014-4-20T21:10:56Z</time></trkpt>
<trkpt lat="46.28314590" lon="7.07170582"><ele></ele><time>2014-4-20T21:10:59Z</time></trkpt>
<trkpt lat="46.28326797" lon="7.07153082"><ele></ele><time>2014-4-20T21:11:2Z</time></trkpt>
<trkpt lat="46.28330994" lon="7.07121086"><ele></ele><time>2014-4-20T21:11:5Z</time></trkpt>
<trkpt lat="46.28323746" lon="7.07076406"><ele></ele><time>2014-4-20T21:11:8Z</time></trkpt>
<trkpt lat="46.28318024" lon="7.07064104"><ele></ele><time>2014-4-20T21:11:11Z</time></trkpt>
<trkpt lat="46.28305817" lon="7.07044792"><ele></ele><time>2014-4-20T21:11:14Z</time></trkpt>
<trkpt lat="46.28291321" lon="7.07040119"><ele></ele><time>2014-4-20T21:11:17Z</time></trkpt>
<trkpt lat="46.28260803" lon="7.07050323"><ele></ele><time>2014-4-20T21:11:20Z</time></trkpt>
<trkpt lat="46.28228378" lon="7.07054090"><ele></ele><time>2014-4-20T21:11:23Z</time></trkpt>
<trkpt lat="46.28174210" lon="7.07049084"><ele></ele><time>2014-4-20T21:11:26Z</time></trkpt>
<trkpt lat="46.28165817" lon="7.07048607"><ele></ele><time>2014-4-20T21:11:29Z</time></trkpt>
<trkpt lat="46.28134537" lon="7.07036209"><ele></ele><time>2014-4-20T21:11:32Z</time></trkpt>
<trkpt lat="46.28087234" lon="7.06996202"><ele></ele><time>2014-4-20T21:11:35Z</time></trkpt>
<trkpt lat="46.28051758" lon="7.06946993"><ele></ele><time>2014-4-20T21:11:38Z</time></trkpt>
<trkpt lat="46.28036499" lon="7.06928015"><ele></ele><time>2014-4-20T21:11:41Z</time></trkpt>
<trkpt lat="46.27989197" lon="7.06897020"><ele></ele><time>2014-4-20T21:11:44Z</time></trkpt>
<trkpt lat="46.27967834" lon="7.06893206"><ele></ele><time>2014-4-20T21:11:47Z</time></trkpt>
<trkpt lat="46.27923965" lon="7.06892014"><ele></ele><time>2014-4-20T21:11:50Z</time></trkpt>
<trkpt lat="46.27881622" lon="7.06869221"><ele></ele><time>2014-4-20T21:11:53Z</time></trkpt>
<trkpt lat="46.27865219" lon="7.06845284"><ele></ele><time>2014-4-20T21:11:56Z</time></trkpt>
<trkpt lat="46.27841568" lon="7.06807089"><ele></ele><time>2014-4-20T21:11:59Z</time></trkpt>
<trkpt lat="46.27798462" lon="7.06778812"><ele></ele><time>2014-4-20T21:12:2Z</time></trkpt>
<trkpt lat="46.27740479" lon="7.06759214"><ele></ele><time>2014-4-20T21:12:5Z</time></trkpt>
<trkpt lat="46.27691269" lon="7.06758690"><ele></ele><time>2014-4-20T21:12:8Z</time></trkpt>
<trkpt lat="46.27666855" lon="7.06757784"><ele></ele><time>2014-4-20T21:12:11Z</time></trkpt>
<trkpt lat="46.27621078" lon="7.06727409"><ele></ele><time>2014-4-20T21:12:14Z</time></trkpt>
<trkpt lat="46.27600479" lon="7.06681585"><ele></ele><time>2014-4-20T21:12:17Z</time></trkpt>
<trkpt lat="46.27565384" lon="7.06607294"><ele></ele><time>2014-4-20T21:12:20Z</time></trkpt>
<trkpt lat="46.27492142" lon="7.06508017"><ele></ele><time>2014-4-20T21:12:23Z</time></trkpt>
<trkpt lat="46.27469254" lon="7.06446218"><ele></ele><time>2014-4-20T21:12:26Z</time></trkpt>
<trkpt lat="46.27466202" lon="7.06429386"><ele></ele><time>2014-4-20T21:12:29Z</time></trkpt>
<trkpt lat="46.27447891" lon="7.06293201"><ele></ele><time>2014-4-20T21:12:32Z</time></trkpt>
<trkpt lat="46.27421188" lon="7.06157589"><ele></ele><time>2014-4-20T21:12:35Z</time></trkpt>
<trkpt lat="46.27401733" lon="7.06102085"><ele></ele><time>2014-4-20T21:12:38Z</time></trkpt>
<trkpt lat="46.27393723" lon="7.06081390"><ele></ele><time>2014-4-20T21:12:41Z</time></trkpt>
<trkpt lat="46.27376938" lon="7.06075907"><ele></ele><time>2014-4-20T21:12:44Z</time></trkpt>
<trkpt lat="46.27372360" lon="7.06096983"><ele></ele><time>2014-4-20T21:12:47Z</time></trkpt>
<trkpt lat="46.27374649" lon="7.06107187"><ele></ele><time>2014-4-20T21:12:50Z</time></trkpt>
<trkpt lat="46.27379608" lon="7.06129503"><ele></ele><time>2014-4-20T21:12:53Z</time></trkpt>
<trkpt lat="46.27382278" lon="7.06154203"><ele></ele><time>2014-4-20T21:12:56Z</time></trkpt>
<trkpt lat="46.27383041" lon="7.06157207"><ele></ele><time>2014-4-20T21:12:59Z</time></trkpt>
<trkpt lat="46.27383423" lon="7.06159687"><ele></ele><time>2014-4-20T21:13:2Z</time></trkpt>
<trkpt lat="46.27384567" lon="7.06167078"><ele></ele><time>2014-4-20T21:13:5Z</time></trkpt>
<trkpt lat="46.27391052" lon="7.06206894"><ele></ele><time>2014-4-20T21:13:8Z</time></trkpt>
<trkpt lat="46.27399826" lon="7.06261587"><ele></ele><time>2014-4-20T21:13:11Z</time></trkpt>
<trkpt lat="46.27402878" lon="7.06286812"><ele></ele><time>2014-4-20T21:13:14Z</time></trkpt>
<trkpt lat="46.27400589" lon="7.06338501"><ele></ele><time>2014-4-20T21:13:17Z</time></trkpt>
<trkpt lat="46.27389145" lon="7.06350708"><ele></ele><time>2014-4-20T21:13:20Z</time></trkpt>
<trkpt lat="46.27382278" lon="7.06328583"><ele></ele><time>2014-4-20T21:13:23Z</time></trkpt>
<trkpt lat="46.27371979" lon="7.06299496"><ele></ele><time>2014-4-20T21:13:26Z</time></trkpt>
<trkpt lat="46.27355957" lon="7.06275415"><ele></ele><time>2014-4-20T21:13:29Z</time></trkpt>
<trkpt lat="46.27351379" lon="7.06270599"><ele></ele><time>2014-4-20T21:13:32Z</time></trkpt>
<trkpt lat="46.27346420" lon="7.06260300"><ele></ele><time>2014-4-20T21:13:35Z</time></trkpt>
<trkpt lat="46.27349091" lon="7.06258678"><ele></ele><time>2014-4-20T21:13:38Z</time></trkpt>
<trkpt lat="46.27350616" lon="7.06255817"><ele></ele><time>2014-4-20T21:13:41Z</time></trkpt>
<trkpt lat="46.27347183" lon="7.06265306"><ele></ele><time>2014-4-20T21:13:44Z</time></trkpt>
<trkpt lat="46.27322769" lon="7.06279993"><ele></ele><time>2014-4-20T21:13:47Z</time></trkpt>
<trkpt lat="46.27303314" lon="7.06279612"><ele></ele><time>2014-4-20T21:13:50Z</time></trkpt>
<trkpt lat="46.27290726" lon="7.06257582"><ele></ele><time>2014-4-20T21:13:53Z</time></trkpt>
<trkpt lat="46.27269363" lon="7.06192112"><ele></ele><time>2014-4-20T21:13:56Z</time></trkpt>
<trkpt lat="46.27243042" lon="7.06136084"><ele></ele><time>2014-4-20T21:13:59Z</time></trkpt>
<trkpt lat="46.27233887" lon="7.06111193"><ele></ele><time>2014-4-20T21:14:2Z</time></trkpt>
<trkpt lat="46.27222061" lon="7.06058121"><ele></ele><time>2014-4-20T21:14:5Z</time></trkpt>
<trkpt lat="46.27212906" lon="7.06026602"><ele></ele><time>2014-4-20T21:14:8Z</time></trkpt>
<trkpt lat="46.27190781" lon="7.05987501"><ele></ele><time>2014-4-20T21:14:11Z</time></trkpt>
<trkpt lat="46.27175522" lon="7.05957794"><ele></ele><time>2014-4-20T21:14:14Z</time></trkpt>
<trkpt lat="46.27166367" lon="7.05907106"><ele></ele><time>2014-4-20T21:14:17Z</time></trkpt>
<trkpt lat="46.27151489" lon="7.05857897"><ele></ele><time>2014-4-20T21:14:20Z</time></trkpt>
<trkpt lat="46.27144241" lon="7.05848122"><ele></ele><time>2014-4-20T21:14:23Z</time></trkpt>
<trkpt lat="46.27118683" lon="7.05815983"><ele></ele><time>2014-4-20T21:14:26Z</time></trkpt>
<trkpt lat="46.27103424" lon="7.05767679"><ele></ele><time>2014-4-20T21:14:29Z</time></trkpt>
<trkpt lat="46.27091217" lon="7.05703497"><ele></ele><time>2014-4-20T21:14:32Z</time></trkpt>
<trkpt lat="46.27088928" lon="7.05641317"><ele></ele><time>2014-4-20T21:14:35Z</time></trkpt>
<trkpt lat="46.27079010" lon="7.05577517"><ele></ele><time>2014-4-20T21:14:38Z</time></trkpt>
<trkpt lat="46.27075577" lon="7.05542183"><ele></ele><time>2014-4-20T21:14:41Z</time></trkpt>
<trkpt lat="46.27060699" lon="7.05484915"><ele></ele><time>2014-4-20T21:14:44Z</time></trkpt>
<trkpt lat="46.27057648" lon="7.05466700"><ele></ele><time>2014-4-20T21:14:47Z</time></trkpt>
<trkpt lat="46.27037811" lon="7.05445623"><ele></ele><time>2014-4-20T21:14:50Z</time></trkpt>
<trkpt lat="46.27020264" lon="7.05420589"><ele></ele><time>2014-4-20T21:14:53Z</time></trkpt>
<trkpt lat="46.27016068" lon="7.05380821"><ele></ele><time>2014-4-20T21:14:56Z</time></trkpt>
<trkpt lat="46.27022171" lon="7.05337000"><ele></ele><time>2014-4-20T21:14:59Z</time></trkpt>
<trkpt lat="46.27047729" lon="7.05242920"><ele></ele><time>2014-4-20T21:15:2Z</time></trkpt>
<trkpt lat="46.27079391" lon="7.05140877"><ele></ele><time>2014-4-20T21:15:5Z</time></trkpt>
<trkpt lat="46.27101135" lon="7.05027390"><ele></ele><time>2014-4-20T21:15:8Z</time></trkpt>
<trkpt lat="46.27119446" lon="7.04909611"><ele></ele><time>2014-4-20T21:15:11Z</time></trkpt>
<trkpt lat="46.27124023" lon="7.04875803"><ele></ele><time>2014-4-20T21:15:14Z</time></trkpt>
<trkpt lat="46.27118301" lon="7.04827309"><ele></ele><time>2014-4-20T21:15:17Z</time></trkpt>
<trkpt lat="46.27103424" lon="7.04792786"><ele></ele><time>2014-4-20T21:15:20Z</time></trkpt>
<trkpt lat="46.27101898" lon="7.04781103"><ele></ele><time>2014-4-20T21:15:23Z</time></trkpt>
<trkpt lat="46.27099228" lon="7.04764318"><ele></ele><time>2014-4-20T21:15:26Z</time></trkpt>
<trkpt lat="46.27089310" lon="7.04761219"><ele></ele><time>2014-4-20T21:15:29Z</time></trkpt>
<trkpt lat="46.27074814" lon="7.04769182"><ele></ele><time>2014-4-20T21:15:32Z</time></trkpt>
<trkpt lat="46.27052307" lon="7.04787922"><ele></ele><time>2014-4-20T21:15:35Z</time></trkpt>
<trkpt lat="46.27038956" lon="7.04800510"><ele></ele><time>2014-4-20T21:15:38Z</time></trkpt>
<trkpt lat="46.27016068" lon="7.04804420"><ele></ele><time>2014-4-20T21:15:41Z</time></trkpt>
<trkpt lat="46.27008057" lon="7.04785299"><ele></ele><time>2014-4-20T21:15:44Z</time></trkpt>
<trkpt lat="46.27004242" lon="7.04744291"><ele></ele><time>2014-4-20T21:15:47Z</time></trkpt>
<trkpt lat="46.27005386" lon="7.04705191"><ele></ele><time>2014-4-20T21:15:50Z</time></trkpt>
<trkpt lat="46.26996994" lon="7.04678917"><ele></ele><time>2014-4-20T21:15:53Z</time></trkpt>
<trkpt lat="46.26982880" lon="7.04660702"><ele></ele><time>2014-4-20T21:15:56Z</time></trkpt>
<trkpt lat="46.26962662" lon="7.04651499"><ele></ele><time>2014-4-20T21:15:59Z</time></trkpt>
<trkpt lat="46.26952362" lon="7.04662323"><ele></ele><time>2014-4-20T21:16:2Z</time></trkpt>
<trkpt lat="46.26942825" lon="7.04696178"><ele></ele><time>2014-4-20T21:16:5Z</time></trkpt>
<trkpt lat="46.26940536" lon="7.04710484"><ele></ele><time>2014-4-20T21:16:8Z</time></trkpt>
<trkpt lat="46.26934814" lon="7.04738808"><ele></ele><time>2014-4-20T21:16:11Z</time></trkpt>
<trkpt lat="46.26927948" lon="7.04786110"><ele></ele><time>2014-4-20T21:16:14Z</time></trkpt>
<trkpt lat="46.26908875" lon="7.04856300"><ele></ele><time>2014-4-20T21:16:17Z</time></trkpt>
<trkpt lat="46.26893234" lon="7.04907608"><ele></ele><time>2014-4-20T21:16:20Z</time></trkpt>
<trkpt lat="46.26884460" lon="7.04932690"><ele></ele><time>2014-4-20T21:16:23Z</time></trkpt>
<trkpt lat="46.26855087" lon="7.04952812"><ele></ele><time>2014-4-20T21:16:26Z</time></trkpt>
<trkpt lat="46.26823807" lon="7.04948521"><ele></ele><time>2014-4-20T21:16:29Z</time></trkpt>
<trkpt lat="46.26799774" lon="7.04949903"><ele></ele><time>2014-4-20T21:16:32Z</time></trkpt>
<trkpt lat="46.26781845" lon="7.04965878"><ele></ele><time>2014-4-20T21:16:35Z</time></trkpt>
<trkpt lat="46.26778793" lon="7.04973412"><ele></ele><time>2014-4-20T21:16:38Z</time></trkpt>
<trkpt lat="46.26777649" lon="7.04993582"><ele></ele><time>2014-4-20T21:16:41Z</time></trkpt>
<trkpt lat="46.26776886" lon="7.05007696"><ele></ele><time>2014-4-20T21:16:44Z</time></trkpt>
<trkpt lat="46.26765060" lon="7.05043077"><ele></ele><time>2014-4-20T21:16:47Z</time></trkpt>
<trkpt lat="46.26749039" lon="7.05076790"><ele></ele><time>2014-4-20T21:16:50Z</time></trkpt>
<trkpt lat="46.26711655" lon="7.05124521"><ele></ele><time>2014-4-20T21:16:53Z</time></trkpt>
<trkpt lat="46.26703262" lon="7.05134583"><ele></ele><time>2014-4-20T21:16:56Z</time></trkpt>
<trkpt lat="46.26684189" lon="7.05185795"><ele></ele><time>2014-4-20T21:16:59Z</time></trkpt>
<trkpt lat="46.26669312" lon="7.05282879"><ele></ele><time>2014-4-20T21:17:2Z</time></trkpt>
<trkpt lat="46.26660538" lon="7.05359221"><ele></ele><time>2014-4-20T21:17:5Z</time></trkpt>
<trkpt lat="46.26659393" lon="7.05392790"><ele></ele><time>2014-4-20T21:17:8Z</time></trkpt>
<trkpt lat="46.26675415" lon="7.05443621"><ele></ele><time>2014-4-20T21:17:11Z</time></trkpt>
<trkpt lat="46.26682663" lon="7.05454683"><ele></ele><time>2014-4-20T21:17:14Z</time></trkpt>
<trkpt lat="46.26711273" lon="7.05512094"><ele></ele><time>2014-4-20T21:17:17Z</time></trkpt>
<trkpt lat="46.26728439" lon="7.05541706"><ele></ele><time>2014-4-20T21:17:20Z</time></trkpt>
<trkpt lat="46.26731110" lon="7.05565786"><ele></ele><time>2014-4-20T21:17:23Z</time></trkpt>
<trkpt lat="46.26731110" lon="7.05574894"><ele></ele><time>2014-4-20T21:17:26Z</time></trkpt>
<trkpt lat="46.26734161" lon="7.05656624"><ele></ele><time>2014-4-20T21:17:29Z</time></trkpt>
<trkpt lat="46.26736450" lon="7.05673981"><ele></ele><time>2014-4-20T21:17:32Z</time></trkpt>
<trkpt lat="46.26750183" lon="7.05704880"><ele></ele><time>2014-4-20T21:17:35Z</time></trkpt>
<trkpt lat="46.26727295" lon="7.05732012"><ele></ele><time>2014-4-20T21:17:38Z</time></trkpt>
<trkpt lat="46.26718140" lon="7.05743217"><ele></ele><time>2014-4-20T21:17:41Z</time></trkpt>
<trkpt lat="46.26687622" lon="7.05782700"><ele></ele><time>2014-4-20T21:17:44Z</time></trkpt>
<trkpt lat="46.26675415" lon="7.05839777"><ele></ele><time>2014-4-20T21:17:47Z</time></trkpt>
<trkpt lat="46.26667404" lon="7.05901194"><ele></ele><time>2014-4-20T21:17:50Z</time></trkpt>
<trkpt lat="46.26670456" lon="7.05936623"><ele></ele><time>2014-4-20T21:17:53Z</time></trkpt>
<trkpt lat="46.26659012" lon="7.06002522"><ele></ele><time>2014-4-20T21:17:56Z</time></trkpt>
<trkpt lat="46.26651764" lon="7.06023598"><ele></ele><time>2014-4-20T21:17:59Z</time></trkpt>
<trkpt lat="46.26642990" lon="7.06028414"><ele></ele><time>2014-4-20T21:18:2Z</time></trkpt>
<trkpt lat="46.26643753" lon="7.06019211"><ele></ele><time>2014-4-20T21:18:5Z</time></trkpt>
<trkpt lat="46.26648712" lon="7.05999422"><ele></ele><time>2014-4-20T21:18:8Z</time></trkpt>
<trkpt lat="46.26649475" lon="7.05954790"><ele></ele><time>2014-4-20T21:18:11Z</time></trkpt>
<trkpt lat="46.26648712" lon="7.05944204"><ele></ele><time>2014-4-20T21:18:14Z</time></trkpt>
<trkpt lat="46.26646423" lon="7.05909109"><ele></ele><time>2014-4-20T21:18:17Z</time></trkpt>
<trkpt lat="46.26642227" lon="7.05893183"><ele></ele><time>2014-4-20T21:18:20Z</time></trkpt>
<trkpt lat="46.26640701" lon="7.05893707"><ele></ele><time>2014-4-20T21:18:23Z</time></trkpt>
<trkpt lat="46.26642990" lon="7.05896187"><ele></ele><time>2014-4-20T21:18:26Z</time></trkpt>
<trkpt lat="46.26643753" lon="7.05894423"><ele></ele><time>2014-4-20T21:18:29Z</time></trkpt>
<trkpt lat="46.26636505" lon="7.05877495"><ele></ele><time>2014-4-20T21:18:32Z</time></trkpt>
<trkpt lat="46.26633453" lon="7.05872583"><ele></ele><time>2014-4-20T21:18:35Z</time></trkpt>
<trkpt lat="46.26618576" lon="7.05835676"><ele></ele><time>2014-4-20T21:18:38Z</time></trkpt>
<trkpt lat="46.26618576" lon="7.05814695"><ele></ele><time>2014-4-20T21:18:41Z</time></trkpt>
<trkpt lat="46.26628876" lon="7.05745077"><ele></ele><time>2014-4-20T21:18:44Z</time></trkpt>
<trkpt lat="46.26628876" lon="7.05729914"><ele></ele><time>2014-4-20T21:18:47Z</time></trkpt>
<trkpt lat="46.26626587" lon="7.05700588"><ele></ele><time>2014-4-20T21:18:50Z</time></trkpt>
<trkpt lat="46.26610184" lon="7.05658293"><ele></ele><time>2014-4-20T21:18:53Z</time></trkpt>
<trkpt lat="46.26573563" lon="7.05574703"><ele></ele><time>2014-4-20T21:18:56Z</time></trkpt>
<trkpt lat="46.26566696" lon="7.05561209"><ele></ele><time>2014-4-20T21:18:59Z</time></trkpt>
<trkpt lat="46.26533508" lon="7.05512714"><ele></ele><time>2014-4-20T21:19:2Z</time></trkpt>
<trkpt lat="46.26508331" lon="7.05454016"><ele></ele><time>2014-4-20T21:19:5Z</time></trkpt>
<trkpt lat="46.26490021" lon="7.05406809"><ele></ele><time>2014-4-20T21:19:8Z</time></trkpt>
<trkpt lat="46.26485825" lon="7.05354595"><ele></ele><time>2014-4-20T21:19:11Z</time></trkpt>
<trkpt lat="46.26472855" lon="7.05278492"><ele></ele><time>2014-4-20T21:19:14Z</time></trkpt>
<trkpt lat="46.26448059" lon="7.05204582"><ele></ele><time>2014-4-20T21:19:17Z</time></trkpt>
<trkpt lat="46.26440430" lon="7.05189180"><ele></ele><time>2014-4-20T21:19:20Z</time></trkpt>
<trkpt lat="46.26404572" lon="7.05150986"><ele></ele><time>2014-4-20T21:19:23Z</time></trkpt>
<trkpt lat="46.26383591" lon="7.05137777"><ele></ele><time>2014-4-20T21:19:26Z</time></trkpt>
<trkpt lat="46.26369095" lon="7.05099583"><ele></ele><time>2014-4-20T21:19:29Z</time></trkpt>
<trkpt lat="46.26351166" lon="7.05017281"><ele></ele><time>2014-4-20T21:19:32Z</time></trkpt>
<trkpt lat="46.26354218" lon="7.04983377"><ele></ele><time>2014-4-20T21:19:35Z</time></trkpt>
<trkpt lat="46.26376343" lon="7.04950619"><ele></ele><time>2014-4-20T21:19:38Z</time></trkpt>
<trkpt lat="46.26395798" lon="7.04934406"><ele></ele><time>2014-4-20T21:19:41Z</time></trkpt>
<trkpt lat="46.26431274" lon="7.04924107"><ele></ele><time>2014-4-20T21:19:44Z</time></trkpt>
<trkpt lat="46.26450348" lon="7.04912090"><ele></ele><time>2014-4-20T21:19:47Z</time></trkpt>
<trkpt lat="46.26456070" lon="7.04877710"><ele></ele><time>2014-4-20T21:19:50Z</time></trkpt>
<trkpt lat="46.26449966" lon="7.04793310"><ele></ele><time>2014-4-20T21:19:53Z</time></trkpt>
<trkpt lat="46.26440430" lon="7.04740810"><ele></ele><time>2014-4-20T21:19:56Z</time></trkpt>
<trkpt lat="46.26421356" lon="7.04645014"><ele></ele><time>2014-4-20T21:19:59Z</time></trkpt>
<trkpt lat="46.26418686" lon="7.04629707"><ele></ele><time>2014-4-20T21:20:2Z</time></trkpt>
<trkpt lat="46.26417160" lon="7.04580784"><ele></ele><time>2014-4-20T21:20:5Z</time></trkpt>
<trkpt lat="46.26416016" lon="7.04529381"><ele></ele><time>2014-4-20T21:20:8Z</time></trkpt>
<trkpt lat="46.26427460" lon="7.04493380"><ele></ele><time>2014-4-20T21:20:11Z</time></trkpt>
<trkpt lat="46.26432800" lon="7.04479980"><ele></ele><time>2014-4-20T21:20:14Z</time></trkpt>
<trkpt lat="46.26439667" lon="7.04398918"><ele></ele><time>2014-4-20T21:20:17Z</time></trkpt>
<trkpt lat="46.26439285" lon="7.04385424"><ele></ele><time>2014-4-20T21:20:20Z</time></trkpt>
<trkpt lat="46.26450729" lon="7.04348993"><ele></ele><time>2014-4-20T21:20:23Z</time></trkpt>
<trkpt lat="46.26461411" lon="7.04329777"><ele></ele><time>2014-4-20T21:20:26Z</time></trkpt>
<trkpt lat="46.26498413" lon="7.04293108"><ele></ele><time>2014-4-20T21:20:29Z</time></trkpt>
<trkpt lat="46.26507187" lon="7.04281902"><ele></ele><time>2014-4-20T21:20:32Z</time></trkpt>
<trkpt lat="46.26522446" lon="7.04240799"><ele></ele><time>2014-4-20T21:20:35Z</time></trkpt>
<trkpt lat="46.26518250" lon="7.04195881"><ele></ele><time>2014-4-20T21:20:38Z</time></trkpt>
<trkpt lat="46.26503754" lon="7.04160309"><ele></ele><time>2014-4-20T21:20:41Z</time></trkpt>
<trkpt lat="46.26503754" lon="7.04134798"><ele></ele><time>2014-4-20T21:20:44Z</time></trkpt>
<trkpt lat="46.26510239" lon="7.04092407"><ele></ele><time>2014-4-20T21:20:47Z</time></trkpt>
<trkpt lat="46.26520157" lon="7.03980923"><ele></ele><time>2014-4-20T21:20:50Z</time></trkpt>
<trkpt lat="46.26538467" lon="7.03936815"><ele></ele><time>2014-4-20T21:20:53Z</time></trkpt>
<trkpt lat="46.26554871" lon="7.03915119"><ele></ele><time>2014-4-20T21:20:56Z</time></trkpt>
<trkpt lat="46.26600647" lon="7.03828907"><ele></ele><time>2014-4-20T21:20:59Z</time></trkpt>
<trkpt lat="46.26612091" lon="7.03796291"><ele></ele><time>2014-4-20T21:21:2Z</time></trkpt>
<trkpt lat="46.26610184" lon="7.03718805"><ele></ele><time>2014-4-20T21:21:5Z</time></trkpt>
<trkpt lat="46.26606750" lon="7.03678179"><ele></ele><time>2014-4-20T21:21:8Z</time></trkpt>
<trkpt lat="46.26592636" lon="7.03622198"><ele></ele><time>2014-4-20T21:21:11Z</time></trkpt>
<trkpt lat="46.26585388" lon="7.03603792"><ele></ele><time>2014-4-20T21:21:14Z</time></trkpt>
<trkpt lat="46.26570511" lon="7.03546095"><ele></ele><time>2014-4-20T21:21:17Z</time></trkpt>
<trkpt lat="46.26566315" lon="7.03448486"><ele></ele><time>2014-4-20T21:21:20Z</time></trkpt>
<trkpt lat="46.26536560" lon="7.03395605"><ele></ele><time>2014-4-20T21:21:23Z</time></trkpt>
<trkpt lat="46.26514435" lon="7.03337908"><ele></ele><time>2014-4-20T21:21:26Z</time></trkpt>
<trkpt lat="46.26501083" lon="7.03270578"><ele></ele><time>2014-4-20T21:21:29Z</time></trkpt>
<trkpt lat="46.26496506" lon="7.03253698"><ele></ele><time>2014-4-20T21:21:32Z</time></trkpt>
<trkpt lat="46.26479340" lon="7.03206301"><ele></ele><time>2014-4-20T21:21:35Z</time></trkpt>
<trkpt lat="46.26446152" lon="7.03150511"><ele></ele><time>2014-4-20T21:21:38Z</time></trkpt>
<trkpt lat="46.26406479" lon="7.03116894"><ele></ele><time>2014-4-20T21:21:41Z</time></trkpt>
<trkpt lat="46.26380157" lon="7.03086996"><ele></ele><time>2014-4-20T21:21:44Z</time></trkpt>
<trkpt lat="46.26361847" lon="7.03042984"><ele></ele><time>2014-4-20T21:21:47Z</time></trkpt>
<trkpt lat="46.26342010" lon="7.03007698"><ele></ele><time>2014-4-20T21:21:50Z</time></trkpt>
<trkpt lat="46.26305008" lon="7.02981710"><ele></ele><time>2014-4-20T21:21:53Z</time></trkpt>
<trkpt lat="46.26271439" lon="7.02968407"><ele></ele><time>2014-4-20T21:21:56Z</time></trkpt>
<trkpt lat="46.26239395" lon="7.02947378"><ele></ele><time>2014-4-20T21:21:59Z</time></trkpt>
<trkpt lat="46.26193237" lon="7.02945423"><ele></ele><time>2014-4-20T21:22:2Z</time></trkpt>
<trkpt lat="46.26148605" lon="7.02927399"><ele></ele><time>2014-4-20T21:22:5Z</time></trkpt>
<trkpt lat="46.26137924" lon="7.02921391"><ele></ele><time>2014-4-20T21:22:8Z</time></trkpt>
<trkpt lat="46.26135254" lon="7.02921391"><ele></ele><time>2014-4-20T21:22:11Z</time></trkpt>
<trkpt lat="46.26118469" lon="7.02922821"><ele></ele><time>2014-4-20T21:22:14Z</time></trkpt>
<trkpt lat="46.26091385" lon="7.02928305"><ele></ele><time>2014-4-20T21:22:17Z</time></trkpt>
<trkpt lat="46.26088333" lon="7.02913904"><ele></ele><time>2014-4-20T21:22:20Z</time></trkpt>
<trkpt lat="46.26088715" lon="7.02904987"><ele></ele><time>2014-4-20T21:22:23Z</time></trkpt>
<trkpt lat="46.26086807" lon="7.02867889"><ele></ele><time>2014-4-20T21:22:26Z</time></trkpt>
<trkpt lat="46.26070404" lon="7.02861977"><ele></ele><time>2014-4-20T21:22:29Z</time></trkpt>
<trkpt lat="46.26050186" lon="7.02866793"><ele></ele><time>2014-4-20T21:22:32Z</time></trkpt>
<trkpt lat="46.26021957" lon="7.02889490"><ele></ele><time>2014-4-20T21:22:35Z</time></trkpt>
<trkpt lat="46.25981140" lon="7.02938890"><ele></ele><time>2014-4-20T21:22:38Z</time></trkpt>
<trkpt lat="46.25975037" lon="7.02946615"><ele></ele><time>2014-4-20T21:22:41Z</time></trkpt>
<trkpt lat="46.25938797" lon="7.02970886"><ele></ele><time>2014-4-20T21:22:44Z</time></trkpt>
<trkpt lat="46.25904083" lon="7.02965498"><ele></ele><time>2014-4-20T21:22:47Z</time></trkpt>
<trkpt lat="46.25890732" lon="7.02962923"><ele></ele><time>2014-4-20T21:22:50Z</time></trkpt>
<trkpt lat="46.25851059" lon="7.02960587"><ele></ele><time>2014-4-20T21:22:53Z</time></trkpt>
<trkpt lat="46.25826263" lon="7.02964211"><ele></ele><time>2014-4-20T21:22:56Z</time></trkpt>
<trkpt lat="46.25794220" lon="7.02954388"><ele></ele><time>2014-4-20T21:22:59Z</time></trkpt>
<trkpt lat="46.25773239" lon="7.02948999"><ele></ele><time>2014-4-20T21:23:2Z</time></trkpt>
<trkpt lat="46.25744247" lon="7.02935505"><ele></ele><time>2014-4-20T21:23:5Z</time></trkpt>
<trkpt lat="46.25702667" lon="7.02880907"><ele></ele><time>2014-4-20T21:23:8Z</time></trkpt>
<trkpt lat="46.25697327" lon="7.02873182"><ele></ele><time>2014-4-20T21:23:11Z</time></trkpt>
<trkpt lat="46.25655746" lon="7.02800798"><ele></ele><time>2014-4-20T21:23:14Z</time></trkpt>
<trkpt lat="46.25651169" lon="7.02793121"><ele></ele><time>2014-4-20T21:23:17Z</time></trkpt>
<trkpt lat="46.25630951" lon="7.02750778"><ele></ele><time>2014-4-20T21:23:20Z</time></trkpt>
<trkpt lat="46.25605774" lon="7.02709198"><ele></ele><time>2014-4-20T21:23:23Z</time></trkpt>
<trkpt lat="46.25581741" lon="7.02692509"><ele></ele><time>2014-4-20T21:23:26Z</time></trkpt>
<trkpt lat="46.25574112" lon="7.02689505"><ele></ele><time>2014-4-20T21:23:29Z</time></trkpt>
<trkpt lat="46.25556564" lon="7.02667904"><ele></ele><time>2014-4-20T21:23:32Z</time></trkpt>
<trkpt lat="46.25548172" lon="7.02647018"><ele></ele><time>2014-4-20T21:23:35Z</time></trkpt>
<trkpt lat="46.25522995" lon="7.02613306"><ele></ele><time>2014-4-20T21:23:38Z</time></trkpt>
<trkpt lat="46.25514221" lon="7.02607393"><ele></ele><time>2014-4-20T21:23:41Z</time></trkpt>
<trkpt lat="46.25478363" lon="7.02583122"><ele></ele><time>2014-4-20T21:23:44Z</time></trkpt>
<trkpt lat="46.25449753" lon="7.02548790"><ele></ele><time>2014-4-20T21:23:47Z</time></trkpt>
<trkpt lat="46.25444794" lon="7.02539587"><ele></ele><time>2014-4-20T21:23:50Z</time></trkpt>
<trkpt lat="46.25421524" lon="7.02524519"><ele></ele><time>2014-4-20T21:23:53Z</time></trkpt>
<trkpt lat="46.25404358" lon="7.02529383"><ele></ele><time>2014-4-20T21:23:56Z</time></trkpt>
<trkpt lat="46.25392151" lon="7.02523708"><ele></ele><time>2014-4-20T21:23:59Z</time></trkpt>
<trkpt lat="46.25371170" lon="7.02502680"><ele></ele><time>2014-4-20T21:24:2Z</time></trkpt>
<trkpt lat="46.25345612" lon="7.02455282"><ele></ele><time>2014-4-20T21:24:5Z</time></trkpt>
<trkpt lat="46.25318146" lon="7.02408600"><ele></ele><time>2014-4-20T21:24:8Z</time></trkpt>
<trkpt lat="46.25309372" lon="7.02364016"><ele></ele><time>2014-4-20T21:24:11Z</time></trkpt>
<trkpt lat="46.25307846" lon="7.02300596"><ele></ele><time>2014-4-20T21:24:14Z</time></trkpt>
<trkpt lat="46.25289154" lon="7.02252388"><ele></ele><time>2014-4-20T21:24:17Z</time></trkpt>
<trkpt lat="46.25254440" lon="7.02207422"><ele></ele><time>2014-4-20T21:24:20Z</time></trkpt>
<trkpt lat="46.25211716" lon="7.02177620"><ele></ele><time>2014-4-20T21:24:23Z</time></trkpt>
<trkpt lat="46.25174332" lon="7.02165985"><ele></ele><time>2014-4-20T21:24:26Z</time></trkpt>
<trkpt lat="46.25131607" lon="7.02136517"><ele></ele><time>2014-4-20T21:24:29Z</time></trkpt>
<trkpt lat="46.25088501" lon="7.02088308"><ele></ele><time>2014-4-20T21:24:32Z</time></trkpt>
<trkpt lat="46.25068665" lon="7.02051401"><ele></ele><time>2014-4-20T21:24:35Z</time></trkpt>
<trkpt lat="46.25061798" lon="7.02033281"><ele></ele><time>2014-4-20T21:24:38Z</time></trkpt>
<trkpt lat="46.25042725" lon="7.02022219"><ele></ele><time>2014-4-20T21:24:41Z</time></trkpt>
<trkpt lat="46.25028229" lon="7.02009487"><ele></ele><time>2014-4-20T21:24:44Z</time></trkpt>
<trkpt lat="46.25026321" lon="7.02000189"><ele></ele><time>2014-4-20T21:24:47Z</time></trkpt>
<trkpt lat="46.25002289" lon="7.01904583"><ele></ele><time>2014-4-20T21:24:50Z</time></trkpt>
<trkpt lat="46.24993896" lon="7.01871586"><ele></ele><time>2014-4-20T21:24:53Z</time></trkpt>
<trkpt lat="46.24981689" lon="7.01841497"><ele></ele><time>2014-4-20T21:24:56Z</time></trkpt>
<trkpt lat="46.24951172" lon="7.01783085"><ele></ele><time>2014-4-20T21:24:59Z</time></trkpt>
<trkpt lat="46.24931335" lon="7.01714706"><ele></ele><time>2014-4-20T21:25:2Z</time></trkpt>
<trkpt lat="46.24920654" lon="7.01681089"><ele></ele><time>2014-4-20T21:25:5Z</time></trkpt>
<trkpt lat="46.24914932" lon="7.01658106"><ele></ele><time>2014-4-20T21:25:8Z</time></trkpt>
<trkpt lat="46.24898911" lon="7.01600218"><ele></ele><time>2014-4-20T21:25:11Z</time></trkpt>
<trkpt lat="46.24892044" lon="7.01576996"><ele></ele><time>2014-4-20T21:25:14Z</time></trkpt>
<trkpt lat="46.24853897" lon="7.01490402"><ele></ele><time>2014-4-20T21:25:17Z</time></trkpt>
<trkpt lat="46.24815750" lon="7.01391888"><ele></ele><time>2014-4-20T21:25:20Z</time></trkpt>
<trkpt lat="46.24794006" lon="7.01322508"><ele></ele><time>2014-4-20T21:25:23Z</time></trkpt>
<trkpt lat="46.24781036" lon="7.01279688"><ele></ele><time>2014-4-20T21:25:26Z</time></trkpt>
<trkpt lat="46.24761963" lon="7.01264620"><ele></ele><time>2014-4-20T21:25:29Z</time></trkpt>
<trkpt lat="46.24713135" lon="7.01261282"><ele></ele><time>2014-4-20T21:25:32Z</time></trkpt>
<trkpt lat="46.24681854" lon="7.01245689"><ele></ele><time>2014-4-20T21:25:35Z</time></trkpt>
<trkpt lat="46.24670410" lon="7.01235104"><ele></ele><time>2014-4-20T21:25:38Z</time></trkpt>
<trkpt lat="46.24654388" lon="7.01200104"><ele></ele><time>2014-4-20T21:25:41Z</time></trkpt>
<trkpt lat="46.24649429" lon="7.01192713"><ele></ele><time>2014-4-20T21:25:44Z</time></trkpt>
<trkpt lat="46.24635696" lon="7.01194000"><ele></ele><time>2014-4-20T21:25:47Z</time></trkpt>
<trkpt lat="46.24630356" lon="7.01200199"><ele></ele><time>2014-4-20T21:25:50Z</time></trkpt>
<trkpt lat="46.24618149" lon="7.01215410"><ele></ele><time>2014-4-20T21:25:53Z</time></trkpt>
<trkpt lat="46.24607468" lon="7.01240587"><ele></ele><time>2014-4-20T21:25:56Z</time></trkpt>
<trkpt lat="46.24608612" lon="7.01253223"><ele></ele><time>2014-4-20T21:25:59Z</time></trkpt>
<trkpt lat="46.24609756" lon="7.01255322"><ele></ele><time>2014-4-20T21:26:2Z</time></trkpt>
</trkseg></trk></gpx>